<?xml version="1.0" encoding="UTF-8" standalone="no" ?>
<gpx xmlns="http://www.topografix.com/GPX/1/1" xmlns:xsi="http://www.w3.org/2001/XMLSchema-instance" xsi:schemaLocation="http://www.topografix.com/GPX/1/1 http://www.topografix.com/GPX/1/1/gpx.xsd" version="1.1" creator="VisuGPX - https://www.visugpx.com">
  <metadata>
    <name>VTT Tour / Mont Beauvoir</name>
    <desc><![CDATA[Balade facile à VTT, départ d\'Entre-Deux-Guiers.]]></desc>
  </metadata>
  <trk>
    <name><![CDATA[VTT Tour / Mont Beauvoir_1]]></name>
    <trkseg>
      <trkpt lat="45.44366" lon="5.78272">
        <ele>381</ele>
        <time>2011-02-19T08:07:35Z</time>
      </trkpt>
      <trkpt lat="45.44354" lon="5.78262">
        <ele>381</ele>
        <time>2011-02-19T08:07:39Z</time>
      </trkpt>
      <trkpt lat="45.44342" lon="5.78259">
        <ele>381</ele>
        <time>2011-02-19T08:07:46Z</time>
      </trkpt>
      <trkpt lat="45.44335" lon="5.78263">
        <ele>382</ele>
        <time>2011-02-19T08:07:59Z</time>
      </trkpt>
      <trkpt lat="45.44327" lon="5.78277">
        <ele>385</ele>
        <time>2011-02-19T08:08:16Z</time>
      </trkpt>
      <trkpt lat="45.44317" lon="5.78286">
        <ele>389</ele>
        <time>2011-02-19T08:08:29Z</time>
      </trkpt>
      <trkpt lat="45.44309" lon="5.78295">
        <ele>391</ele>
        <time>2011-02-19T08:08:41Z</time>
      </trkpt>
      <trkpt lat="45.443" lon="5.78303">
        <ele>395</ele>
        <time>2011-02-19T08:08:54Z</time>
      </trkpt>
      <trkpt lat="45.44293" lon="5.78306">
        <ele>397</ele>
        <time>2011-02-19T08:09:15Z</time>
      </trkpt>
      <trkpt lat="45.44283" lon="5.78306">
        <ele>401</ele>
        <time>2011-02-19T08:09:27Z</time>
      </trkpt>
      <trkpt lat="45.44276" lon="5.78305">
        <ele>403</ele>
        <time>2011-02-19T08:09:51Z</time>
      </trkpt>
      <trkpt lat="45.44266" lon="5.78311">
        <ele>405</ele>
        <time>2011-02-19T08:10:08Z</time>
      </trkpt>
      <trkpt lat="45.44265" lon="5.78311">
        <ele>405</ele>
        <time>2011-02-19T08:10:11Z</time>
      </trkpt>
      <trkpt lat="45.44256" lon="5.78324">
        <ele>409</ele>
        <time>2011-02-19T08:10:24Z</time>
      </trkpt>
      <trkpt lat="45.44246" lon="5.7833">
        <ele>412</ele>
        <time>2011-02-19T08:10:35Z</time>
      </trkpt>
      <trkpt lat="45.44244" lon="5.78335">
        <ele>413</ele>
        <time>2011-02-19T08:10:40Z</time>
      </trkpt>
      <trkpt lat="45.44236" lon="5.7834">
        <ele>416</ele>
        <time>2011-02-19T08:10:51Z</time>
      </trkpt>
      <trkpt lat="45.4423" lon="5.78345">
        <ele>420</ele>
        <time>2011-02-19T08:11:03Z</time>
      </trkpt>
      <trkpt lat="45.44221" lon="5.78351">
        <ele>423</ele>
        <time>2011-02-19T08:11:17Z</time>
      </trkpt>
      <trkpt lat="45.44215" lon="5.78359">
        <ele>426</ele>
        <time>2011-02-19T08:11:30Z</time>
      </trkpt>
      <trkpt lat="45.44204" lon="5.78358">
        <ele>428</ele>
        <time>2011-02-19T08:11:45Z</time>
      </trkpt>
      <trkpt lat="45.442" lon="5.78364">
        <ele>431</ele>
        <time>2011-02-19T08:12:00Z</time>
      </trkpt>
      <trkpt lat="45.44193" lon="5.78365">
        <ele>435</ele>
        <time>2011-02-19T08:12:11Z</time>
      </trkpt>
      <trkpt lat="45.44187" lon="5.78369">
        <ele>438</ele>
        <time>2011-02-19T08:12:27Z</time>
      </trkpt>
      <trkpt lat="45.44189" lon="5.78376">
        <ele>440</ele>
        <time>2011-02-19T08:12:39Z</time>
      </trkpt>
      <trkpt lat="45.44189" lon="5.78381">
        <ele>442</ele>
        <time>2011-02-19T08:12:55Z</time>
      </trkpt>
      <trkpt lat="45.44182" lon="5.78387">
        <ele>445</ele>
        <time>2011-02-19T08:13:06Z</time>
      </trkpt>
      <trkpt lat="45.4417" lon="5.7839">
        <ele>449</ele>
        <time>2011-02-19T08:13:21Z</time>
      </trkpt>
      <trkpt lat="45.44165" lon="5.78393">
        <ele>452</ele>
        <time>2011-02-19T08:13:39Z</time>
      </trkpt>
      <trkpt lat="45.44167" lon="5.78397">
        <ele>455</ele>
        <time>2011-02-19T08:13:55Z</time>
      </trkpt>
      <trkpt lat="45.44164" lon="5.78405">
        <ele>458</ele>
        <time>2011-02-19T08:14:09Z</time>
      </trkpt>
      <trkpt lat="45.44149" lon="5.78404">
        <ele>461</ele>
        <time>2011-02-19T08:14:26Z</time>
      </trkpt>
      <trkpt lat="45.44138" lon="5.78406">
        <ele>464</ele>
        <time>2011-02-19T08:14:43Z</time>
      </trkpt>
      <trkpt lat="45.44133" lon="5.78409">
        <ele>466</ele>
        <time>2011-02-19T08:14:58Z</time>
      </trkpt>
      <trkpt lat="45.44131" lon="5.78411">
        <ele>469</ele>
        <time>2011-02-19T08:15:48Z</time>
      </trkpt>
      <trkpt lat="45.44128" lon="5.78411">
        <ele>471</ele>
        <time>2011-02-19T08:16:10Z</time>
      </trkpt>
      <trkpt lat="45.44128" lon="5.78413">
        <ele>472</ele>
        <time>2011-02-19T08:16:23Z</time>
      </trkpt>
      <trkpt lat="45.44124" lon="5.78418">
        <ele>475</ele>
        <time>2011-02-19T08:16:52Z</time>
      </trkpt>
      <trkpt lat="45.44129" lon="5.78419">
        <ele>477</ele>
        <time>2011-02-19T08:17:04Z</time>
      </trkpt>
      <trkpt lat="45.44125" lon="5.78424">
        <ele>480</ele>
        <time>2011-02-19T08:17:18Z</time>
      </trkpt>
      <trkpt lat="45.44122" lon="5.78426">
        <ele>482</ele>
        <time>2011-02-19T08:17:31Z</time>
      </trkpt>
      <trkpt lat="45.4412" lon="5.78425">
        <ele>484</ele>
        <time>2011-02-19T08:17:52Z</time>
      </trkpt>
      <trkpt lat="45.44119" lon="5.78426">
        <ele>485</ele>
        <time>2011-02-19T08:18:03Z</time>
      </trkpt>
      <trkpt lat="45.44119" lon="5.78426">
        <ele>488</ele>
        <time>2011-02-19T08:21:11Z</time>
      </trkpt>
      <trkpt lat="45.44118" lon="5.78429">
        <ele>491</ele>
        <time>2011-02-19T08:23:16Z</time>
      </trkpt>
      <trkpt lat="45.44119" lon="5.78435">
        <ele>493</ele>
        <time>2011-02-19T08:23:30Z</time>
      </trkpt>
      <trkpt lat="45.44119" lon="5.78439">
        <ele>494</ele>
        <time>2011-02-19T08:23:48Z</time>
      </trkpt>
      <trkpt lat="45.44122" lon="5.7844">
        <ele>495</ele>
        <time>2011-02-19T08:23:57Z</time>
      </trkpt>
      <trkpt lat="45.44122" lon="5.78438">
        <ele>496</ele>
        <time>2011-02-19T08:24:34Z</time>
      </trkpt>
      <trkpt lat="45.44127" lon="5.78438">
        <ele>499</ele>
        <time>2011-02-19T08:24:46Z</time>
      </trkpt>
      <trkpt lat="45.4413" lon="5.78437">
        <ele>501</ele>
        <time>2011-02-19T08:24:51Z</time>
      </trkpt>
      <trkpt lat="45.44136" lon="5.78434">
        <ele>503</ele>
        <time>2011-02-19T08:25:03Z</time>
      </trkpt>
      <trkpt lat="45.44133" lon="5.78438">
        <ele>503</ele>
        <time>2011-02-19T08:25:11Z</time>
      </trkpt>
      <trkpt lat="45.44128" lon="5.7844">
        <ele>504</ele>
        <time>2011-02-19T08:25:32Z</time>
      </trkpt>
      <trkpt lat="45.44121" lon="5.78444">
        <ele>505</ele>
        <time>2011-02-19T08:26:13Z</time>
      </trkpt>
      <trkpt lat="45.44121" lon="5.78443">
        <ele>505</ele>
        <time>2011-02-19T08:26:31Z</time>
      </trkpt>
      <trkpt lat="45.4412" lon="5.78448">
        <ele>506</ele>
        <time>2011-02-19T08:28:19Z</time>
      </trkpt>
      <trkpt lat="45.4412" lon="5.78454">
        <ele>510</ele>
        <time>2011-02-19T08:28:52Z</time>
      </trkpt>
      <trkpt lat="45.44123" lon="5.78464">
        <ele>513</ele>
        <time>2011-02-19T08:29:06Z</time>
      </trkpt>
      <trkpt lat="45.44124" lon="5.78471">
        <ele>514</ele>
        <time>2011-02-19T08:29:17Z</time>
      </trkpt>
      <trkpt lat="45.44119" lon="5.78483">
        <ele>517</ele>
        <time>2011-02-19T08:29:31Z</time>
      </trkpt>
      <trkpt lat="45.44112" lon="5.78493">
        <ele>518</ele>
        <time>2011-02-19T08:29:45Z</time>
      </trkpt>
      <trkpt lat="45.44103" lon="5.78507">
        <ele>520</ele>
        <time>2011-02-19T08:29:56Z</time>
      </trkpt>
      <trkpt lat="45.44107" lon="5.78511">
        <ele>522</ele>
        <time>2011-02-19T08:30:14Z</time>
      </trkpt>
      <trkpt lat="45.4411" lon="5.78511">
        <ele>524</ele>
        <time>2011-02-19T08:31:55Z</time>
      </trkpt>
      <trkpt lat="45.44111" lon="5.7851">
        <ele>524</ele>
        <time>2011-02-19T08:31:59Z</time>
      </trkpt>
      <trkpt lat="45.44135" lon="5.78494">
        <ele>525</ele>
        <time>2011-02-19T08:32:15Z</time>
      </trkpt>
      <trkpt lat="45.44145" lon="5.78482">
        <ele>527</ele>
        <time>2011-02-19T08:32:25Z</time>
      </trkpt>
      <trkpt lat="45.44157" lon="5.78471">
        <ele>528</ele>
        <time>2011-02-19T08:32:40Z</time>
      </trkpt>
      <trkpt lat="45.44177" lon="5.78478">
        <ele>530</ele>
        <time>2011-02-19T08:32:52Z</time>
      </trkpt>
      <trkpt lat="45.44193" lon="5.7848">
        <ele>533</ele>
        <time>2011-02-19T08:33:03Z</time>
      </trkpt>
      <trkpt lat="45.44209" lon="5.78474">
        <ele>533</ele>
        <time>2011-02-19T08:33:13Z</time>
      </trkpt>
      <trkpt lat="45.44217" lon="5.78479">
        <ele>536</ele>
        <time>2011-02-19T08:33:25Z</time>
      </trkpt>
      <trkpt lat="45.44223" lon="5.78479">
        <ele>537</ele>
        <time>2011-02-19T08:33:38Z</time>
      </trkpt>
      <trkpt lat="45.44224" lon="5.78479">
        <ele>537</ele>
        <time>2011-02-19T08:33:39Z</time>
      </trkpt>
      <trkpt lat="45.44234" lon="5.7848">
        <ele>538</ele>
        <time>2011-02-19T08:33:46Z</time>
      </trkpt>
      <trkpt lat="45.44239" lon="5.78478">
        <ele>538</ele>
        <time>2011-02-19T08:33:50Z</time>
      </trkpt>
      <trkpt lat="45.44253" lon="5.78474">
        <ele>539</ele>
        <time>2011-02-19T08:33:58Z</time>
      </trkpt>
      <trkpt lat="45.44262" lon="5.78477">
        <ele>542</ele>
        <time>2011-02-19T08:34:09Z</time>
      </trkpt>
      <trkpt lat="45.44269" lon="5.7848">
        <ele>544</ele>
        <time>2011-02-19T08:34:17Z</time>
      </trkpt>
      <trkpt lat="45.44282" lon="5.78481">
        <ele>547</ele>
        <time>2011-02-19T08:34:31Z</time>
      </trkpt>
      <trkpt lat="45.44298" lon="5.78479">
        <ele>550</ele>
        <time>2011-02-19T08:34:47Z</time>
      </trkpt>
      <trkpt lat="45.44308" lon="5.78479">
        <ele>553</ele>
        <time>2011-02-19T08:35:02Z</time>
      </trkpt>
      <trkpt lat="45.44311" lon="5.78477">
        <ele>554</ele>
        <time>2011-02-19T08:35:08Z</time>
      </trkpt>
      <trkpt lat="45.44322" lon="5.78471">
        <ele>555</ele>
        <time>2011-02-19T08:35:27Z</time>
      </trkpt>
      <trkpt lat="45.44325" lon="5.7847">
        <ele>556</ele>
        <time>2011-02-19T08:35:39Z</time>
      </trkpt>
      <trkpt lat="45.44332" lon="5.7847">
        <ele>557</ele>
        <time>2011-02-19T08:37:08Z</time>
      </trkpt>
      <trkpt lat="45.4435" lon="5.78473">
        <ele>558</ele>
        <time>2011-02-19T08:37:21Z</time>
      </trkpt>
      <trkpt lat="45.44361" lon="5.78468">
        <ele>558</ele>
        <time>2011-02-19T08:37:27Z</time>
      </trkpt>
      <trkpt lat="45.44365" lon="5.78468">
        <ele>558</ele>
        <time>2011-02-19T08:37:29Z</time>
      </trkpt>
      <trkpt lat="45.44372" lon="5.78462">
        <ele>558</ele>
        <time>2011-02-19T08:37:33Z</time>
      </trkpt>
      <trkpt lat="45.44391" lon="5.78463">
        <ele>559</ele>
        <time>2011-02-19T08:37:46Z</time>
      </trkpt>
      <trkpt lat="45.44391" lon="5.78462">
        <ele>559</ele>
        <time>2011-02-19T08:37:52Z</time>
      </trkpt>
      <trkpt lat="45.4439" lon="5.78461">
        <ele>560</ele>
        <time>2011-02-19T08:38:13Z</time>
      </trkpt>
      <trkpt lat="45.44391" lon="5.78462">
        <ele>559</ele>
        <time>2011-02-19T08:38:35Z</time>
      </trkpt>
      <trkpt lat="45.44399" lon="5.78467">
        <ele>560</ele>
        <time>2011-02-19T08:38:42Z</time>
      </trkpt>
      <trkpt lat="45.44405" lon="5.78471">
        <ele>561</ele>
        <time>2011-02-19T08:38:47Z</time>
      </trkpt>
      <trkpt lat="45.44425" lon="5.78478">
        <ele>563</ele>
        <time>2011-02-19T08:39:01Z</time>
      </trkpt>
      <trkpt lat="45.44434" lon="5.7848">
        <ele>563</ele>
        <time>2011-02-19T08:39:06Z</time>
      </trkpt>
      <trkpt lat="45.44438" lon="5.78481">
        <ele>563</ele>
        <time>2011-02-19T08:39:09Z</time>
      </trkpt>
      <trkpt lat="45.44458" lon="5.78475">
        <ele>562</ele>
        <time>2011-02-19T08:39:20Z</time>
      </trkpt>
      <trkpt lat="45.44458" lon="5.78473">
        <ele>561</ele>
        <time>2011-02-19T08:39:47Z</time>
      </trkpt>
      <trkpt lat="45.44463" lon="5.78478">
        <ele>562</ele>
        <time>2011-02-19T08:40:32Z</time>
      </trkpt>
      <trkpt lat="45.44472" lon="5.78487">
        <ele>562</ele>
        <time>2011-02-19T08:40:43Z</time>
      </trkpt>
      <trkpt lat="45.44478" lon="5.78494">
        <ele>563</ele>
        <time>2011-02-19T08:40:51Z</time>
      </trkpt>
      <trkpt lat="45.44494" lon="5.78503">
        <ele>561</ele>
        <time>2011-02-19T08:41:01Z</time>
      </trkpt>
      <trkpt lat="45.44497" lon="5.78501">
        <ele>561</ele>
        <time>2011-02-19T08:41:02Z</time>
      </trkpt>
      <trkpt lat="45.44508" lon="5.785">
        <ele>561</ele>
        <time>2011-02-19T08:41:07Z</time>
      </trkpt>
      <trkpt lat="45.44524" lon="5.78504">
        <ele>564</ele>
        <time>2011-02-19T08:41:20Z</time>
      </trkpt>
      <trkpt lat="45.4453" lon="5.78507">
        <ele>566</ele>
        <time>2011-02-19T08:41:33Z</time>
      </trkpt>
      <trkpt lat="45.44539" lon="5.78513">
        <ele>569</ele>
        <time>2011-02-19T08:41:45Z</time>
      </trkpt>
      <trkpt lat="45.44548" lon="5.78516">
        <ele>569</ele>
        <time>2011-02-19T08:41:57Z</time>
      </trkpt>
      <trkpt lat="45.44549" lon="5.78516">
        <ele>569</ele>
        <time>2011-02-19T08:41:58Z</time>
      </trkpt>
      <trkpt lat="45.44559" lon="5.78528">
        <ele>570</ele>
        <time>2011-02-19T08:42:11Z</time>
      </trkpt>
      <trkpt lat="45.44567" lon="5.78538">
        <ele>570</ele>
        <time>2011-02-19T08:42:21Z</time>
      </trkpt>
      <trkpt lat="45.44573" lon="5.78549">
        <ele>570</ele>
        <time>2011-02-19T08:42:36Z</time>
      </trkpt>
      <trkpt lat="45.44576" lon="5.78551">
        <ele>571</ele>
        <time>2011-02-19T08:42:51Z</time>
      </trkpt>
      <trkpt lat="45.44586" lon="5.78561">
        <ele>572</ele>
        <time>2011-02-19T08:43:04Z</time>
      </trkpt>
      <trkpt lat="45.44588" lon="5.7856">
        <ele>572</ele>
        <time>2011-02-19T08:43:21Z</time>
      </trkpt>
      <trkpt lat="45.44604" lon="5.78561">
        <ele>575</ele>
        <time>2011-02-19T08:43:34Z</time>
      </trkpt>
      <trkpt lat="45.44613" lon="5.78558">
        <ele>575</ele>
        <time>2011-02-19T08:43:40Z</time>
      </trkpt>
      <trkpt lat="45.44622" lon="5.78567">
        <ele>576</ele>
        <time>2011-02-19T08:43:47Z</time>
      </trkpt>
      <trkpt lat="45.44629" lon="5.78569">
        <ele>577</ele>
        <time>2011-02-19T08:43:51Z</time>
      </trkpt>
      <trkpt lat="45.44638" lon="5.7857">
        <ele>579</ele>
        <time>2011-02-19T08:44:04Z</time>
      </trkpt>
      <trkpt lat="45.44638" lon="5.78569">
        <ele>582</ele>
        <time>2011-02-19T08:50:27Z</time>
      </trkpt>
      <trkpt lat="45.44638" lon="5.78569">
        <ele>581</ele>
        <time>2011-02-19T08:50:52Z</time>
      </trkpt>
      <trkpt lat="45.44632" lon="5.78569">
        <ele>580</ele>
        <time>2011-02-19T08:50:55Z</time>
      </trkpt>
      <trkpt lat="45.4462" lon="5.7856">
        <ele>578</ele>
        <time>2011-02-19T08:51:00Z</time>
      </trkpt>
      <trkpt lat="45.44611" lon="5.78559">
        <ele>578</ele>
        <time>2011-02-19T08:51:04Z</time>
      </trkpt>
      <trkpt lat="45.44605" lon="5.78562">
        <ele>577</ele>
        <time>2011-02-19T08:51:07Z</time>
      </trkpt>
      <trkpt lat="45.44596" lon="5.7856">
        <ele>576</ele>
        <time>2011-02-19T08:51:10Z</time>
      </trkpt>
      <trkpt lat="45.4459" lon="5.78562">
        <ele>575</ele>
        <time>2011-02-19T08:51:16Z</time>
      </trkpt>
      <trkpt lat="45.4459" lon="5.78562">
        <ele>576</ele>
        <time>2011-02-19T08:51:55Z</time>
      </trkpt>
      <trkpt lat="45.44595" lon="5.78582">
        <ele>577</ele>
        <time>2011-02-19T08:52:07Z</time>
      </trkpt>
      <trkpt lat="45.44601" lon="5.78604">
        <ele>577</ele>
        <time>2011-02-19T08:52:17Z</time>
      </trkpt>
      <trkpt lat="45.44606" lon="5.78616">
        <ele>578</ele>
        <time>2011-02-19T08:52:21Z</time>
      </trkpt>
      <trkpt lat="45.44618" lon="5.78639">
        <ele>580</ele>
        <time>2011-02-19T08:52:32Z</time>
      </trkpt>
      <trkpt lat="45.44628" lon="5.78661">
        <ele>582</ele>
        <time>2011-02-19T08:52:42Z</time>
      </trkpt>
      <trkpt lat="45.44637" lon="5.78685">
        <ele>582</ele>
        <time>2011-02-19T08:52:51Z</time>
      </trkpt>
      <trkpt lat="45.44645" lon="5.78707">
        <ele>583</ele>
        <time>2011-02-19T08:52:59Z</time>
      </trkpt>
      <trkpt lat="45.44647" lon="5.78718">
        <ele>583</ele>
        <time>2011-02-19T08:53:03Z</time>
      </trkpt>
      <trkpt lat="45.44648" lon="5.78749">
        <ele>584</ele>
        <time>2011-02-19T08:53:14Z</time>
      </trkpt>
      <trkpt lat="45.44647" lon="5.78764">
        <ele>587</ele>
        <time>2011-02-19T08:53:21Z</time>
      </trkpt>
      <trkpt lat="45.4465" lon="5.78787">
        <ele>585</ele>
        <time>2011-02-19T08:53:29Z</time>
      </trkpt>
      <trkpt lat="45.44663" lon="5.78805">
        <ele>585</ele>
        <time>2011-02-19T08:53:38Z</time>
      </trkpt>
      <trkpt lat="45.4467" lon="5.78814">
        <ele>584</ele>
        <time>2011-02-19T08:53:42Z</time>
      </trkpt>
      <trkpt lat="45.44673" lon="5.78823">
        <ele>583</ele>
        <time>2011-02-19T08:53:44Z</time>
      </trkpt>
      <trkpt lat="45.4468" lon="5.78849">
        <ele>583</ele>
        <time>2011-02-19T08:53:54Z</time>
      </trkpt>
      <trkpt lat="45.4468" lon="5.78857">
        <ele>583</ele>
        <time>2011-02-19T08:53:57Z</time>
      </trkpt>
      <trkpt lat="45.44675" lon="5.78888">
        <ele>583</ele>
        <time>2011-02-19T08:54:07Z</time>
      </trkpt>
      <trkpt lat="45.44672" lon="5.78896">
        <ele>583</ele>
        <time>2011-02-19T08:54:10Z</time>
      </trkpt>
      <trkpt lat="45.44668" lon="5.78907">
        <ele>582</ele>
        <time>2011-02-19T08:54:13Z</time>
      </trkpt>
      <trkpt lat="45.44662" lon="5.78919">
        <ele>581</ele>
        <time>2011-02-19T08:54:16Z</time>
      </trkpt>
      <trkpt lat="45.44661" lon="5.78928">
        <ele>580</ele>
        <time>2011-02-19T08:54:26Z</time>
      </trkpt>
      <trkpt lat="45.44661" lon="5.78935">
        <ele>579</ele>
        <time>2011-02-19T08:54:41Z</time>
      </trkpt>
      <trkpt lat="45.44662" lon="5.78935">
        <ele>579</ele>
        <time>2011-02-19T08:54:43Z</time>
      </trkpt>
      <trkpt lat="45.4466" lon="5.78946">
        <ele>579</ele>
        <time>2011-02-19T08:54:47Z</time>
      </trkpt>
      <trkpt lat="45.4466" lon="5.78952">
        <ele>579</ele>
        <time>2011-02-19T08:54:56Z</time>
      </trkpt>
      <trkpt lat="45.44664" lon="5.78969">
        <ele>580</ele>
        <time>2011-02-19T08:55:09Z</time>
      </trkpt>
      <trkpt lat="45.44663" lon="5.78994">
        <ele>580</ele>
        <time>2011-02-19T08:55:21Z</time>
      </trkpt>
      <trkpt lat="45.44663" lon="5.78999">
        <ele>579</ele>
        <time>2011-02-19T08:55:24Z</time>
      </trkpt>
      <trkpt lat="45.44669" lon="5.79027">
        <ele>579</ele>
        <time>2011-02-19T08:55:34Z</time>
      </trkpt>
      <trkpt lat="45.44669" lon="5.79039">
        <ele>578</ele>
        <time>2011-02-19T08:55:37Z</time>
      </trkpt>
      <trkpt lat="45.44674" lon="5.79051">
        <ele>577</ele>
        <time>2011-02-19T08:55:41Z</time>
      </trkpt>
      <trkpt lat="45.44678" lon="5.79051">
        <ele>577</ele>
        <time>2011-02-19T08:55:51Z</time>
      </trkpt>
      <trkpt lat="45.44683" lon="5.79051">
        <ele>576</ele>
        <time>2011-02-19T08:56:08Z</time>
      </trkpt>
      <trkpt lat="45.44697" lon="5.79042">
        <ele>575</ele>
        <time>2011-02-19T08:56:17Z</time>
      </trkpt>
      <trkpt lat="45.44703" lon="5.79039">
        <ele>576</ele>
        <time>2011-02-19T08:56:21Z</time>
      </trkpt>
      <trkpt lat="45.44709" lon="5.79033">
        <ele>575</ele>
        <time>2011-02-19T08:56:25Z</time>
      </trkpt>
      <trkpt lat="45.44717" lon="5.79035">
        <ele>573</ele>
        <time>2011-02-19T08:56:31Z</time>
      </trkpt>
      <trkpt lat="45.44725" lon="5.79038">
        <ele>569</ele>
        <time>2011-02-19T08:56:36Z</time>
      </trkpt>
      <trkpt lat="45.44731" lon="5.79042">
        <ele>568</ele>
        <time>2011-02-19T08:56:38Z</time>
      </trkpt>
      <trkpt lat="45.4475" lon="5.79051">
        <ele>564</ele>
        <time>2011-02-19T08:56:45Z</time>
      </trkpt>
      <trkpt lat="45.44768" lon="5.79058">
        <ele>565</ele>
        <time>2011-02-19T08:56:56Z</time>
      </trkpt>
      <trkpt lat="45.4477" lon="5.79058">
        <ele>565</ele>
        <time>2011-02-19T08:57:16Z</time>
      </trkpt>
      <trkpt lat="45.44778" lon="5.79082">
        <ele>564</ele>
        <time>2011-02-19T08:57:26Z</time>
      </trkpt>
      <trkpt lat="45.44785" lon="5.7911">
        <ele>563</ele>
        <time>2011-02-19T08:57:36Z</time>
      </trkpt>
      <trkpt lat="45.44786" lon="5.79113">
        <ele>563</ele>
        <time>2011-02-19T08:57:38Z</time>
      </trkpt>
      <trkpt lat="45.4479" lon="5.79125">
        <ele>563</ele>
        <time>2011-02-19T08:57:42Z</time>
      </trkpt>
      <trkpt lat="45.44808" lon="5.79153">
        <ele>563</ele>
        <time>2011-02-19T08:57:53Z</time>
      </trkpt>
      <trkpt lat="45.44812" lon="5.79161">
        <ele>563</ele>
        <time>2011-02-19T08:57:56Z</time>
      </trkpt>
      <trkpt lat="45.44813" lon="5.79177">
        <ele>563</ele>
        <time>2011-02-19T08:58:02Z</time>
      </trkpt>
      <trkpt lat="45.44819" lon="5.792">
        <ele>563</ele>
        <time>2011-02-19T08:58:08Z</time>
      </trkpt>
      <trkpt lat="45.44816" lon="5.79212">
        <ele>563</ele>
        <time>2011-02-19T08:58:12Z</time>
      </trkpt>
      <trkpt lat="45.44799" lon="5.79249">
        <ele>563</ele>
        <time>2011-02-19T08:58:23Z</time>
      </trkpt>
      <trkpt lat="45.44804" lon="5.7927">
        <ele>564</ele>
        <time>2011-02-19T08:58:32Z</time>
      </trkpt>
      <trkpt lat="45.44816" lon="5.79274">
        <ele>564</ele>
        <time>2011-02-19T08:58:37Z</time>
      </trkpt>
      <trkpt lat="45.44832" lon="5.79281">
        <ele>565</ele>
        <time>2011-02-19T08:58:42Z</time>
      </trkpt>
      <trkpt lat="45.44839" lon="5.79277">
        <ele>565</ele>
        <time>2011-02-19T08:58:46Z</time>
      </trkpt>
      <trkpt lat="45.44856" lon="5.7928">
        <ele>568</ele>
        <time>2011-02-19T08:58:57Z</time>
      </trkpt>
      <trkpt lat="45.44882" lon="5.79272">
        <ele>569</ele>
        <time>2011-02-19T08:59:09Z</time>
      </trkpt>
      <trkpt lat="45.44906" lon="5.79275">
        <ele>570</ele>
        <time>2011-02-19T08:59:20Z</time>
      </trkpt>
      <trkpt lat="45.44935" lon="5.79286">
        <ele>573</ele>
        <time>2011-02-19T08:59:34Z</time>
      </trkpt>
      <trkpt lat="45.44953" lon="5.79294">
        <ele>575</ele>
        <time>2011-02-19T08:59:43Z</time>
      </trkpt>
      <trkpt lat="45.44976" lon="5.79285">
        <ele>576</ele>
        <time>2011-02-19T08:59:55Z</time>
      </trkpt>
      <trkpt lat="45.45001" lon="5.79296">
        <ele>578</ele>
        <time>2011-02-19T09:00:08Z</time>
      </trkpt>
      <trkpt lat="45.45019" lon="5.79322">
        <ele>580</ele>
        <time>2011-02-19T09:00:19Z</time>
      </trkpt>
      <trkpt lat="45.45039" lon="5.79346">
        <ele>582</ele>
        <time>2011-02-19T09:00:31Z</time>
      </trkpt>
      <trkpt lat="45.45047" lon="5.79381">
        <ele>583</ele>
        <time>2011-02-19T09:00:44Z</time>
      </trkpt>
      <trkpt lat="45.4507" lon="5.7941">
        <ele>585</ele>
        <time>2011-02-19T09:00:58Z</time>
      </trkpt>
      <trkpt lat="45.45097" lon="5.79434">
        <ele>587</ele>
        <time>2011-02-19T09:01:13Z</time>
      </trkpt>
      <trkpt lat="45.45105" lon="5.79437">
        <ele>588</ele>
        <time>2011-02-19T09:01:28Z</time>
      </trkpt>
      <trkpt lat="45.45124" lon="5.79441">
        <ele>589</ele>
        <time>2011-02-19T09:02:01Z</time>
      </trkpt>
      <trkpt lat="45.45142" lon="5.79445">
        <ele>590</ele>
        <time>2011-02-19T09:02:11Z</time>
      </trkpt>
      <trkpt lat="45.4517" lon="5.79459">
        <ele>591</ele>
        <time>2011-02-19T09:02:24Z</time>
      </trkpt>
      <trkpt lat="45.45183" lon="5.7947">
        <ele>591</ele>
        <time>2011-02-19T09:02:31Z</time>
      </trkpt>
      <trkpt lat="45.45211" lon="5.79507">
        <ele>591</ele>
        <time>2011-02-19T09:02:45Z</time>
      </trkpt>
      <trkpt lat="45.45236" lon="5.79546">
        <ele>591</ele>
        <time>2011-02-19T09:02:59Z</time>
      </trkpt>
      <trkpt lat="45.45259" lon="5.79578">
        <ele>591</ele>
        <time>2011-02-19T09:03:10Z</time>
      </trkpt>
      <trkpt lat="45.45266" lon="5.79588">
        <ele>591</ele>
        <time>2011-02-19T09:03:14Z</time>
      </trkpt>
      <trkpt lat="45.45272" lon="5.79626">
        <ele>588</ele>
        <time>2011-02-19T09:03:24Z</time>
      </trkpt>
      <trkpt lat="45.45273" lon="5.79664">
        <ele>585</ele>
        <time>2011-02-19T09:03:29Z</time>
      </trkpt>
      <trkpt lat="45.45276" lon="5.79694">
        <ele>583</ele>
        <time>2011-02-19T09:03:32Z</time>
      </trkpt>
      <trkpt lat="45.45273" lon="5.79718">
        <ele>581</ele>
        <time>2011-02-19T09:03:35Z</time>
      </trkpt>
      <trkpt lat="45.45273" lon="5.79736">
        <ele>578</ele>
        <time>2011-02-19T09:03:37Z</time>
      </trkpt>
      <trkpt lat="45.45273" lon="5.79754">
        <ele>575</ele>
        <time>2011-02-19T09:03:39Z</time>
      </trkpt>
      <trkpt lat="45.45271" lon="5.79789">
        <ele>572</ele>
        <time>2011-02-19T09:03:42Z</time>
      </trkpt>
      <trkpt lat="45.4527" lon="5.79801">
        <ele>570</ele>
        <time>2011-02-19T09:03:43Z</time>
      </trkpt>
      <trkpt lat="45.45272" lon="5.79827">
        <ele>569</ele>
        <time>2011-02-19T09:03:45Z</time>
      </trkpt>
      <trkpt lat="45.45274" lon="5.79848">
        <ele>568</ele>
        <time>2011-02-19T09:03:47Z</time>
      </trkpt>
      <trkpt lat="45.45272" lon="5.79878">
        <ele>566</ele>
        <time>2011-02-19T09:03:50Z</time>
      </trkpt>
      <trkpt lat="45.45272" lon="5.79889">
        <ele>564</ele>
        <time>2011-02-19T09:03:51Z</time>
      </trkpt>
      <trkpt lat="45.45277" lon="5.79938">
        <ele>560</ele>
        <time>2011-02-19T09:03:55Z</time>
      </trkpt>
      <trkpt lat="45.45284" lon="5.79968">
        <ele>559</ele>
        <time>2011-02-19T09:03:57Z</time>
      </trkpt>
      <trkpt lat="45.45284" lon="5.80007">
        <ele>560</ele>
        <time>2011-02-19T09:04:00Z</time>
      </trkpt>
      <trkpt lat="45.45296" lon="5.80035">
        <ele>562</ele>
        <time>2011-02-19T09:04:04Z</time>
      </trkpt>
      <trkpt lat="45.45308" lon="5.80074">
        <ele>563</ele>
        <time>2011-02-19T09:04:15Z</time>
      </trkpt>
      <trkpt lat="45.45342" lon="5.80153">
        <ele>564</ele>
        <time>2011-02-19T09:04:38Z</time>
      </trkpt>
      <trkpt lat="45.45373" lon="5.80187">
        <ele>567</ele>
        <time>2011-02-19T09:04:50Z</time>
      </trkpt>
      <trkpt lat="45.45394" lon="5.80207">
        <ele>568</ele>
        <time>2011-02-19T09:04:57Z</time>
      </trkpt>
      <trkpt lat="45.45416" lon="5.80259">
        <ele>566</ele>
        <time>2011-02-19T09:05:08Z</time>
      </trkpt>
      <trkpt lat="45.45422" lon="5.8028">
        <ele>568</ele>
        <time>2011-02-19T09:05:15Z</time>
      </trkpt>
      <trkpt lat="45.45439" lon="5.80315">
        <ele>571</ele>
        <time>2011-02-19T09:05:28Z</time>
      </trkpt>
      <trkpt lat="45.45453" lon="5.80332">
        <ele>573</ele>
        <time>2011-02-19T09:05:38Z</time>
      </trkpt>
      <trkpt lat="45.45468" lon="5.8035">
        <ele>576</ele>
        <time>2011-02-19T09:05:49Z</time>
      </trkpt>
      <trkpt lat="45.45476" lon="5.80358">
        <ele>577</ele>
        <time>2011-02-19T09:05:54Z</time>
      </trkpt>
      <trkpt lat="45.45487" lon="5.80368">
        <ele>580</ele>
        <time>2011-02-19T09:06:04Z</time>
      </trkpt>
      <trkpt lat="45.45494" lon="5.80373">
        <ele>581</ele>
        <time>2011-02-19T09:06:08Z</time>
      </trkpt>
      <trkpt lat="45.45505" lon="5.80377">
        <ele>584</ele>
        <time>2011-02-19T09:06:15Z</time>
      </trkpt>
      <trkpt lat="45.45519" lon="5.8038">
        <ele>587</ele>
        <time>2011-02-19T09:06:25Z</time>
      </trkpt>
      <trkpt lat="45.4553" lon="5.80385">
        <ele>588</ele>
        <time>2011-02-19T09:06:37Z</time>
      </trkpt>
      <trkpt lat="45.45529" lon="5.80385">
        <ele>588</ele>
        <time>2011-02-19T09:08:53Z</time>
      </trkpt>
      <trkpt lat="45.45546" lon="5.80404">
        <ele>588</ele>
        <time>2011-02-19T09:09:43Z</time>
      </trkpt>
      <trkpt lat="45.45564" lon="5.80423">
        <ele>589</ele>
        <time>2011-02-19T09:09:56Z</time>
      </trkpt>
      <trkpt lat="45.45571" lon="5.80428">
        <ele>590</ele>
        <time>2011-02-19T09:10:01Z</time>
      </trkpt>
      <trkpt lat="45.45574" lon="5.80431">
        <ele>590</ele>
        <time>2011-02-19T09:10:03Z</time>
      </trkpt>
      <trkpt lat="45.45597" lon="5.80453">
        <ele>593</ele>
        <time>2011-02-19T09:10:18Z</time>
      </trkpt>
      <trkpt lat="45.45599" lon="5.80455">
        <ele>593</ele>
        <time>2011-02-19T09:10:20Z</time>
      </trkpt>
      <trkpt lat="45.45615" lon="5.80474">
        <ele>595</ele>
        <time>2011-02-19T09:10:34Z</time>
      </trkpt>
      <trkpt lat="45.45633" lon="5.80493">
        <ele>599</ele>
        <time>2011-02-19T09:10:48Z</time>
      </trkpt>
      <trkpt lat="45.45648" lon="5.80504">
        <ele>601</ele>
        <time>2011-02-19T09:10:59Z</time>
      </trkpt>
      <trkpt lat="45.45665" lon="5.80517">
        <ele>605</ele>
        <time>2011-02-19T09:11:13Z</time>
      </trkpt>
      <trkpt lat="45.45676" lon="5.80525">
        <ele>606</ele>
        <time>2011-02-19T09:11:21Z</time>
      </trkpt>
      <trkpt lat="45.45681" lon="5.80528">
        <ele>606</ele>
        <time>2011-02-19T09:11:24Z</time>
      </trkpt>
      <trkpt lat="45.45695" lon="5.80546">
        <ele>608</ele>
        <time>2011-02-19T09:11:36Z</time>
      </trkpt>
      <trkpt lat="45.45709" lon="5.80565">
        <ele>611</ele>
        <time>2011-02-19T09:11:48Z</time>
      </trkpt>
      <trkpt lat="45.45723" lon="5.80591">
        <ele>613</ele>
        <time>2011-02-19T09:12:02Z</time>
      </trkpt>
      <trkpt lat="45.45728" lon="5.80622">
        <ele>612</ele>
        <time>2011-02-19T09:12:14Z</time>
      </trkpt>
      <trkpt lat="45.45729" lon="5.80625">
        <ele>612</ele>
        <time>2011-02-19T09:12:15Z</time>
      </trkpt>
      <trkpt lat="45.45728" lon="5.80633">
        <ele>612</ele>
        <time>2011-02-19T09:12:19Z</time>
      </trkpt>
      <trkpt lat="45.45728" lon="5.8065">
        <ele>612</ele>
        <time>2011-02-19T09:12:26Z</time>
      </trkpt>
      <trkpt lat="45.45733" lon="5.80695">
        <ele>611</ele>
        <time>2011-02-19T09:12:38Z</time>
      </trkpt>
      <trkpt lat="45.45734" lon="5.80719">
        <ele>609</ele>
        <time>2011-02-19T09:12:43Z</time>
      </trkpt>
      <trkpt lat="45.45738" lon="5.80728">
        <ele>608</ele>
        <time>2011-02-19T09:12:45Z</time>
      </trkpt>
      <trkpt lat="45.45748" lon="5.80754">
        <ele>604</ele>
        <time>2011-02-19T09:12:50Z</time>
      </trkpt>
      <trkpt lat="45.45778" lon="5.80809">
        <ele>605</ele>
        <time>2011-02-19T09:12:58Z</time>
      </trkpt>
      <trkpt lat="45.45787" lon="5.80816">
        <ele>607</ele>
        <time>2011-02-19T09:13:01Z</time>
      </trkpt>
      <trkpt lat="45.45798" lon="5.8084">
        <ele>607</ele>
        <time>2011-02-19T09:13:14Z</time>
      </trkpt>
      <trkpt lat="45.45808" lon="5.80858">
        <ele>608</ele>
        <time>2011-02-19T09:13:25Z</time>
      </trkpt>
      <trkpt lat="45.45823" lon="5.80875">
        <ele>610</ele>
        <time>2011-02-19T09:13:36Z</time>
      </trkpt>
      <trkpt lat="45.45836" lon="5.80885">
        <ele>611</ele>
        <time>2011-02-19T09:13:45Z</time>
      </trkpt>
      <trkpt lat="45.45853" lon="5.809">
        <ele>611</ele>
        <time>2011-02-19T09:13:55Z</time>
      </trkpt>
      <trkpt lat="45.45871" lon="5.80926">
        <ele>607</ele>
        <time>2011-02-19T09:14:02Z</time>
      </trkpt>
      <trkpt lat="45.45887" lon="5.80949">
        <ele>606</ele>
        <time>2011-02-19T09:14:06Z</time>
      </trkpt>
      <trkpt lat="45.45895" lon="5.80959">
        <ele>606</ele>
        <time>2011-02-19T09:14:08Z</time>
      </trkpt>
      <trkpt lat="45.45934" lon="5.80994">
        <ele>605</ele>
        <time>2011-02-19T09:14:20Z</time>
      </trkpt>
      <trkpt lat="45.45968" lon="5.81029">
        <ele>603</ele>
        <time>2011-02-19T09:14:32Z</time>
      </trkpt>
      <trkpt lat="45.45976" lon="5.81053">
        <ele>601</ele>
        <time>2011-02-19T09:14:38Z</time>
      </trkpt>
      <trkpt lat="45.45979" lon="5.81093">
        <ele>598</ele>
        <time>2011-02-19T09:14:44Z</time>
      </trkpt>
      <trkpt lat="45.45977" lon="5.81116">
        <ele>600</ele>
        <time>2011-02-19T09:14:47Z</time>
      </trkpt>
      <trkpt lat="45.45975" lon="5.81152">
        <ele>598</ele>
        <time>2011-02-19T09:14:52Z</time>
      </trkpt>
      <trkpt lat="45.45963" lon="5.81254">
        <ele>600</ele>
        <time>2011-02-19T09:15:11Z</time>
      </trkpt>
      <trkpt lat="45.45961" lon="5.81263">
        <ele>600</ele>
        <time>2011-02-19T09:15:13Z</time>
      </trkpt>
      <trkpt lat="45.45964" lon="5.81275">
        <ele>598</ele>
        <time>2011-02-19T09:15:16Z</time>
      </trkpt>
      <trkpt lat="45.45966" lon="5.81278">
        <ele>598</ele>
        <time>2011-02-19T09:15:17Z</time>
      </trkpt>
      <trkpt lat="45.46022" lon="5.81329">
        <ele>598</ele>
        <time>2011-02-19T09:15:36Z</time>
      </trkpt>
      <trkpt lat="45.46086" lon="5.8137">
        <ele>597</ele>
        <time>2011-02-19T09:15:55Z</time>
      </trkpt>
      <trkpt lat="45.46135" lon="5.81398">
        <ele>600</ele>
        <time>2011-02-19T09:16:11Z</time>
      </trkpt>
      <trkpt lat="45.46189" lon="5.8145">
        <ele>603</ele>
        <time>2011-02-19T09:16:33Z</time>
      </trkpt>
      <trkpt lat="45.46238" lon="5.815">
        <ele>606</ele>
        <time>2011-02-19T09:16:54Z</time>
      </trkpt>
      <trkpt lat="45.46286" lon="5.81534">
        <ele>610</ele>
        <time>2011-02-19T09:17:13Z</time>
      </trkpt>
      <trkpt lat="45.4632" lon="5.81545">
        <ele>612</ele>
        <time>2011-02-19T09:17:29Z</time>
      </trkpt>
      <trkpt lat="45.46354" lon="5.81532">
        <ele>616</ele>
        <time>2011-02-19T09:17:47Z</time>
      </trkpt>
      <trkpt lat="45.46378" lon="5.81547">
        <ele>618</ele>
        <time>2011-02-19T09:18:00Z</time>
      </trkpt>
      <trkpt lat="45.4638" lon="5.81548">
        <ele>618</ele>
        <time>2011-02-19T09:18:01Z</time>
      </trkpt>
      <trkpt lat="45.46389" lon="5.81553">
        <ele>619</ele>
        <time>2011-02-19T09:18:07Z</time>
      </trkpt>
      <trkpt lat="45.46406" lon="5.8157">
        <ele>620</ele>
        <time>2011-02-19T09:18:20Z</time>
      </trkpt>
      <trkpt lat="45.46413" lon="5.81577">
        <ele>621</ele>
        <time>2011-02-19T09:18:25Z</time>
      </trkpt>
      <trkpt lat="45.46439" lon="5.8159">
        <ele>622</ele>
        <time>2011-02-19T09:18:39Z</time>
      </trkpt>
      <trkpt lat="45.46461" lon="5.81608">
        <ele>624</ele>
        <time>2011-02-19T09:18:51Z</time>
      </trkpt>
      <trkpt lat="45.46477" lon="5.81622">
        <ele>625</ele>
        <time>2011-02-19T09:19:01Z</time>
      </trkpt>
      <trkpt lat="45.46483" lon="5.81627">
        <ele>626</ele>
        <time>2011-02-19T09:19:05Z</time>
      </trkpt>
      <trkpt lat="45.46498" lon="5.81644">
        <ele>628</ele>
        <time>2011-02-19T09:19:16Z</time>
      </trkpt>
      <trkpt lat="45.46512" lon="5.81656">
        <ele>629</ele>
        <time>2011-02-19T09:19:25Z</time>
      </trkpt>
      <trkpt lat="45.46531" lon="5.81677">
        <ele>630</ele>
        <time>2011-02-19T09:19:35Z</time>
      </trkpt>
      <trkpt lat="45.46559" lon="5.81698">
        <ele>631</ele>
        <time>2011-02-19T09:19:48Z</time>
      </trkpt>
      <trkpt lat="45.46596" lon="5.81697">
        <ele>633</ele>
        <time>2011-02-19T09:20:05Z</time>
      </trkpt>
      <trkpt lat="45.46611" lon="5.8169">
        <ele>635</ele>
        <time>2011-02-19T09:20:14Z</time>
      </trkpt>
      <trkpt lat="45.46614" lon="5.8169">
        <ele>635</ele>
        <time>2011-02-19T09:20:16Z</time>
      </trkpt>
      <trkpt lat="45.4664" lon="5.81688">
        <ele>638</ele>
        <time>2011-02-19T09:20:33Z</time>
      </trkpt>
      <trkpt lat="45.46661" lon="5.81704">
        <ele>639</ele>
        <time>2011-02-19T09:20:45Z</time>
      </trkpt>
      <trkpt lat="45.46694" lon="5.81735">
        <ele>640</ele>
        <time>2011-02-19T09:21:06Z</time>
      </trkpt>
      <trkpt lat="45.46701" lon="5.81761">
        <ele>640</ele>
        <time>2011-02-19T09:21:22Z</time>
      </trkpt>
      <trkpt lat="45.46695" lon="5.81772">
        <ele>640</ele>
        <time>2011-02-19T09:21:59Z</time>
      </trkpt>
      <trkpt lat="45.46693" lon="5.81773">
        <ele>640</ele>
        <time>2011-02-19T09:22:00Z</time>
      </trkpt>
      <trkpt lat="45.4669" lon="5.81804">
        <ele>640</ele>
        <time>2011-02-19T09:22:13Z</time>
      </trkpt>
      <trkpt lat="45.46689" lon="5.81809">
        <ele>640</ele>
        <time>2011-02-19T09:22:28Z</time>
      </trkpt>
      <trkpt lat="45.4669" lon="5.81809">
        <ele>639</ele>
        <time>2011-02-19T09:23:02Z</time>
      </trkpt>
      <trkpt lat="45.46697" lon="5.81825">
        <ele>638</ele>
        <time>2011-02-19T09:23:08Z</time>
      </trkpt>
      <trkpt lat="45.46706" lon="5.8188">
        <ele>638</ele>
        <time>2011-02-19T09:23:24Z</time>
      </trkpt>
      <trkpt lat="45.46705" lon="5.8189">
        <ele>639</ele>
        <time>2011-02-19T09:23:28Z</time>
      </trkpt>
      <trkpt lat="45.46679" lon="5.8195">
        <ele>640</ele>
        <time>2011-02-19T09:23:51Z</time>
      </trkpt>
      <trkpt lat="45.46668" lon="5.81999">
        <ele>641</ele>
        <time>2011-02-19T09:24:08Z</time>
      </trkpt>
      <trkpt lat="45.46694" lon="5.82029">
        <ele>642</ele>
        <time>2011-02-19T09:24:21Z</time>
      </trkpt>
      <trkpt lat="45.46746" lon="5.82062">
        <ele>645</ele>
        <time>2011-02-19T09:24:42Z</time>
      </trkpt>
      <trkpt lat="45.46768" lon="5.82065">
        <ele>648</ele>
        <time>2011-02-19T09:24:54Z</time>
      </trkpt>
      <trkpt lat="45.46807" lon="5.82069">
        <ele>651</ele>
        <time>2011-02-19T09:25:19Z</time>
      </trkpt>
      <trkpt lat="45.46828" lon="5.82082">
        <ele>654</ele>
        <time>2011-02-19T09:25:34Z</time>
      </trkpt>
      <trkpt lat="45.46862" lon="5.82101">
        <ele>656</ele>
        <time>2011-02-19T09:25:55Z</time>
      </trkpt>
      <trkpt lat="45.4692" lon="5.82129">
        <ele>655</ele>
        <time>2011-02-19T09:26:20Z</time>
      </trkpt>
      <trkpt lat="45.46982" lon="5.8215">
        <ele>652</ele>
        <time>2011-02-19T09:26:39Z</time>
      </trkpt>
      <trkpt lat="45.47025" lon="5.82169">
        <ele>650</ele>
        <time>2011-02-19T09:26:51Z</time>
      </trkpt>
      <trkpt lat="45.47051" lon="5.82174">
        <ele>648</ele>
        <time>2011-02-19T09:26:57Z</time>
      </trkpt>
      <trkpt lat="45.47071" lon="5.8218">
        <ele>646</ele>
        <time>2011-02-19T09:27:01Z</time>
      </trkpt>
      <trkpt lat="45.47102" lon="5.82198">
        <ele>646</ele>
        <time>2011-02-19T09:27:08Z</time>
      </trkpt>
      <trkpt lat="45.47126" lon="5.82234">
        <ele>641</ele>
        <time>2011-02-19T09:27:15Z</time>
      </trkpt>
      <trkpt lat="45.47141" lon="5.82253">
        <ele>638</ele>
        <time>2011-02-19T09:27:18Z</time>
      </trkpt>
      <trkpt lat="45.47162" lon="5.82268">
        <ele>634</ele>
        <time>2011-02-19T09:27:21Z</time>
      </trkpt>
      <trkpt lat="45.472" lon="5.82293">
        <ele>631</ele>
        <time>2011-02-19T09:27:26Z</time>
      </trkpt>
      <trkpt lat="45.47248" lon="5.82312">
        <ele>631</ele>
        <time>2011-02-19T09:27:33Z</time>
      </trkpt>
      <trkpt lat="45.47284" lon="5.82321">
        <ele>629</ele>
        <time>2011-02-19T09:27:42Z</time>
      </trkpt>
      <trkpt lat="45.47288" lon="5.82321">
        <ele>630</ele>
        <time>2011-02-19T09:27:43Z</time>
      </trkpt>
      <trkpt lat="45.47296" lon="5.82294">
        <ele>626</ele>
        <time>2011-02-19T09:27:49Z</time>
      </trkpt>
      <trkpt lat="45.47301" lon="5.82275">
        <ele>624</ele>
        <time>2011-02-19T09:27:52Z</time>
      </trkpt>
      <trkpt lat="45.47306" lon="5.82266">
        <ele>623</ele>
        <time>2011-02-19T09:27:54Z</time>
      </trkpt>
      <trkpt lat="45.4731" lon="5.82263">
        <ele>622</ele>
        <time>2011-02-19T09:27:56Z</time>
      </trkpt>
      <trkpt lat="45.47307" lon="5.82252">
        <ele>622</ele>
        <time>2011-02-19T09:28:02Z</time>
      </trkpt>
      <trkpt lat="45.47304" lon="5.82244">
        <ele>623</ele>
        <time>2011-02-19T09:28:05Z</time>
      </trkpt>
      <trkpt lat="45.47306" lon="5.82215">
        <ele>624</ele>
        <time>2011-02-19T09:28:12Z</time>
      </trkpt>
      <trkpt lat="45.47315" lon="5.82198">
        <ele>624</ele>
        <time>2011-02-19T09:28:17Z</time>
      </trkpt>
      <trkpt lat="45.47358" lon="5.82187">
        <ele>625</ele>
        <time>2011-02-19T09:28:33Z</time>
      </trkpt>
      <trkpt lat="45.47418" lon="5.82186">
        <ele>625</ele>
        <time>2011-02-19T09:28:55Z</time>
      </trkpt>
      <trkpt lat="45.47431" lon="5.8215">
        <ele>627</ele>
        <time>2011-02-19T09:29:06Z</time>
      </trkpt>
      <trkpt lat="45.47439" lon="5.8207">
        <ele>629</ele>
        <time>2011-02-19T09:29:27Z</time>
      </trkpt>
      <trkpt lat="45.47441" lon="5.82025">
        <ele>629</ele>
        <time>2011-02-19T09:29:41Z</time>
      </trkpt>
      <trkpt lat="45.47446" lon="5.81997">
        <ele>629</ele>
        <time>2011-02-19T09:30:12Z</time>
      </trkpt>
      <trkpt lat="45.47451" lon="5.8195">
        <ele>629</ele>
        <time>2011-02-19T09:30:27Z</time>
      </trkpt>
      <trkpt lat="45.47463" lon="5.81928">
        <ele>629</ele>
        <time>2011-02-19T09:30:43Z</time>
      </trkpt>
      <trkpt lat="45.47487" lon="5.8192">
        <ele>630</ele>
        <time>2011-02-19T09:30:57Z</time>
      </trkpt>
      <trkpt lat="45.47488" lon="5.8192">
        <ele>630</ele>
        <time>2011-02-19T09:30:58Z</time>
      </trkpt>
      <trkpt lat="45.4749" lon="5.81912">
        <ele>630</ele>
        <time>2011-02-19T09:31:11Z</time>
      </trkpt>
      <trkpt lat="45.47489" lon="5.8191">
        <ele>629</ele>
        <time>2011-02-19T09:36:56Z</time>
      </trkpt>
      <trkpt lat="45.4749" lon="5.81912">
        <ele>629</ele>
        <time>2011-02-19T09:37:24Z</time>
      </trkpt>
      <trkpt lat="45.4749" lon="5.81913">
        <ele>629</ele>
        <time>2011-02-19T09:37:43Z</time>
      </trkpt>
      <trkpt lat="45.47504" lon="5.81914">
        <ele>628</ele>
        <time>2011-02-19T09:39:10Z</time>
      </trkpt>
      <trkpt lat="45.47537" lon="5.81915">
        <ele>630</ele>
        <time>2011-02-19T09:39:18Z</time>
      </trkpt>
      <trkpt lat="45.47561" lon="5.81917">
        <ele>630</ele>
        <time>2011-02-19T09:39:24Z</time>
      </trkpt>
      <trkpt lat="45.47593" lon="5.8192">
        <ele>633</ele>
        <time>2011-02-19T09:39:35Z</time>
      </trkpt>
      <trkpt lat="45.47604" lon="5.81921">
        <ele>635</ele>
        <time>2011-02-19T09:39:41Z</time>
      </trkpt>
      <trkpt lat="45.47608" lon="5.81921">
        <ele>635</ele>
        <time>2011-02-19T09:39:43Z</time>
      </trkpt>
      <trkpt lat="45.47614" lon="5.81927">
        <ele>636</ele>
        <time>2011-02-19T09:39:47Z</time>
      </trkpt>
      <trkpt lat="45.47629" lon="5.81927">
        <ele>637</ele>
        <time>2011-02-19T09:39:56Z</time>
      </trkpt>
      <trkpt lat="45.47648" lon="5.81915">
        <ele>639</ele>
        <time>2011-02-19T09:40:10Z</time>
      </trkpt>
      <trkpt lat="45.47654" lon="5.81909">
        <ele>639</ele>
        <time>2011-02-19T09:40:15Z</time>
      </trkpt>
      <trkpt lat="45.47663" lon="5.81908">
        <ele>639</ele>
        <time>2011-02-19T09:40:20Z</time>
      </trkpt>
      <trkpt lat="45.47684" lon="5.81922">
        <ele>641</ele>
        <time>2011-02-19T09:40:34Z</time>
      </trkpt>
      <trkpt lat="45.47695" lon="5.81927">
        <ele>642</ele>
        <time>2011-02-19T09:40:41Z</time>
      </trkpt>
      <trkpt lat="45.47706" lon="5.81931">
        <ele>644</ele>
        <time>2011-02-19T09:40:49Z</time>
      </trkpt>
      <trkpt lat="45.47727" lon="5.81934">
        <ele>645</ele>
        <time>2011-02-19T09:41:02Z</time>
      </trkpt>
      <trkpt lat="45.47735" lon="5.81936">
        <ele>645</ele>
        <time>2011-02-19T09:41:07Z</time>
      </trkpt>
      <trkpt lat="45.47748" lon="5.81942">
        <ele>646</ele>
        <time>2011-02-19T09:41:16Z</time>
      </trkpt>
      <trkpt lat="45.47772" lon="5.81947">
        <ele>649</ele>
        <time>2011-02-19T09:41:31Z</time>
      </trkpt>
      <trkpt lat="45.47784" lon="5.81947">
        <ele>649</ele>
        <time>2011-02-19T09:41:40Z</time>
      </trkpt>
      <trkpt lat="45.47813" lon="5.81962">
        <ele>651</ele>
        <time>2011-02-19T09:42:00Z</time>
      </trkpt>
      <trkpt lat="45.47817" lon="5.81961">
        <ele>651</ele>
        <time>2011-02-19T09:42:02Z</time>
      </trkpt>
      <trkpt lat="45.47821" lon="5.81963">
        <ele>652</ele>
        <time>2011-02-19T09:42:05Z</time>
      </trkpt>
      <trkpt lat="45.47824" lon="5.81964">
        <ele>652</ele>
        <time>2011-02-19T09:42:07Z</time>
      </trkpt>
      <trkpt lat="45.47832" lon="5.81964">
        <ele>652</ele>
        <time>2011-02-19T09:42:12Z</time>
      </trkpt>
      <trkpt lat="45.47839" lon="5.81966">
        <ele>653</ele>
        <time>2011-02-19T09:42:17Z</time>
      </trkpt>
      <trkpt lat="45.47845" lon="5.81967">
        <ele>653</ele>
        <time>2011-02-19T09:42:21Z</time>
      </trkpt>
      <trkpt lat="45.47848" lon="5.81969">
        <ele>654</ele>
        <time>2011-02-19T09:42:23Z</time>
      </trkpt>
      <trkpt lat="45.47852" lon="5.8197">
        <ele>654</ele>
        <time>2011-02-19T09:42:25Z</time>
      </trkpt>
      <trkpt lat="45.47863" lon="5.81976">
        <ele>655</ele>
        <time>2011-02-19T09:42:32Z</time>
      </trkpt>
      <trkpt lat="45.4787" lon="5.81978">
        <ele>655</ele>
        <time>2011-02-19T09:42:37Z</time>
      </trkpt>
      <trkpt lat="45.47881" lon="5.81982">
        <ele>656</ele>
        <time>2011-02-19T09:42:44Z</time>
      </trkpt>
      <trkpt lat="45.47883" lon="5.81986">
        <ele>656</ele>
        <time>2011-02-19T09:42:46Z</time>
      </trkpt>
      <trkpt lat="45.47894" lon="5.8199">
        <ele>657</ele>
        <time>2011-02-19T09:42:53Z</time>
      </trkpt>
      <trkpt lat="45.47901" lon="5.81992">
        <ele>658</ele>
        <time>2011-02-19T09:42:57Z</time>
      </trkpt>
      <trkpt lat="45.47904" lon="5.81993">
        <ele>658</ele>
        <time>2011-02-19T09:42:59Z</time>
      </trkpt>
      <trkpt lat="45.47913" lon="5.81997">
        <ele>659</ele>
        <time>2011-02-19T09:43:05Z</time>
      </trkpt>
      <trkpt lat="45.4793" lon="5.82008">
        <ele>660</ele>
        <time>2011-02-19T09:43:17Z</time>
      </trkpt>
      <trkpt lat="45.47937" lon="5.82007">
        <ele>661</ele>
        <time>2011-02-19T09:43:22Z</time>
      </trkpt>
      <trkpt lat="45.47945" lon="5.8201">
        <ele>662</ele>
        <time>2011-02-19T09:43:27Z</time>
      </trkpt>
      <trkpt lat="45.47948" lon="5.8201">
        <ele>662</ele>
        <time>2011-02-19T09:43:29Z</time>
      </trkpt>
      <trkpt lat="45.47952" lon="5.82012">
        <ele>662</ele>
        <time>2011-02-19T09:43:32Z</time>
      </trkpt>
      <trkpt lat="45.47974" lon="5.82025">
        <ele>664</ele>
        <time>2011-02-19T09:43:46Z</time>
      </trkpt>
      <trkpt lat="45.47978" lon="5.82026">
        <ele>665</ele>
        <time>2011-02-19T09:43:49Z</time>
      </trkpt>
      <trkpt lat="45.47998" lon="5.82037">
        <ele>667</ele>
        <time>2011-02-19T09:44:04Z</time>
      </trkpt>
      <trkpt lat="45.48015" lon="5.82047">
        <ele>668</ele>
        <time>2011-02-19T09:44:19Z</time>
      </trkpt>
      <trkpt lat="45.48016" lon="5.82046">
        <ele>668</ele>
        <time>2011-02-19T09:44:42Z</time>
      </trkpt>
      <trkpt lat="45.48027" lon="5.82054">
        <ele>669</ele>
        <time>2011-02-19T09:44:51Z</time>
      </trkpt>
      <trkpt lat="45.48052" lon="5.82074">
        <ele>672</ele>
        <time>2011-02-19T09:45:05Z</time>
      </trkpt>
      <trkpt lat="45.48056" lon="5.82082">
        <ele>672</ele>
        <time>2011-02-19T09:45:08Z</time>
      </trkpt>
      <trkpt lat="45.48076" lon="5.8209">
        <ele>675</ele>
        <time>2011-02-19T09:45:19Z</time>
      </trkpt>
      <trkpt lat="45.48103" lon="5.82098">
        <ele>678</ele>
        <time>2011-02-19T09:45:34Z</time>
      </trkpt>
      <trkpt lat="45.48131" lon="5.8211">
        <ele>681</ele>
        <time>2011-02-19T09:45:53Z</time>
      </trkpt>
      <trkpt lat="45.48132" lon="5.8211">
        <ele>681</ele>
        <time>2011-02-19T09:45:54Z</time>
      </trkpt>
      <trkpt lat="45.48137" lon="5.82111">
        <ele>681</ele>
        <time>2011-02-19T09:45:57Z</time>
      </trkpt>
      <trkpt lat="45.48142" lon="5.82112">
        <ele>682</ele>
        <time>2011-02-19T09:46:01Z</time>
      </trkpt>
      <trkpt lat="45.48145" lon="5.82113">
        <ele>682</ele>
        <time>2011-02-19T09:46:03Z</time>
      </trkpt>
      <trkpt lat="45.48149" lon="5.82113">
        <ele>682</ele>
        <time>2011-02-19T09:46:06Z</time>
      </trkpt>
      <trkpt lat="45.48158" lon="5.8212">
        <ele>683</ele>
        <time>2011-02-19T09:46:13Z</time>
      </trkpt>
      <trkpt lat="45.48171" lon="5.82128">
        <ele>684</ele>
        <time>2011-02-19T09:46:23Z</time>
      </trkpt>
      <trkpt lat="45.4819" lon="5.82135">
        <ele>686</ele>
        <time>2011-02-19T09:46:38Z</time>
      </trkpt>
      <trkpt lat="45.48196" lon="5.82138">
        <ele>687</ele>
        <time>2011-02-19T09:46:43Z</time>
      </trkpt>
      <trkpt lat="45.48211" lon="5.82141">
        <ele>688</ele>
        <time>2011-02-19T09:46:54Z</time>
      </trkpt>
      <trkpt lat="45.48221" lon="5.82138">
        <ele>689</ele>
        <time>2011-02-19T09:47:01Z</time>
      </trkpt>
      <trkpt lat="45.48228" lon="5.82138">
        <ele>690</ele>
        <time>2011-02-19T09:47:06Z</time>
      </trkpt>
      <trkpt lat="45.48247" lon="5.82134">
        <ele>692</ele>
        <time>2011-02-19T09:47:20Z</time>
      </trkpt>
      <trkpt lat="45.48267" lon="5.82131">
        <ele>696</ele>
        <time>2011-02-19T09:47:36Z</time>
      </trkpt>
      <trkpt lat="45.48277" lon="5.82128">
        <ele>697</ele>
        <time>2011-02-19T09:47:43Z</time>
      </trkpt>
      <trkpt lat="45.48277" lon="5.82116">
        <ele>698</ele>
        <time>2011-02-19T09:47:51Z</time>
      </trkpt>
      <trkpt lat="45.48246" lon="5.82102">
        <ele>700</ele>
        <time>2011-02-19T09:48:15Z</time>
      </trkpt>
      <trkpt lat="45.48223" lon="5.82093">
        <ele>704</ele>
        <time>2011-02-19T09:48:34Z</time>
      </trkpt>
      <trkpt lat="45.482" lon="5.82082">
        <ele>707</ele>
        <time>2011-02-19T09:48:53Z</time>
      </trkpt>
      <trkpt lat="45.48179" lon="5.82063">
        <ele>710</ele>
        <time>2011-02-19T09:49:11Z</time>
      </trkpt>
      <trkpt lat="45.48165" lon="5.82046">
        <ele>713</ele>
        <time>2011-02-19T09:49:26Z</time>
      </trkpt>
      <trkpt lat="45.48148" lon="5.8203">
        <ele>716</ele>
        <time>2011-02-19T09:49:42Z</time>
      </trkpt>
      <trkpt lat="45.48131" lon="5.82011">
        <ele>719</ele>
        <time>2011-02-19T09:49:58Z</time>
      </trkpt>
      <trkpt lat="45.48114" lon="5.81994">
        <ele>722</ele>
        <time>2011-02-19T09:50:14Z</time>
      </trkpt>
      <trkpt lat="45.4811" lon="5.8199">
        <ele>723</ele>
        <time>2011-02-19T09:50:18Z</time>
      </trkpt>
      <trkpt lat="45.48086" lon="5.81967">
        <ele>726</ele>
        <time>2011-02-19T09:50:39Z</time>
      </trkpt>
      <trkpt lat="45.48066" lon="5.81948">
        <ele>729</ele>
        <time>2011-02-19T09:50:56Z</time>
      </trkpt>
      <trkpt lat="45.48037" lon="5.81924">
        <ele>731</ele>
        <time>2011-02-19T09:51:17Z</time>
      </trkpt>
      <trkpt lat="45.48047" lon="5.81909">
        <ele>732</ele>
        <time>2011-02-19T09:51:30Z</time>
      </trkpt>
      <trkpt lat="45.48074" lon="5.81935">
        <ele>734</ele>
        <time>2011-02-19T09:51:51Z</time>
      </trkpt>
      <trkpt lat="45.48107" lon="5.81956">
        <ele>736</ele>
        <time>2011-02-19T09:52:13Z</time>
      </trkpt>
      <trkpt lat="45.48121" lon="5.81964">
        <ele>736</ele>
        <time>2011-02-19T09:52:22Z</time>
      </trkpt>
      <trkpt lat="45.48155" lon="5.81967">
        <ele>738</ele>
        <time>2011-02-19T09:52:42Z</time>
      </trkpt>
      <trkpt lat="45.48159" lon="5.81969">
        <ele>738</ele>
        <time>2011-02-19T09:52:45Z</time>
      </trkpt>
      <trkpt lat="45.48197" lon="5.81983">
        <ele>741</ele>
        <time>2011-02-19T09:53:09Z</time>
      </trkpt>
      <trkpt lat="45.48226" lon="5.81989">
        <ele>744</ele>
        <time>2011-02-19T09:53:29Z</time>
      </trkpt>
      <trkpt lat="45.48251" lon="5.81988">
        <ele>747</ele>
        <time>2011-02-19T09:53:47Z</time>
      </trkpt>
      <trkpt lat="45.48273" lon="5.81984">
        <ele>750</ele>
        <time>2011-02-19T09:54:03Z</time>
      </trkpt>
      <trkpt lat="45.48294" lon="5.81977">
        <ele>752</ele>
        <time>2011-02-19T09:54:19Z</time>
      </trkpt>
      <trkpt lat="45.48314" lon="5.81977">
        <ele>755</ele>
        <time>2011-02-19T09:54:34Z</time>
      </trkpt>
      <trkpt lat="45.48339" lon="5.81984">
        <ele>759</ele>
        <time>2011-02-19T09:54:51Z</time>
      </trkpt>
      <trkpt lat="45.4836" lon="5.81994">
        <ele>761</ele>
        <time>2011-02-19T09:55:06Z</time>
      </trkpt>
      <trkpt lat="45.48387" lon="5.82002">
        <ele>764</ele>
        <time>2011-02-19T09:55:24Z</time>
      </trkpt>
      <trkpt lat="45.48406" lon="5.81997">
        <ele>766</ele>
        <time>2011-02-19T09:55:37Z</time>
      </trkpt>
      <trkpt lat="45.48429" lon="5.82015">
        <ele>769</ele>
        <time>2011-02-19T09:55:55Z</time>
      </trkpt>
      <trkpt lat="45.48447" lon="5.82032">
        <ele>773</ele>
        <time>2011-02-19T09:56:08Z</time>
      </trkpt>
      <trkpt lat="45.48477" lon="5.82056">
        <ele>775</ele>
        <time>2011-02-19T09:56:28Z</time>
      </trkpt>
      <trkpt lat="45.48502" lon="5.8207">
        <ele>779</ele>
        <time>2011-02-19T09:56:48Z</time>
      </trkpt>
      <trkpt lat="45.48511" lon="5.82076">
        <ele>779</ele>
        <time>2011-02-19T09:57:05Z</time>
      </trkpt>
      <trkpt lat="45.48537" lon="5.82088">
        <ele>782</ele>
        <time>2011-02-19T09:57:21Z</time>
      </trkpt>
      <trkpt lat="45.48556" lon="5.82099">
        <ele>786</ele>
        <time>2011-02-19T09:57:33Z</time>
      </trkpt>
      <trkpt lat="45.48576" lon="5.82109">
        <ele>788</ele>
        <time>2011-02-19T09:57:52Z</time>
      </trkpt>
      <trkpt lat="45.48598" lon="5.82113">
        <ele>791</ele>
        <time>2011-02-19T09:58:08Z</time>
      </trkpt>
      <trkpt lat="45.48628" lon="5.82124">
        <ele>795</ele>
        <time>2011-02-19T09:58:30Z</time>
      </trkpt>
      <trkpt lat="45.48638" lon="5.82126">
        <ele>797</ele>
        <time>2011-02-19T09:58:37Z</time>
      </trkpt>
      <trkpt lat="45.48664" lon="5.82136">
        <ele>799</ele>
        <time>2011-02-19T09:58:55Z</time>
      </trkpt>
      <trkpt lat="45.48693" lon="5.82147">
        <ele>803</ele>
        <time>2011-02-19T09:59:14Z</time>
      </trkpt>
      <trkpt lat="45.48724" lon="5.82156">
        <ele>805</ele>
        <time>2011-02-19T09:59:35Z</time>
      </trkpt>
      <trkpt lat="45.48752" lon="5.82164">
        <ele>807</ele>
        <time>2011-02-19T09:59:53Z</time>
      </trkpt>
      <trkpt lat="45.48777" lon="5.82162">
        <ele>811</ele>
        <time>2011-02-19T10:00:11Z</time>
      </trkpt>
      <trkpt lat="45.48789" lon="5.82161">
        <ele>811</ele>
        <time>2011-02-19T10:00:19Z</time>
      </trkpt>
      <trkpt lat="45.48823" lon="5.82169">
        <ele>814</ele>
        <time>2011-02-19T10:00:39Z</time>
      </trkpt>
      <trkpt lat="45.48825" lon="5.82169">
        <ele>815</ele>
        <time>2011-02-19T10:00:40Z</time>
      </trkpt>
      <trkpt lat="45.4884" lon="5.82168">
        <ele>816</ele>
        <time>2011-02-19T10:00:51Z</time>
      </trkpt>
      <trkpt lat="45.48862" lon="5.82169">
        <ele>819</ele>
        <time>2011-02-19T10:01:07Z</time>
      </trkpt>
      <trkpt lat="45.48871" lon="5.82169">
        <ele>819</ele>
        <time>2011-02-19T10:01:13Z</time>
      </trkpt>
      <trkpt lat="45.48904" lon="5.82176">
        <ele>823</ele>
        <time>2011-02-19T10:01:34Z</time>
      </trkpt>
      <trkpt lat="45.48908" lon="5.82171">
        <ele>824</ele>
        <time>2011-02-19T10:01:49Z</time>
      </trkpt>
      <trkpt lat="45.4891" lon="5.8217">
        <ele>824</ele>
        <time>2011-02-19T10:02:09Z</time>
      </trkpt>
      <trkpt lat="45.48909" lon="5.8217">
        <ele>823</ele>
        <time>2011-02-19T10:02:31Z</time>
      </trkpt>
      <trkpt lat="45.48909" lon="5.8217">
        <ele>823</ele>
        <time>2011-02-19T10:03:22Z</time>
      </trkpt>
      <trkpt lat="45.48908" lon="5.82169">
        <ele>823</ele>
        <time>2011-02-19T10:03:44Z</time>
      </trkpt>
      <trkpt lat="45.48908" lon="5.82168">
        <ele>823</ele>
        <time>2011-02-19T10:03:45Z</time>
      </trkpt>
      <trkpt lat="45.48899" lon="5.82162">
        <ele>824</ele>
        <time>2011-02-19T10:04:05Z</time>
      </trkpt>
      <trkpt lat="45.48899" lon="5.82161">
        <ele>822</ele>
        <time>2011-02-19T10:09:50Z</time>
      </trkpt>
      <trkpt lat="45.48899" lon="5.82158">
        <ele>823</ele>
        <time>2011-02-19T10:09:55Z</time>
      </trkpt>
      <trkpt lat="45.48881" lon="5.82142">
        <ele>824</ele>
        <time>2011-02-19T10:10:12Z</time>
      </trkpt>
      <trkpt lat="45.48862" lon="5.82122">
        <ele>825</ele>
        <time>2011-02-19T10:10:27Z</time>
      </trkpt>
      <trkpt lat="45.48867" lon="5.82083">
        <ele>825</ele>
        <time>2011-02-19T10:10:41Z</time>
      </trkpt>
      <trkpt lat="45.4888" lon="5.8204">
        <ele>824</ele>
        <time>2011-02-19T10:10:56Z</time>
      </trkpt>
      <trkpt lat="45.4887" lon="5.82007">
        <ele>825</ele>
        <time>2011-02-19T10:11:12Z</time>
      </trkpt>
      <trkpt lat="45.48865" lon="5.82001">
        <ele>825</ele>
        <time>2011-02-19T10:11:16Z</time>
      </trkpt>
      <trkpt lat="45.48862" lon="5.82">
        <ele>826</ele>
        <time>2011-02-19T10:11:18Z</time>
      </trkpt>
      <trkpt lat="45.48841" lon="5.81974">
        <ele>829</ele>
        <time>2011-02-19T10:11:37Z</time>
      </trkpt>
      <trkpt lat="45.4883" lon="5.8194">
        <ele>832</ele>
        <time>2011-02-19T10:11:56Z</time>
      </trkpt>
      <trkpt lat="45.48816" lon="5.81915">
        <ele>835</ele>
        <time>2011-02-19T10:12:12Z</time>
      </trkpt>
      <trkpt lat="45.48791" lon="5.81896">
        <ele>837</ele>
        <time>2011-02-19T10:12:35Z</time>
      </trkpt>
      <trkpt lat="45.48769" lon="5.81878">
        <ele>840</ele>
        <time>2011-02-19T10:12:56Z</time>
      </trkpt>
      <trkpt lat="45.48755" lon="5.81861">
        <ele>842</ele>
        <time>2011-02-19T10:13:12Z</time>
      </trkpt>
      <trkpt lat="45.48736" lon="5.81843">
        <ele>844</ele>
        <time>2011-02-19T10:13:29Z</time>
      </trkpt>
      <trkpt lat="45.48712" lon="5.81824">
        <ele>846</ele>
        <time>2011-02-19T10:13:49Z</time>
      </trkpt>
      <trkpt lat="45.48686" lon="5.81806">
        <ele>849</ele>
        <time>2011-02-19T10:14:11Z</time>
      </trkpt>
      <trkpt lat="45.4868" lon="5.81802">
        <ele>849</ele>
        <time>2011-02-19T10:14:16Z</time>
      </trkpt>
      <trkpt lat="45.48677" lon="5.818">
        <ele>850</ele>
        <time>2011-02-19T10:14:20Z</time>
      </trkpt>
      <trkpt lat="45.48673" lon="5.81801">
        <ele>850</ele>
        <time>2011-02-19T10:14:23Z</time>
      </trkpt>
      <trkpt lat="45.4867" lon="5.818">
        <ele>851</ele>
        <time>2011-02-19T10:14:26Z</time>
      </trkpt>
      <trkpt lat="45.48663" lon="5.81799">
        <ele>852</ele>
        <time>2011-02-19T10:14:33Z</time>
      </trkpt>
      <trkpt lat="45.48633" lon="5.81788">
        <ele>855</ele>
        <time>2011-02-19T10:14:56Z</time>
      </trkpt>
      <trkpt lat="45.4861" lon="5.81771">
        <ele>858</ele>
        <time>2011-02-19T10:15:19Z</time>
      </trkpt>
      <trkpt lat="45.48584" lon="5.81751">
        <ele>861</ele>
        <time>2011-02-19T10:15:45Z</time>
      </trkpt>
      <trkpt lat="45.48561" lon="5.81734">
        <ele>864</ele>
        <time>2011-02-19T10:16:09Z</time>
      </trkpt>
      <trkpt lat="45.48543" lon="5.81719">
        <ele>867</ele>
        <time>2011-02-19T10:16:30Z</time>
      </trkpt>
      <trkpt lat="45.48534" lon="5.81711">
        <ele>868</ele>
        <time>2011-02-19T10:16:40Z</time>
      </trkpt>
      <trkpt lat="45.48516" lon="5.81694">
        <ele>871</ele>
        <time>2011-02-19T10:16:59Z</time>
      </trkpt>
      <trkpt lat="45.48501" lon="5.8168">
        <ele>873</ele>
        <time>2011-02-19T10:17:15Z</time>
      </trkpt>
      <trkpt lat="45.48483" lon="5.81673">
        <ele>875</ele>
        <time>2011-02-19T10:17:29Z</time>
      </trkpt>
      <trkpt lat="45.48459" lon="5.81671">
        <ele>878</ele>
        <time>2011-02-19T10:17:49Z</time>
      </trkpt>
      <trkpt lat="45.48454" lon="5.81669">
        <ele>879</ele>
        <time>2011-02-19T10:17:53Z</time>
      </trkpt>
      <trkpt lat="45.48429" lon="5.81647">
        <ele>882</ele>
        <time>2011-02-19T10:18:17Z</time>
      </trkpt>
      <trkpt lat="45.48403" lon="5.81626">
        <ele>885</ele>
        <time>2011-02-19T10:18:41Z</time>
      </trkpt>
      <trkpt lat="45.48401" lon="5.81624">
        <ele>886</ele>
        <time>2011-02-19T10:18:43Z</time>
      </trkpt>
      <trkpt lat="45.48383" lon="5.81611">
        <ele>889</ele>
        <time>2011-02-19T10:19:01Z</time>
      </trkpt>
      <trkpt lat="45.48369" lon="5.81592">
        <ele>892</ele>
        <time>2011-02-19T10:19:20Z</time>
      </trkpt>
      <trkpt lat="45.48361" lon="5.81573">
        <ele>895</ele>
        <time>2011-02-19T10:19:34Z</time>
      </trkpt>
      <trkpt lat="45.48343" lon="5.81549">
        <ele>898</ele>
        <time>2011-02-19T10:19:55Z</time>
      </trkpt>
      <trkpt lat="45.48324" lon="5.81554">
        <ele>899</ele>
        <time>2011-02-19T10:20:11Z</time>
      </trkpt>
      <trkpt lat="45.48292" lon="5.81569">
        <ele>902</ele>
        <time>2011-02-19T10:20:36Z</time>
      </trkpt>
      <trkpt lat="45.48256" lon="5.81555">
        <ele>904</ele>
        <time>2011-02-19T10:21:01Z</time>
      </trkpt>
      <trkpt lat="45.48236" lon="5.81539">
        <ele>908</ele>
        <time>2011-02-19T10:21:19Z</time>
      </trkpt>
      <trkpt lat="45.48215" lon="5.81519">
        <ele>911</ele>
        <time>2011-02-19T10:21:39Z</time>
      </trkpt>
      <trkpt lat="45.48212" lon="5.81516">
        <ele>911</ele>
        <time>2011-02-19T10:21:42Z</time>
      </trkpt>
      <trkpt lat="45.48189" lon="5.81492">
        <ele>914</ele>
        <time>2011-02-19T10:22:04Z</time>
      </trkpt>
      <trkpt lat="45.48164" lon="5.81467">
        <ele>917</ele>
        <time>2011-02-19T10:22:27Z</time>
      </trkpt>
      <trkpt lat="45.48156" lon="5.81456">
        <ele>918</ele>
        <time>2011-02-19T10:22:35Z</time>
      </trkpt>
      <trkpt lat="45.48137" lon="5.81429">
        <ele>921</ele>
        <time>2011-02-19T10:22:56Z</time>
      </trkpt>
      <trkpt lat="45.48115" lon="5.81401">
        <ele>924</ele>
        <time>2011-02-19T10:23:18Z</time>
      </trkpt>
      <trkpt lat="45.48099" lon="5.81365">
        <ele>926</ele>
        <time>2011-02-19T10:23:40Z</time>
      </trkpt>
      <trkpt lat="45.48078" lon="5.81341">
        <ele>930</ele>
        <time>2011-02-19T10:24:02Z</time>
      </trkpt>
      <trkpt lat="45.48063" lon="5.81318">
        <ele>933</ele>
        <time>2011-02-19T10:24:21Z</time>
      </trkpt>
      <trkpt lat="45.48054" lon="5.8128">
        <ele>935</ele>
        <time>2011-02-19T10:24:42Z</time>
      </trkpt>
      <trkpt lat="45.48073" lon="5.81264">
        <ele>935</ele>
        <time>2011-02-19T10:24:56Z</time>
      </trkpt>
      <trkpt lat="45.48101" lon="5.81249">
        <ele>937</ele>
        <time>2011-02-19T10:25:14Z</time>
      </trkpt>
      <trkpt lat="45.48107" lon="5.81246">
        <ele>937</ele>
        <time>2011-02-19T10:25:18Z</time>
      </trkpt>
      <trkpt lat="45.48143" lon="5.81237">
        <ele>939</ele>
        <time>2011-02-19T10:25:43Z</time>
      </trkpt>
      <trkpt lat="45.48154" lon="5.81229">
        <ele>941</ele>
        <time>2011-02-19T10:25:58Z</time>
      </trkpt>
      <trkpt lat="45.48156" lon="5.8123">
        <ele>941</ele>
        <time>2011-02-19T10:27:11Z</time>
      </trkpt>
      <trkpt lat="45.48156" lon="5.81231">
        <ele>942</ele>
        <time>2011-02-19T10:27:36Z</time>
      </trkpt>
      <trkpt lat="45.48179" lon="5.81233">
        <ele>945</ele>
        <time>2011-02-19T10:27:53Z</time>
      </trkpt>
      <trkpt lat="45.48207" lon="5.81237">
        <ele>948</ele>
        <time>2011-02-19T10:28:11Z</time>
      </trkpt>
      <trkpt lat="45.48218" lon="5.81234">
        <ele>948</ele>
        <time>2011-02-19T10:28:18Z</time>
      </trkpt>
      <trkpt lat="45.48246" lon="5.81221">
        <ele>951</ele>
        <time>2011-02-19T10:28:38Z</time>
      </trkpt>
      <trkpt lat="45.48254" lon="5.81216">
        <ele>952</ele>
        <time>2011-02-19T10:28:44Z</time>
      </trkpt>
      <trkpt lat="45.48262" lon="5.81215">
        <ele>953</ele>
        <time>2011-02-19T10:28:49Z</time>
      </trkpt>
      <trkpt lat="45.48266" lon="5.81212">
        <ele>954</ele>
        <time>2011-02-19T10:28:52Z</time>
      </trkpt>
      <trkpt lat="45.4829" lon="5.812">
        <ele>957</ele>
        <time>2011-02-19T10:29:11Z</time>
      </trkpt>
      <trkpt lat="45.48321" lon="5.81188">
        <ele>959</ele>
        <time>2011-02-19T10:29:33Z</time>
      </trkpt>
      <trkpt lat="45.48343" lon="5.81189">
        <ele>960</ele>
        <time>2011-02-19T10:29:50Z</time>
      </trkpt>
      <trkpt lat="45.48367" lon="5.81192">
        <ele>962</ele>
        <time>2011-02-19T10:30:11Z</time>
      </trkpt>
      <trkpt lat="45.48382" lon="5.81194">
        <ele>964</ele>
        <time>2011-02-19T10:30:26Z</time>
      </trkpt>
      <trkpt lat="45.48395" lon="5.81196">
        <ele>966</ele>
        <time>2011-02-19T10:30:37Z</time>
      </trkpt>
      <trkpt lat="45.48412" lon="5.81219">
        <ele>969</ele>
        <time>2011-02-19T10:31:00Z</time>
      </trkpt>
      <trkpt lat="45.48427" lon="5.81236">
        <ele>972</ele>
        <time>2011-02-19T10:31:21Z</time>
      </trkpt>
      <trkpt lat="45.48433" lon="5.81239">
        <ele>973</ele>
        <time>2011-02-19T10:31:29Z</time>
      </trkpt>
      <trkpt lat="45.48436" lon="5.8124">
        <ele>973</ele>
        <time>2011-02-19T10:31:32Z</time>
      </trkpt>
      <trkpt lat="45.48438" lon="5.8124">
        <ele>973</ele>
        <time>2011-02-19T10:31:35Z</time>
      </trkpt>
      <trkpt lat="45.48463" lon="5.81245">
        <ele>975</ele>
        <time>2011-02-19T10:31:57Z</time>
      </trkpt>
      <trkpt lat="45.48469" lon="5.81245">
        <ele>976</ele>
        <time>2011-02-19T10:32:02Z</time>
      </trkpt>
      <trkpt lat="45.48492" lon="5.81242">
        <ele>978</ele>
        <time>2011-02-19T10:32:24Z</time>
      </trkpt>
      <trkpt lat="45.48517" lon="5.81241">
        <ele>981</ele>
        <time>2011-02-19T10:32:48Z</time>
      </trkpt>
      <trkpt lat="45.48541" lon="5.81248">
        <ele>984</ele>
        <time>2011-02-19T10:33:11Z</time>
      </trkpt>
      <trkpt lat="45.48565" lon="5.81254">
        <ele>985</ele>
        <time>2011-02-19T10:33:31Z</time>
      </trkpt>
      <trkpt lat="45.48582" lon="5.8126">
        <ele>986</ele>
        <time>2011-02-19T10:33:46Z</time>
      </trkpt>
      <trkpt lat="45.48589" lon="5.81263">
        <ele>986</ele>
        <time>2011-02-19T10:33:53Z</time>
      </trkpt>
      <trkpt lat="45.48608" lon="5.81267">
        <ele>986</ele>
        <time>2011-02-19T10:34:10Z</time>
      </trkpt>
      <trkpt lat="45.48642" lon="5.81277">
        <ele>989</ele>
        <time>2011-02-19T10:34:36Z</time>
      </trkpt>
      <trkpt lat="45.48669" lon="5.81285">
        <ele>991</ele>
        <time>2011-02-19T10:34:56Z</time>
      </trkpt>
      <trkpt lat="45.48694" lon="5.8129">
        <ele>995</ele>
        <time>2011-02-19T10:35:17Z</time>
      </trkpt>
      <trkpt lat="45.48724" lon="5.81295">
        <ele>998</ele>
        <time>2011-02-19T10:35:42Z</time>
      </trkpt>
      <trkpt lat="45.48742" lon="5.81298">
        <ele>999</ele>
        <time>2011-02-19T10:35:58Z</time>
      </trkpt>
      <trkpt lat="45.48753" lon="5.81303">
        <ele>1001</ele>
        <time>2011-02-19T10:36:08Z</time>
      </trkpt>
      <trkpt lat="45.48779" lon="5.81312">
        <ele>1003</ele>
        <time>2011-02-19T10:36:29Z</time>
      </trkpt>
      <trkpt lat="45.48795" lon="5.8132">
        <ele>1005</ele>
        <time>2011-02-19T10:36:42Z</time>
      </trkpt>
      <trkpt lat="45.48821" lon="5.81327">
        <ele>1007</ele>
        <time>2011-02-19T10:37:05Z</time>
      </trkpt>
      <trkpt lat="45.48849" lon="5.81337">
        <ele>1010</ele>
        <time>2011-02-19T10:37:30Z</time>
      </trkpt>
      <trkpt lat="45.48874" lon="5.81343">
        <ele>1012</ele>
        <time>2011-02-19T10:37:50Z</time>
      </trkpt>
      <trkpt lat="45.489" lon="5.81346">
        <ele>1016</ele>
        <time>2011-02-19T10:38:12Z</time>
      </trkpt>
      <trkpt lat="45.48923" lon="5.81351">
        <ele>1018</ele>
        <time>2011-02-19T10:38:33Z</time>
      </trkpt>
      <trkpt lat="45.4893" lon="5.81353">
        <ele>1020</ele>
        <time>2011-02-19T10:38:40Z</time>
      </trkpt>
      <trkpt lat="45.48953" lon="5.81361">
        <ele>1023</ele>
        <time>2011-02-19T10:38:59Z</time>
      </trkpt>
      <trkpt lat="45.4898" lon="5.81383">
        <ele>1026</ele>
        <time>2011-02-19T10:39:24Z</time>
      </trkpt>
      <trkpt lat="45.48995" lon="5.81394">
        <ele>1026</ele>
        <time>2011-02-19T10:39:38Z</time>
      </trkpt>
      <trkpt lat="45.49006" lon="5.81396">
        <ele>1027</ele>
        <time>2011-02-19T10:39:52Z</time>
      </trkpt>
      <trkpt lat="45.49014" lon="5.81399">
        <ele>1026</ele>
        <time>2011-02-19T10:43:19Z</time>
      </trkpt>
      <trkpt lat="45.49015" lon="5.81399">
        <ele>1026</ele>
        <time>2011-02-19T10:43:20Z</time>
      </trkpt>
      <trkpt lat="45.49025" lon="5.814">
        <ele>1027</ele>
        <time>2011-02-19T10:43:29Z</time>
      </trkpt>
      <trkpt lat="45.49052" lon="5.81403">
        <ele>1029</ele>
        <time>2011-02-19T10:43:51Z</time>
      </trkpt>
      <trkpt lat="45.49074" lon="5.81414">
        <ele>1031</ele>
        <time>2011-02-19T10:44:12Z</time>
      </trkpt>
      <trkpt lat="45.49099" lon="5.81424">
        <ele>1034</ele>
        <time>2011-02-19T10:44:33Z</time>
      </trkpt>
      <trkpt lat="45.49115" lon="5.81428">
        <ele>1035</ele>
        <time>2011-02-19T10:44:48Z</time>
      </trkpt>
      <trkpt lat="45.4914" lon="5.81443">
        <ele>1039</ele>
        <time>2011-02-19T10:45:09Z</time>
      </trkpt>
      <trkpt lat="45.49155" lon="5.81461">
        <ele>1040</ele>
        <time>2011-02-19T10:45:25Z</time>
      </trkpt>
      <trkpt lat="45.49182" lon="5.81481">
        <ele>1043</ele>
        <time>2011-02-19T10:45:49Z</time>
      </trkpt>
      <trkpt lat="45.49211" lon="5.81498">
        <ele>1044</ele>
        <time>2011-02-19T10:46:14Z</time>
      </trkpt>
      <trkpt lat="45.49239" lon="5.8151">
        <ele>1045</ele>
        <time>2011-02-19T10:46:39Z</time>
      </trkpt>
      <trkpt lat="45.49273" lon="5.81525">
        <ele>1047</ele>
        <time>2011-02-19T10:47:08Z</time>
      </trkpt>
      <trkpt lat="45.49301" lon="5.81533">
        <ele>1049</ele>
        <time>2011-02-19T10:47:30Z</time>
      </trkpt>
      <trkpt lat="45.49324" lon="5.81546">
        <ele>1052</ele>
        <time>2011-02-19T10:47:51Z</time>
      </trkpt>
      <trkpt lat="45.49346" lon="5.81554">
        <ele>1055</ele>
        <time>2011-02-19T10:48:10Z</time>
      </trkpt>
      <trkpt lat="45.49368" lon="5.8156">
        <ele>1058</ele>
        <time>2011-02-19T10:48:28Z</time>
      </trkpt>
      <trkpt lat="45.49393" lon="5.8156">
        <ele>1060</ele>
        <time>2011-02-19T10:48:48Z</time>
      </trkpt>
      <trkpt lat="45.49397" lon="5.81559">
        <ele>1061</ele>
        <time>2011-02-19T10:48:51Z</time>
      </trkpt>
      <trkpt lat="45.49419" lon="5.81555">
        <ele>1064</ele>
        <time>2011-02-19T10:49:11Z</time>
      </trkpt>
      <trkpt lat="45.49421" lon="5.81553">
        <ele>1064</ele>
        <time>2011-02-19T10:49:13Z</time>
      </trkpt>
      <trkpt lat="45.4943" lon="5.81516">
        <ele>1068</ele>
        <time>2011-02-19T10:49:35Z</time>
      </trkpt>
      <trkpt lat="45.4943" lon="5.81513">
        <ele>1068</ele>
        <time>2011-02-19T10:49:37Z</time>
      </trkpt>
      <trkpt lat="45.49437" lon="5.81488">
        <ele>1070</ele>
        <time>2011-02-19T10:49:52Z</time>
      </trkpt>
      <trkpt lat="45.49439" lon="5.81485">
        <ele>1070</ele>
        <time>2011-02-19T10:49:54Z</time>
      </trkpt>
      <trkpt lat="45.4946" lon="5.81467">
        <ele>1073</ele>
        <time>2011-02-19T10:50:15Z</time>
      </trkpt>
      <trkpt lat="45.4947" lon="5.81449">
        <ele>1075</ele>
        <time>2011-02-19T10:50:29Z</time>
      </trkpt>
      <trkpt lat="45.49469" lon="5.8142">
        <ele>1078</ele>
        <time>2011-02-19T10:50:46Z</time>
      </trkpt>
      <trkpt lat="45.49451" lon="5.81386">
        <ele>1079</ele>
        <time>2011-02-19T10:51:07Z</time>
      </trkpt>
      <trkpt lat="45.49463" lon="5.81344">
        <ele>1080</ele>
        <time>2011-02-19T10:51:23Z</time>
      </trkpt>
      <trkpt lat="45.49465" lon="5.81342">
        <ele>1081</ele>
        <time>2011-02-19T10:51:33Z</time>
      </trkpt>
      <trkpt lat="45.49464" lon="5.81341">
        <ele>1080</ele>
        <time>2011-02-19T10:51:49Z</time>
      </trkpt>
      <trkpt lat="45.49465" lon="5.81341">
        <ele>1080</ele>
        <time>2011-02-19T10:52:19Z</time>
      </trkpt>
      <trkpt lat="45.49466" lon="5.81347">
        <ele>1080</ele>
        <time>2011-02-19T10:52:36Z</time>
      </trkpt>
      <trkpt lat="45.49463" lon="5.81349">
        <ele>1079</ele>
        <time>2011-02-19T10:53:02Z</time>
      </trkpt>
      <trkpt lat="45.49463" lon="5.81344">
        <ele>1080</ele>
        <time>2011-02-19T10:53:36Z</time>
      </trkpt>
      <trkpt lat="45.49476" lon="5.81307">
        <ele>1081</ele>
        <time>2011-02-19T10:53:51Z</time>
      </trkpt>
      <trkpt lat="45.49494" lon="5.81268">
        <ele>1082</ele>
        <time>2011-02-19T10:54:08Z</time>
      </trkpt>
      <trkpt lat="45.49526" lon="5.8123">
        <ele>1083</ele>
        <time>2011-02-19T10:54:27Z</time>
      </trkpt>
      <trkpt lat="45.49565" lon="5.81231">
        <ele>1083</ele>
        <time>2011-02-19T10:54:43Z</time>
      </trkpt>
      <trkpt lat="45.49591" lon="5.81196">
        <ele>1085</ele>
        <time>2011-02-19T10:54:58Z</time>
      </trkpt>
      <trkpt lat="45.49611" lon="5.8116">
        <ele>1087</ele>
        <time>2011-02-19T10:55:12Z</time>
      </trkpt>
      <trkpt lat="45.49633" lon="5.81146">
        <ele>1090</ele>
        <time>2011-02-19T10:55:27Z</time>
      </trkpt>
      <trkpt lat="45.49645" lon="5.8115">
        <ele>1091</ele>
        <time>2011-02-19T10:55:33Z</time>
      </trkpt>
      <trkpt lat="45.49653" lon="5.81155">
        <ele>1091</ele>
        <time>2011-02-19T10:55:37Z</time>
      </trkpt>
      <trkpt lat="45.497" lon="5.81167">
        <ele>1093</ele>
        <time>2011-02-19T10:55:56Z</time>
      </trkpt>
      <trkpt lat="45.49731" lon="5.81163">
        <ele>1094</ele>
        <time>2011-02-19T10:56:09Z</time>
      </trkpt>
      <trkpt lat="45.4975" lon="5.81146">
        <ele>1094</ele>
        <time>2011-02-19T10:56:19Z</time>
      </trkpt>
      <trkpt lat="45.49756" lon="5.81144">
        <ele>1094</ele>
        <time>2011-02-19T10:56:23Z</time>
      </trkpt>
      <trkpt lat="45.49793" lon="5.81154">
        <ele>1094</ele>
        <time>2011-02-19T10:56:44Z</time>
      </trkpt>
      <trkpt lat="45.49827" lon="5.812">
        <ele>1097</ele>
        <time>2011-02-19T10:57:04Z</time>
      </trkpt>
      <trkpt lat="45.49859" lon="5.81244">
        <ele>1100</ele>
        <time>2011-02-19T10:57:25Z</time>
      </trkpt>
      <trkpt lat="45.49885" lon="5.81288">
        <ele>1103</ele>
        <time>2011-02-19T10:57:44Z</time>
      </trkpt>
      <trkpt lat="45.49906" lon="5.81325">
        <ele>1105</ele>
        <time>2011-02-19T10:57:59Z</time>
      </trkpt>
      <trkpt lat="45.49935" lon="5.81347">
        <ele>1107</ele>
        <time>2011-02-19T10:58:15Z</time>
      </trkpt>
      <trkpt lat="45.49981" lon="5.81362">
        <ele>1109</ele>
        <time>2011-02-19T10:58:34Z</time>
      </trkpt>
      <trkpt lat="45.50024" lon="5.81371">
        <ele>1113</ele>
        <time>2011-02-19T10:58:51Z</time>
      </trkpt>
      <trkpt lat="45.50065" lon="5.8137">
        <ele>1116</ele>
        <time>2011-02-19T10:59:08Z</time>
      </trkpt>
      <trkpt lat="45.50075" lon="5.81367">
        <ele>1116</ele>
        <time>2011-02-19T10:59:13Z</time>
      </trkpt>
      <trkpt lat="45.50109" lon="5.81366">
        <ele>1118</ele>
        <time>2011-02-19T10:59:29Z</time>
      </trkpt>
      <trkpt lat="45.50141" lon="5.81383">
        <ele>1121</ele>
        <time>2011-02-19T10:59:46Z</time>
      </trkpt>
      <trkpt lat="45.50167" lon="5.81391">
        <ele>1123</ele>
        <time>2011-02-19T10:59:59Z</time>
      </trkpt>
      <trkpt lat="45.50198" lon="5.81386">
        <ele>1126</ele>
        <time>2011-02-19T11:00:13Z</time>
      </trkpt>
      <trkpt lat="45.5023" lon="5.81381">
        <ele>1130</ele>
        <time>2011-02-19T11:00:26Z</time>
      </trkpt>
      <trkpt lat="45.50264" lon="5.81393">
        <ele>1133</ele>
        <time>2011-02-19T11:00:42Z</time>
      </trkpt>
      <trkpt lat="45.50303" lon="5.81399">
        <ele>1136</ele>
        <time>2011-02-19T11:00:59Z</time>
      </trkpt>
      <trkpt lat="45.50338" lon="5.81414">
        <ele>1139</ele>
        <time>2011-02-19T11:01:15Z</time>
      </trkpt>
      <trkpt lat="45.50344" lon="5.81423">
        <ele>1140</ele>
        <time>2011-02-19T11:01:19Z</time>
      </trkpt>
      <trkpt lat="45.50345" lon="5.8143">
        <ele>1140</ele>
        <time>2011-02-19T11:01:21Z</time>
      </trkpt>
      <trkpt lat="45.50362" lon="5.81472">
        <ele>1144</ele>
        <time>2011-02-19T11:01:36Z</time>
      </trkpt>
      <trkpt lat="45.50382" lon="5.8151">
        <ele>1147</ele>
        <time>2011-02-19T11:01:49Z</time>
      </trkpt>
      <trkpt lat="45.50417" lon="5.81542">
        <ele>1149</ele>
        <time>2011-02-19T11:02:06Z</time>
      </trkpt>
      <trkpt lat="45.50451" lon="5.81564">
        <ele>1153</ele>
        <time>2011-02-19T11:02:22Z</time>
      </trkpt>
      <trkpt lat="45.50479" lon="5.81564">
        <ele>1156</ele>
        <time>2011-02-19T11:02:35Z</time>
      </trkpt>
      <trkpt lat="45.50502" lon="5.81576">
        <ele>1159</ele>
        <time>2011-02-19T11:02:46Z</time>
      </trkpt>
      <trkpt lat="45.50525" lon="5.81587">
        <ele>1162</ele>
        <time>2011-02-19T11:02:57Z</time>
      </trkpt>
      <trkpt lat="45.50553" lon="5.81604">
        <ele>1165</ele>
        <time>2011-02-19T11:03:12Z</time>
      </trkpt>
      <trkpt lat="45.50556" lon="5.81608">
        <ele>1165</ele>
        <time>2011-02-19T11:03:14Z</time>
      </trkpt>
      <trkpt lat="45.50563" lon="5.81604">
        <ele>1166</ele>
        <time>2011-02-19T11:03:23Z</time>
      </trkpt>
      <trkpt lat="45.5056" lon="5.81604">
        <ele>1166</ele>
        <time>2011-02-19T11:03:39Z</time>
      </trkpt>
      <trkpt lat="45.5056" lon="5.81603">
        <ele>1166</ele>
        <time>2011-02-19T11:09:17Z</time>
      </trkpt>
      <trkpt lat="45.5056" lon="5.81595">
        <ele>1167</ele>
        <time>2011-02-19T11:09:32Z</time>
      </trkpt>
      <trkpt lat="45.5056" lon="5.81595">
        <ele>1167</ele>
        <time>2011-02-19T11:10:03Z</time>
      </trkpt>
      <trkpt lat="45.5056" lon="5.81595">
        <ele>1167</ele>
        <time>2011-02-19T11:11:53Z</time>
      </trkpt>
      <trkpt lat="45.50538" lon="5.81574">
        <ele>1170</ele>
        <time>2011-02-19T11:12:13Z</time>
      </trkpt>
      <trkpt lat="45.50518" lon="5.81552">
        <ele>1172</ele>
        <time>2011-02-19T11:12:32Z</time>
      </trkpt>
      <trkpt lat="45.50499" lon="5.81528">
        <ele>1175</ele>
        <time>2011-02-19T11:12:50Z</time>
      </trkpt>
      <trkpt lat="45.50496" lon="5.81524">
        <ele>1176</ele>
        <time>2011-02-19T11:12:53Z</time>
      </trkpt>
      <trkpt lat="45.5048" lon="5.81499">
        <ele>1179</ele>
        <time>2011-02-19T11:13:11Z</time>
      </trkpt>
      <trkpt lat="45.50463" lon="5.81479">
        <ele>1182</ele>
        <time>2011-02-19T11:13:28Z</time>
      </trkpt>
      <trkpt lat="45.50448" lon="5.8145">
        <ele>1185</ele>
        <time>2011-02-19T11:13:45Z</time>
      </trkpt>
      <trkpt lat="45.5043" lon="5.81418">
        <ele>1189</ele>
        <time>2011-02-19T11:14:06Z</time>
      </trkpt>
      <trkpt lat="45.50423" lon="5.81393">
        <ele>1192</ele>
        <time>2011-02-19T11:14:20Z</time>
      </trkpt>
      <trkpt lat="45.50418" lon="5.81356">
        <ele>1195</ele>
        <time>2011-02-19T11:14:39Z</time>
      </trkpt>
      <trkpt lat="45.50406" lon="5.81335">
        <ele>1198</ele>
        <time>2011-02-19T11:14:53Z</time>
      </trkpt>
      <trkpt lat="45.50397" lon="5.81311">
        <ele>1201</ele>
        <time>2011-02-19T11:15:09Z</time>
      </trkpt>
      <trkpt lat="45.50396" lon="5.81279">
        <ele>1204</ele>
        <time>2011-02-19T11:15:27Z</time>
      </trkpt>
      <trkpt lat="45.50396" lon="5.81268">
        <ele>1205</ele>
        <time>2011-02-19T11:15:33Z</time>
      </trkpt>
      <trkpt lat="45.50398" lon="5.8126">
        <ele>1206</ele>
        <time>2011-02-19T11:15:38Z</time>
      </trkpt>
      <trkpt lat="45.50395" lon="5.81239">
        <ele>1209</ele>
        <time>2011-02-19T11:15:50Z</time>
      </trkpt>
      <trkpt lat="45.50394" lon="5.81237">
        <ele>1209</ele>
        <time>2011-02-19T11:15:52Z</time>
      </trkpt>
      <trkpt lat="45.50383" lon="5.81226">
        <ele>1210</ele>
        <time>2011-02-19T11:16:03Z</time>
      </trkpt>
      <trkpt lat="45.50362" lon="5.81216">
        <ele>1213</ele>
        <time>2011-02-19T11:16:21Z</time>
      </trkpt>
      <trkpt lat="45.50346" lon="5.81205">
        <ele>1217</ele>
        <time>2011-02-19T11:16:35Z</time>
      </trkpt>
      <trkpt lat="45.5033" lon="5.81187">
        <ele>1220</ele>
        <time>2011-02-19T11:16:51Z</time>
      </trkpt>
      <trkpt lat="45.50313" lon="5.81169">
        <ele>1223</ele>
        <time>2011-02-19T11:17:08Z</time>
      </trkpt>
      <trkpt lat="45.50289" lon="5.8115">
        <ele>1226</ele>
        <time>2011-02-19T11:17:27Z</time>
      </trkpt>
      <trkpt lat="45.50273" lon="5.8114">
        <ele>1229</ele>
        <time>2011-02-19T11:17:47Z</time>
      </trkpt>
      <trkpt lat="45.50272" lon="5.81141">
        <ele>1229</ele>
        <time>2011-02-19T11:19:32Z</time>
      </trkpt>
      <trkpt lat="45.50271" lon="5.81142">
        <ele>1229</ele>
        <time>2011-02-19T11:20:00Z</time>
      </trkpt>
      <trkpt lat="45.50256" lon="5.8113">
        <ele>1233</ele>
        <time>2011-02-19T11:20:13Z</time>
      </trkpt>
      <trkpt lat="45.50237" lon="5.8111">
        <ele>1235</ele>
        <time>2011-02-19T11:20:30Z</time>
      </trkpt>
      <trkpt lat="45.50208" lon="5.81077">
        <ele>1237</ele>
        <time>2011-02-19T11:20:55Z</time>
      </trkpt>
      <trkpt lat="45.50183" lon="5.81054">
        <ele>1239</ele>
        <time>2011-02-19T11:21:14Z</time>
      </trkpt>
      <trkpt lat="45.50165" lon="5.81043">
        <ele>1240</ele>
        <time>2011-02-19T11:21:28Z</time>
      </trkpt>
      <trkpt lat="45.50152" lon="5.81032">
        <ele>1241</ele>
        <time>2011-02-19T11:21:41Z</time>
      </trkpt>
      <trkpt lat="45.50152" lon="5.81033">
        <ele>1240</ele>
        <time>2011-02-19T11:22:51Z</time>
      </trkpt>
      <trkpt lat="45.50153" lon="5.81033">
        <ele>1240</ele>
        <time>2011-02-19T11:23:18Z</time>
      </trkpt>
      <trkpt lat="45.50149" lon="5.81029">
        <ele>1241</ele>
        <time>2011-02-19T11:23:28Z</time>
      </trkpt>
      <trkpt lat="45.50138" lon="5.81019">
        <ele>1240</ele>
        <time>2011-02-19T11:24:00Z</time>
      </trkpt>
      <trkpt lat="45.50119" lon="5.8099">
        <ele>1242</ele>
        <time>2011-02-19T11:24:22Z</time>
      </trkpt>
      <trkpt lat="45.50088" lon="5.80955">
        <ele>1241</ele>
        <time>2011-02-19T11:24:45Z</time>
      </trkpt>
      <trkpt lat="45.50069" lon="5.80923">
        <ele>1241</ele>
        <time>2011-02-19T11:25:03Z</time>
      </trkpt>
      <trkpt lat="45.50067" lon="5.8089">
        <ele>1244</ele>
        <time>2011-02-19T11:25:19Z</time>
      </trkpt>
      <trkpt lat="45.50059" lon="5.80859">
        <ele>1247</ele>
        <time>2011-02-19T11:25:37Z</time>
      </trkpt>
      <trkpt lat="45.50057" lon="5.80844">
        <ele>1247</ele>
        <time>2011-02-19T11:25:56Z</time>
      </trkpt>
      <trkpt lat="45.50057" lon="5.80844">
        <ele>1247</ele>
        <time>2011-02-19T11:25:58Z</time>
      </trkpt>
      <trkpt lat="45.50049" lon="5.80821">
        <ele>1246</ele>
        <time>2011-02-19T11:26:07Z</time>
      </trkpt>
      <trkpt lat="45.50055" lon="5.80784">
        <ele>1246</ele>
        <time>2011-02-19T11:26:23Z</time>
      </trkpt>
      <trkpt lat="45.50066" lon="5.80748">
        <ele>1245</ele>
        <time>2011-02-19T11:26:41Z</time>
      </trkpt>
      <trkpt lat="45.50072" lon="5.80711">
        <ele>1247</ele>
        <time>2011-02-19T11:27:01Z</time>
      </trkpt>
      <trkpt lat="45.50072" lon="5.80661">
        <ele>1249</ele>
        <time>2011-02-19T11:27:27Z</time>
      </trkpt>
      <trkpt lat="45.50073" lon="5.80652">
        <ele>1250</ele>
        <time>2011-02-19T11:27:43Z</time>
      </trkpt>
      <trkpt lat="45.50075" lon="5.80653">
        <ele>1249</ele>
        <time>2011-02-19T11:28:11Z</time>
      </trkpt>
      <trkpt lat="45.50077" lon="5.80645">
        <ele>1251</ele>
        <time>2011-02-19T11:28:25Z</time>
      </trkpt>
      <trkpt lat="45.50082" lon="5.80634">
        <ele>1254</ele>
        <time>2011-02-19T11:28:39Z</time>
      </trkpt>
      <trkpt lat="45.50086" lon="5.8062">
        <ele>1257</ele>
        <time>2011-02-19T11:28:57Z</time>
      </trkpt>
      <trkpt lat="45.50092" lon="5.80607">
        <ele>1260</ele>
        <time>2011-02-19T11:29:14Z</time>
      </trkpt>
      <trkpt lat="45.50096" lon="5.806">
        <ele>1261</ele>
        <time>2011-02-19T11:29:29Z</time>
      </trkpt>
      <trkpt lat="45.50105" lon="5.806">
        <ele>1264</ele>
        <time>2011-02-19T11:29:38Z</time>
      </trkpt>
      <trkpt lat="45.5011" lon="5.80589">
        <ele>1266</ele>
        <time>2011-02-19T11:29:46Z</time>
      </trkpt>
      <trkpt lat="45.50116" lon="5.80586">
        <ele>1268</ele>
        <time>2011-02-19T11:29:52Z</time>
      </trkpt>
      <trkpt lat="45.50126" lon="5.80581">
        <ele>1270</ele>
        <time>2011-02-19T11:30:07Z</time>
      </trkpt>
      <trkpt lat="45.50133" lon="5.80576">
        <ele>1273</ele>
        <time>2011-02-19T11:30:21Z</time>
      </trkpt>
      <trkpt lat="45.50141" lon="5.80574">
        <ele>1276</ele>
        <time>2011-02-19T11:30:39Z</time>
      </trkpt>
      <trkpt lat="45.5015" lon="5.80572">
        <ele>1278</ele>
        <time>2011-02-19T11:30:58Z</time>
      </trkpt>
      <trkpt lat="45.5016" lon="5.80573">
        <ele>1281</ele>
        <time>2011-02-19T11:31:17Z</time>
      </trkpt>
      <trkpt lat="45.50163" lon="5.80573">
        <ele>1281</ele>
        <time>2011-02-19T11:31:42Z</time>
      </trkpt>
      <trkpt lat="45.50166" lon="5.80566">
        <ele>1282</ele>
        <time>2011-02-19T11:33:46Z</time>
      </trkpt>
      <trkpt lat="45.50173" lon="5.80552">
        <ele>1285</ele>
        <time>2011-02-19T11:34:03Z</time>
      </trkpt>
      <trkpt lat="45.50182" lon="5.8054">
        <ele>1288</ele>
        <time>2011-02-19T11:34:20Z</time>
      </trkpt>
      <trkpt lat="45.50187" lon="5.80523">
        <ele>1291</ele>
        <time>2011-02-19T11:34:39Z</time>
      </trkpt>
      <trkpt lat="45.5019" lon="5.80515">
        <ele>1293</ele>
        <time>2011-02-19T11:34:56Z</time>
      </trkpt>
      <trkpt lat="45.50193" lon="5.80497">
        <ele>1296</ele>
        <time>2011-02-19T11:35:15Z</time>
      </trkpt>
      <trkpt lat="45.50194" lon="5.80482">
        <ele>1298</ele>
        <time>2011-02-19T11:35:35Z</time>
      </trkpt>
      <trkpt lat="45.50193" lon="5.80482">
        <ele>1298</ele>
        <time>2011-02-19T11:36:03Z</time>
      </trkpt>
      <trkpt lat="45.50198" lon="5.80466">
        <ele>1301</ele>
        <time>2011-02-19T11:36:30Z</time>
      </trkpt>
      <trkpt lat="45.50206" lon="5.80445">
        <ele>1304</ele>
        <time>2011-02-19T11:36:48Z</time>
      </trkpt>
      <trkpt lat="45.5021" lon="5.80424">
        <ele>1307</ele>
        <time>2011-02-19T11:37:06Z</time>
      </trkpt>
      <trkpt lat="45.50214" lon="5.80401">
        <ele>1310</ele>
        <time>2011-02-19T11:37:23Z</time>
      </trkpt>
      <trkpt lat="45.50214" lon="5.80392">
        <ele>1312</ele>
        <time>2011-02-19T11:37:30Z</time>
      </trkpt>
      <trkpt lat="45.50209" lon="5.80378">
        <ele>1314</ele>
        <time>2011-02-19T11:37:46Z</time>
      </trkpt>
      <trkpt lat="45.50207" lon="5.80366">
        <ele>1316</ele>
        <time>2011-02-19T11:37:58Z</time>
      </trkpt>
      <trkpt lat="45.502" lon="5.80347">
        <ele>1318</ele>
        <time>2011-02-19T11:38:16Z</time>
      </trkpt>
      <trkpt lat="45.50191" lon="5.80347">
        <ele>1318</ele>
        <time>2011-02-19T11:38:36Z</time>
      </trkpt>
      <trkpt lat="45.50183" lon="5.80346">
        <ele>1318</ele>
        <time>2011-02-19T11:38:47Z</time>
      </trkpt>
      <trkpt lat="45.50179" lon="5.80339">
        <ele>1318</ele>
        <time>2011-02-19T11:39:09Z</time>
      </trkpt>
      <trkpt lat="45.50177" lon="5.80341">
        <ele>1318</ele>
        <time>2011-02-19T11:39:29Z</time>
      </trkpt>
      <trkpt lat="45.50177" lon="5.80342">
        <ele>1318</ele>
        <time>2011-02-19T11:40:55Z</time>
      </trkpt>
      <trkpt lat="45.50177" lon="5.80342">
        <ele>1318</ele>
        <time>2011-02-19T11:41:37Z</time>
      </trkpt>
      <trkpt lat="45.50154" lon="5.80353">
        <ele>1318</ele>
        <time>2011-02-19T11:41:53Z</time>
      </trkpt>
      <trkpt lat="45.50148" lon="5.80353">
        <ele>1318</ele>
        <time>2011-02-19T11:41:57Z</time>
      </trkpt>
      <trkpt lat="45.50142" lon="5.80351">
        <ele>1319</ele>
        <time>2011-02-19T11:42:04Z</time>
      </trkpt>
      <trkpt lat="45.50136" lon="5.80354">
        <ele>1319</ele>
        <time>2011-02-19T11:42:09Z</time>
      </trkpt>
      <trkpt lat="45.50129" lon="5.80354">
        <ele>1319</ele>
        <time>2011-02-19T11:42:14Z</time>
      </trkpt>
      <trkpt lat="45.50123" lon="5.80364">
        <ele>1321</ele>
        <time>2011-02-19T11:42:25Z</time>
      </trkpt>
      <trkpt lat="45.50123" lon="5.80365">
        <ele>1321</ele>
        <time>2011-02-19T11:42:54Z</time>
      </trkpt>
      <trkpt lat="45.50123" lon="5.80365">
        <ele>1321</ele>
        <time>2011-02-19T11:43:01Z</time>
      </trkpt>
      <trkpt lat="45.50123" lon="5.80365">
        <ele>1320</ele>
        <time>2011-02-19T11:43:49Z</time>
      </trkpt>
      <trkpt lat="45.50123" lon="5.80365">
        <ele>1321</ele>
        <time>2011-02-19T11:47:06Z</time>
      </trkpt>
    </trkseg>
  </trk>
  <trk>
    <name><![CDATA[VTT Tour / Mont Beauvoir_2]]></name>
    <trkseg>
      <trkpt lat="45.50128" lon="5.80362">
        <ele>1314</ele>
        <time>2011-02-19T12:57:25Z</time>
      </trkpt>
      <trkpt lat="45.50129" lon="5.80361">
        <ele>1321</ele>
        <time>2011-02-19T12:57:26Z</time>
      </trkpt>
      <trkpt lat="45.50129" lon="5.80364">
        <ele>1317</ele>
        <time>2011-02-19T12:57:47Z</time>
      </trkpt>
      <trkpt lat="45.50129" lon="5.80365">
        <ele>1316</ele>
        <time>2011-02-19T12:59:47Z</time>
      </trkpt>
      <trkpt lat="45.50125" lon="5.80362">
        <ele>1315</ele>
        <time>2011-02-19T12:59:58Z</time>
      </trkpt>
      <trkpt lat="45.50126" lon="5.80356">
        <ele>1315</ele>
        <time>2011-02-19T13:01:31Z</time>
      </trkpt>
      <trkpt lat="45.50126" lon="5.80356">
        <ele>1315</ele>
        <time>2011-02-19T13:01:40Z</time>
      </trkpt>
      <trkpt lat="45.50143" lon="5.80332">
        <ele>1311</ele>
        <time>2011-02-19T13:01:54Z</time>
      </trkpt>
      <trkpt lat="45.50145" lon="5.80323">
        <ele>1309</ele>
        <time>2011-02-19T13:02:07Z</time>
      </trkpt>
      <trkpt lat="45.50143" lon="5.80322">
        <ele>1310</ele>
        <time>2011-02-19T13:05:09Z</time>
      </trkpt>
      <trkpt lat="45.5014" lon="5.80312">
        <ele>1308</ele>
        <time>2011-02-19T13:05:14Z</time>
      </trkpt>
      <trkpt lat="45.50136" lon="5.80302">
        <ele>1304</ele>
        <time>2011-02-19T13:05:18Z</time>
      </trkpt>
      <trkpt lat="45.50131" lon="5.80287">
        <ele>1301</ele>
        <time>2011-02-19T13:05:24Z</time>
      </trkpt>
      <trkpt lat="45.50126" lon="5.8029">
        <ele>1300</ele>
        <time>2011-02-19T13:05:31Z</time>
      </trkpt>
      <trkpt lat="45.50108" lon="5.80285">
        <ele>1297</ele>
        <time>2011-02-19T13:05:41Z</time>
      </trkpt>
      <trkpt lat="45.50083" lon="5.80281">
        <ele>1294</ele>
        <time>2011-02-19T13:05:52Z</time>
      </trkpt>
      <trkpt lat="45.50058" lon="5.80264">
        <ele>1291</ele>
        <time>2011-02-19T13:06:03Z</time>
      </trkpt>
      <trkpt lat="45.50043" lon="5.80253">
        <ele>1287</ele>
        <time>2011-02-19T13:06:09Z</time>
      </trkpt>
      <trkpt lat="45.50031" lon="5.80243">
        <ele>1285</ele>
        <time>2011-02-19T13:06:16Z</time>
      </trkpt>
      <trkpt lat="45.5001" lon="5.80231">
        <ele>1283</ele>
        <time>2011-02-19T13:06:26Z</time>
      </trkpt>
      <trkpt lat="45.50006" lon="5.8023">
        <ele>1282</ele>
        <time>2011-02-19T13:06:28Z</time>
      </trkpt>
      <trkpt lat="45.49992" lon="5.80219">
        <ele>1279</ele>
        <time>2011-02-19T13:06:35Z</time>
      </trkpt>
      <trkpt lat="45.49983" lon="5.80209">
        <ele>1277</ele>
        <time>2011-02-19T13:06:39Z</time>
      </trkpt>
      <trkpt lat="45.49966" lon="5.8019">
        <ele>1274</ele>
        <time>2011-02-19T13:06:47Z</time>
      </trkpt>
      <trkpt lat="45.49962" lon="5.80184">
        <ele>1273</ele>
        <time>2011-02-19T13:06:49Z</time>
      </trkpt>
      <trkpt lat="45.49942" lon="5.80156">
        <ele>1271</ele>
        <time>2011-02-19T13:06:59Z</time>
      </trkpt>
      <trkpt lat="45.49931" lon="5.80139">
        <ele>1268</ele>
        <time>2011-02-19T13:07:11Z</time>
      </trkpt>
      <trkpt lat="45.49931" lon="5.80139">
        <ele>1268</ele>
        <time>2011-02-19T13:07:47Z</time>
      </trkpt>
      <trkpt lat="45.49932" lon="5.80139">
        <ele>1268</ele>
        <time>2011-02-19T13:08:59Z</time>
      </trkpt>
      <trkpt lat="45.49931" lon="5.80138">
        <ele>1269</ele>
        <time>2011-02-19T13:09:05Z</time>
      </trkpt>
      <trkpt lat="45.49924" lon="5.80127">
        <ele>1265</ele>
        <time>2011-02-19T13:09:11Z</time>
      </trkpt>
      <trkpt lat="45.49918" lon="5.80117">
        <ele>1264</ele>
        <time>2011-02-19T13:09:15Z</time>
      </trkpt>
      <trkpt lat="45.49908" lon="5.80106">
        <ele>1260</ele>
        <time>2011-02-19T13:09:24Z</time>
      </trkpt>
      <trkpt lat="45.49898" lon="5.80093">
        <ele>1258</ele>
        <time>2011-02-19T13:09:29Z</time>
      </trkpt>
      <trkpt lat="45.49891" lon="5.80084">
        <ele>1257</ele>
        <time>2011-02-19T13:09:33Z</time>
      </trkpt>
      <trkpt lat="45.49874" lon="5.80067">
        <ele>1253</ele>
        <time>2011-02-19T13:09:42Z</time>
      </trkpt>
      <trkpt lat="45.49856" lon="5.80051">
        <ele>1249</ele>
        <time>2011-02-19T13:09:50Z</time>
      </trkpt>
      <trkpt lat="45.49837" lon="5.80038">
        <ele>1246</ele>
        <time>2011-02-19T13:09:57Z</time>
      </trkpt>
      <trkpt lat="45.49835" lon="5.80036">
        <ele>1246</ele>
        <time>2011-02-19T13:09:58Z</time>
      </trkpt>
      <trkpt lat="45.49821" lon="5.80026">
        <ele>1244</ele>
        <time>2011-02-19T13:10:03Z</time>
      </trkpt>
      <trkpt lat="45.4979" lon="5.80005">
        <ele>1240</ele>
        <time>2011-02-19T13:10:14Z</time>
      </trkpt>
      <trkpt lat="45.49759" lon="5.79981">
        <ele>1237</ele>
        <time>2011-02-19T13:10:26Z</time>
      </trkpt>
      <trkpt lat="45.49756" lon="5.79979">
        <ele>1237</ele>
        <time>2011-02-19T13:10:27Z</time>
      </trkpt>
      <trkpt lat="45.4972" lon="5.79949">
        <ele>1234</ele>
        <time>2011-02-19T13:10:39Z</time>
      </trkpt>
      <trkpt lat="45.49699" lon="5.79921">
        <ele>1231</ele>
        <time>2011-02-19T13:10:48Z</time>
      </trkpt>
      <trkpt lat="45.49693" lon="5.79912">
        <ele>1229</ele>
        <time>2011-02-19T13:10:51Z</time>
      </trkpt>
      <trkpt lat="45.49683" lon="5.799">
        <ele>1226</ele>
        <time>2011-02-19T13:10:57Z</time>
      </trkpt>
      <trkpt lat="45.4968" lon="5.79896">
        <ele>1225</ele>
        <time>2011-02-19T13:10:59Z</time>
      </trkpt>
      <trkpt lat="45.49678" lon="5.79891">
        <ele>1224</ele>
        <time>2011-02-19T13:11:01Z</time>
      </trkpt>
      <trkpt lat="45.4967" lon="5.79884">
        <ele>1222</ele>
        <time>2011-02-19T13:11:04Z</time>
      </trkpt>
      <trkpt lat="45.49647" lon="5.79866">
        <ele>1219</ele>
        <time>2011-02-19T13:11:12Z</time>
      </trkpt>
      <trkpt lat="45.49627" lon="5.79851">
        <ele>1215</ele>
        <time>2011-02-19T13:11:20Z</time>
      </trkpt>
      <trkpt lat="45.49624" lon="5.79849">
        <ele>1215</ele>
        <time>2011-02-19T13:11:21Z</time>
      </trkpt>
      <trkpt lat="45.49601" lon="5.79834">
        <ele>1212</ele>
        <time>2011-02-19T13:11:30Z</time>
      </trkpt>
      <trkpt lat="45.49598" lon="5.79832">
        <ele>1212</ele>
        <time>2011-02-19T13:11:31Z</time>
      </trkpt>
      <trkpt lat="45.49585" lon="5.79821">
        <ele>1209</ele>
        <time>2011-02-19T13:11:36Z</time>
      </trkpt>
      <trkpt lat="45.49571" lon="5.79816">
        <ele>1205</ele>
        <time>2011-02-19T13:11:41Z</time>
      </trkpt>
      <trkpt lat="45.49537" lon="5.79812">
        <ele>1202</ele>
        <time>2011-02-19T13:11:51Z</time>
      </trkpt>
      <trkpt lat="45.49529" lon="5.79815">
        <ele>1202</ele>
        <time>2011-02-19T13:12:01Z</time>
      </trkpt>
      <trkpt lat="45.49524" lon="5.79805">
        <ele>1202</ele>
        <time>2011-02-19T13:13:26Z</time>
      </trkpt>
      <trkpt lat="45.49503" lon="5.79787">
        <ele>1198</ele>
        <time>2011-02-19T13:13:35Z</time>
      </trkpt>
      <trkpt lat="45.495" lon="5.79784">
        <ele>1198</ele>
        <time>2011-02-19T13:13:36Z</time>
      </trkpt>
      <trkpt lat="45.49494" lon="5.79774">
        <ele>1197</ele>
        <time>2011-02-19T13:13:39Z</time>
      </trkpt>
      <trkpt lat="45.49487" lon="5.79748">
        <ele>1196</ele>
        <time>2011-02-19T13:13:46Z</time>
      </trkpt>
      <trkpt lat="45.49474" lon="5.79711">
        <ele>1194</ele>
        <time>2011-02-19T13:13:59Z</time>
      </trkpt>
      <trkpt lat="45.49465" lon="5.79701">
        <ele>1194</ele>
        <time>2011-02-19T13:14:10Z</time>
      </trkpt>
      <trkpt lat="45.49463" lon="5.79697">
        <ele>1194</ele>
        <time>2011-02-19T13:14:18Z</time>
      </trkpt>
      <trkpt lat="45.4946" lon="5.79692">
        <ele>1194</ele>
        <time>2011-02-19T13:14:21Z</time>
      </trkpt>
      <trkpt lat="45.49452" lon="5.79676">
        <ele>1194</ele>
        <time>2011-02-19T13:14:33Z</time>
      </trkpt>
      <trkpt lat="45.49451" lon="5.79671">
        <ele>1194</ele>
        <time>2011-02-19T13:14:35Z</time>
      </trkpt>
      <trkpt lat="45.49439" lon="5.79647">
        <ele>1195</ele>
        <time>2011-02-19T13:14:48Z</time>
      </trkpt>
      <trkpt lat="45.4943" lon="5.79634">
        <ele>1194</ele>
        <time>2011-02-19T13:15:00Z</time>
      </trkpt>
      <trkpt lat="45.49414" lon="5.79617">
        <ele>1190</ele>
        <time>2011-02-19T13:15:10Z</time>
      </trkpt>
      <trkpt lat="45.49395" lon="5.79604">
        <ele>1187</ele>
        <time>2011-02-19T13:15:20Z</time>
      </trkpt>
      <trkpt lat="45.49375" lon="5.79594">
        <ele>1184</ele>
        <time>2011-02-19T13:15:30Z</time>
      </trkpt>
      <trkpt lat="45.49367" lon="5.79589">
        <ele>1182</ele>
        <time>2011-02-19T13:15:33Z</time>
      </trkpt>
      <trkpt lat="45.49355" lon="5.7958">
        <ele>1180</ele>
        <time>2011-02-19T13:15:38Z</time>
      </trkpt>
      <trkpt lat="45.49342" lon="5.79571">
        <ele>1176</ele>
        <time>2011-02-19T13:15:44Z</time>
      </trkpt>
      <trkpt lat="45.49331" lon="5.79565">
        <ele>1173</ele>
        <time>2011-02-19T13:15:49Z</time>
      </trkpt>
      <trkpt lat="45.49321" lon="5.7956">
        <ele>1172</ele>
        <time>2011-02-19T13:15:53Z</time>
      </trkpt>
      <trkpt lat="45.49303" lon="5.79562">
        <ele>1168</ele>
        <time>2011-02-19T13:16:00Z</time>
      </trkpt>
      <trkpt lat="45.49295" lon="5.79575">
        <ele>1165</ele>
        <time>2011-02-19T13:16:11Z</time>
      </trkpt>
      <trkpt lat="45.49294" lon="5.79583">
        <ele>1165</ele>
        <time>2011-02-19T13:16:30Z</time>
      </trkpt>
      <trkpt lat="45.49287" lon="5.79586">
        <ele>1162</ele>
        <time>2011-02-19T13:17:10Z</time>
      </trkpt>
      <trkpt lat="45.4928" lon="5.79588">
        <ele>1159</ele>
        <time>2011-02-19T13:17:13Z</time>
      </trkpt>
      <trkpt lat="45.49236" lon="5.79611">
        <ele>1156</ele>
        <time>2011-02-19T13:17:21Z</time>
      </trkpt>
      <trkpt lat="45.49221" lon="5.79615">
        <ele>1153</ele>
        <time>2011-02-19T13:17:26Z</time>
      </trkpt>
      <trkpt lat="45.49205" lon="5.7962">
        <ele>1150</ele>
        <time>2011-02-19T13:17:31Z</time>
      </trkpt>
      <trkpt lat="45.49201" lon="5.79622">
        <ele>1149</ele>
        <time>2011-02-19T13:17:32Z</time>
      </trkpt>
      <trkpt lat="45.49188" lon="5.79619">
        <ele>1147</ele>
        <time>2011-02-19T13:17:37Z</time>
      </trkpt>
      <trkpt lat="45.49172" lon="5.79614">
        <ele>1144</ele>
        <time>2011-02-19T13:17:42Z</time>
      </trkpt>
      <trkpt lat="45.49158" lon="5.7961">
        <ele>1141</ele>
        <time>2011-02-19T13:17:46Z</time>
      </trkpt>
      <trkpt lat="45.49149" lon="5.79608">
        <ele>1139</ele>
        <time>2011-02-19T13:17:49Z</time>
      </trkpt>
      <trkpt lat="45.49136" lon="5.79605">
        <ele>1136</ele>
        <time>2011-02-19T13:17:54Z</time>
      </trkpt>
      <trkpt lat="45.49121" lon="5.79601">
        <ele>1133</ele>
        <time>2011-02-19T13:17:59Z</time>
      </trkpt>
      <trkpt lat="45.49105" lon="5.79598">
        <ele>1130</ele>
        <time>2011-02-19T13:18:04Z</time>
      </trkpt>
      <trkpt lat="45.49096" lon="5.79594">
        <ele>1128</ele>
        <time>2011-02-19T13:18:07Z</time>
      </trkpt>
      <trkpt lat="45.49081" lon="5.79585">
        <ele>1125</ele>
        <time>2011-02-19T13:18:11Z</time>
      </trkpt>
      <trkpt lat="45.49071" lon="5.79578">
        <ele>1124</ele>
        <time>2011-02-19T13:18:14Z</time>
      </trkpt>
      <trkpt lat="45.49053" lon="5.79559">
        <ele>1121</ele>
        <time>2011-02-19T13:18:20Z</time>
      </trkpt>
      <trkpt lat="45.49043" lon="5.79545">
        <ele>1120</ele>
        <time>2011-02-19T13:18:23Z</time>
      </trkpt>
      <trkpt lat="45.49028" lon="5.79512">
        <ele>1117</ele>
        <time>2011-02-19T13:18:30Z</time>
      </trkpt>
      <trkpt lat="45.49022" lon="5.79488">
        <ele>1115</ele>
        <time>2011-02-19T13:18:35Z</time>
      </trkpt>
      <trkpt lat="45.49018" lon="5.7946">
        <ele>1113</ele>
        <time>2011-02-19T13:18:40Z</time>
      </trkpt>
      <trkpt lat="45.49007" lon="5.79425">
        <ele>1110</ele>
        <time>2011-02-19T13:18:48Z</time>
      </trkpt>
      <trkpt lat="45.49003" lon="5.79413">
        <ele>1109</ele>
        <time>2011-02-19T13:18:52Z</time>
      </trkpt>
      <trkpt lat="45.49007" lon="5.794">
        <ele>1109</ele>
        <time>2011-02-19T13:19:02Z</time>
      </trkpt>
      <trkpt lat="45.49007" lon="5.79399">
        <ele>1109</ele>
        <time>2011-02-19T13:19:32Z</time>
      </trkpt>
      <trkpt lat="45.49008" lon="5.794">
        <ele>1110</ele>
        <time>2011-02-19T13:22:01Z</time>
      </trkpt>
      <trkpt lat="45.49015" lon="5.7939">
        <ele>1110</ele>
        <time>2011-02-19T13:22:36Z</time>
      </trkpt>
      <trkpt lat="45.4903" lon="5.79379">
        <ele>1109</ele>
        <time>2011-02-19T13:22:42Z</time>
      </trkpt>
      <trkpt lat="45.49037" lon="5.79372">
        <ele>1108</ele>
        <time>2011-02-19T13:22:44Z</time>
      </trkpt>
      <trkpt lat="45.49041" lon="5.79358">
        <ele>1108</ele>
        <time>2011-02-19T13:22:47Z</time>
      </trkpt>
      <trkpt lat="45.49046" lon="5.79307">
        <ele>1107</ele>
        <time>2011-02-19T13:23:02Z</time>
      </trkpt>
      <trkpt lat="45.49048" lon="5.79269">
        <ele>1106</ele>
        <time>2011-02-19T13:23:13Z</time>
      </trkpt>
      <trkpt lat="45.49048" lon="5.79255">
        <ele>1105</ele>
        <time>2011-02-19T13:23:17Z</time>
      </trkpt>
      <trkpt lat="45.49048" lon="5.7923">
        <ele>1103</ele>
        <time>2011-02-19T13:23:22Z</time>
      </trkpt>
      <trkpt lat="45.49047" lon="5.79209">
        <ele>1101</ele>
        <time>2011-02-19T13:23:25Z</time>
      </trkpt>
      <trkpt lat="45.49047" lon="5.79182">
        <ele>1099</ele>
        <time>2011-02-19T13:23:29Z</time>
      </trkpt>
      <trkpt lat="45.49032" lon="5.79156">
        <ele>1097</ele>
        <time>2011-02-19T13:23:34Z</time>
      </trkpt>
      <trkpt lat="45.49001" lon="5.79137">
        <ele>1095</ele>
        <time>2011-02-19T13:23:41Z</time>
      </trkpt>
      <trkpt lat="45.4896" lon="5.79105">
        <ele>1095</ele>
        <time>2011-02-19T13:23:53Z</time>
      </trkpt>
      <trkpt lat="45.48928" lon="5.7911">
        <ele>1096</ele>
        <time>2011-02-19T13:24:10Z</time>
      </trkpt>
      <trkpt lat="45.489" lon="5.79113">
        <ele>1097</ele>
        <time>2011-02-19T13:24:24Z</time>
      </trkpt>
      <trkpt lat="45.48886" lon="5.79116">
        <ele>1099</ele>
        <time>2011-02-19T13:24:39Z</time>
      </trkpt>
      <trkpt lat="45.48868" lon="5.79112">
        <ele>1100</ele>
        <time>2011-02-19T13:25:07Z</time>
      </trkpt>
      <trkpt lat="45.48838" lon="5.79092">
        <ele>1103</ele>
        <time>2011-02-19T13:25:27Z</time>
      </trkpt>
      <trkpt lat="45.48812" lon="5.79083">
        <ele>1105</ele>
        <time>2011-02-19T13:25:41Z</time>
      </trkpt>
      <trkpt lat="45.48809" lon="5.79084">
        <ele>1106</ele>
        <time>2011-02-19T13:25:44Z</time>
      </trkpt>
      <trkpt lat="45.48778" lon="5.79077">
        <ele>1109</ele>
        <time>2011-02-19T13:26:03Z</time>
      </trkpt>
      <trkpt lat="45.48751" lon="5.79064">
        <ele>1113</ele>
        <time>2011-02-19T13:26:19Z</time>
      </trkpt>
      <trkpt lat="45.48728" lon="5.79052">
        <ele>1115</ele>
        <time>2011-02-19T13:26:34Z</time>
      </trkpt>
      <trkpt lat="45.48695" lon="5.79028">
        <ele>1118</ele>
        <time>2011-02-19T13:26:55Z</time>
      </trkpt>
      <trkpt lat="45.48664" lon="5.79001">
        <ele>1121</ele>
        <time>2011-02-19T13:27:15Z</time>
      </trkpt>
      <trkpt lat="45.4863" lon="5.78943">
        <ele>1123</ele>
        <time>2011-02-19T13:27:40Z</time>
      </trkpt>
      <trkpt lat="45.48601" lon="5.7888">
        <ele>1125</ele>
        <time>2011-02-19T13:28:03Z</time>
      </trkpt>
      <trkpt lat="45.48589" lon="5.78806">
        <ele>1128</ele>
        <time>2011-02-19T13:28:26Z</time>
      </trkpt>
      <trkpt lat="45.48585" lon="5.78752">
        <ele>1130</ele>
        <time>2011-02-19T13:28:43Z</time>
      </trkpt>
      <trkpt lat="45.48569" lon="5.78716">
        <ele>1133</ele>
        <time>2011-02-19T13:28:59Z</time>
      </trkpt>
      <trkpt lat="45.48568" lon="5.78715">
        <ele>1132</ele>
        <time>2011-02-19T13:29:31Z</time>
      </trkpt>
      <trkpt lat="45.48566" lon="5.7872">
        <ele>1133</ele>
        <time>2011-02-19T13:33:13Z</time>
      </trkpt>
      <trkpt lat="45.48564" lon="5.78718">
        <ele>1134</ele>
        <time>2011-02-19T13:33:32Z</time>
      </trkpt>
      <trkpt lat="45.48561" lon="5.78717">
        <ele>1134</ele>
        <time>2011-02-19T13:33:44Z</time>
      </trkpt>
      <trkpt lat="45.4855" lon="5.78717">
        <ele>1134</ele>
        <time>2011-02-19T13:33:52Z</time>
      </trkpt>
      <trkpt lat="45.48539" lon="5.78719">
        <ele>1135</ele>
        <time>2011-02-19T13:33:59Z</time>
      </trkpt>
      <trkpt lat="45.48536" lon="5.78721">
        <ele>1136</ele>
        <time>2011-02-19T13:34:01Z</time>
      </trkpt>
      <trkpt lat="45.48522" lon="5.78724">
        <ele>1136</ele>
        <time>2011-02-19T13:34:09Z</time>
      </trkpt>
      <trkpt lat="45.48518" lon="5.78725">
        <ele>1136</ele>
        <time>2011-02-19T13:34:22Z</time>
      </trkpt>
      <trkpt lat="45.48518" lon="5.78727">
        <ele>1135</ele>
        <time>2011-02-19T13:35:08Z</time>
      </trkpt>
      <trkpt lat="45.48518" lon="5.78726">
        <ele>1135</ele>
        <time>2011-02-19T13:35:15Z</time>
      </trkpt>
      <trkpt lat="45.48508" lon="5.7872">
        <ele>1134</ele>
        <time>2011-02-19T13:35:19Z</time>
      </trkpt>
      <trkpt lat="45.48495" lon="5.78718">
        <ele>1133</ele>
        <time>2011-02-19T13:35:22Z</time>
      </trkpt>
      <trkpt lat="45.48478" lon="5.78715">
        <ele>1130</ele>
        <time>2011-02-19T13:35:25Z</time>
      </trkpt>
      <trkpt lat="45.48448" lon="5.78708">
        <ele>1124</ele>
        <time>2011-02-19T13:35:29Z</time>
      </trkpt>
      <trkpt lat="45.48422" lon="5.78702">
        <ele>1121</ele>
        <time>2011-02-19T13:35:32Z</time>
      </trkpt>
      <trkpt lat="45.48381" lon="5.78698">
        <ele>1116</ele>
        <time>2011-02-19T13:35:36Z</time>
      </trkpt>
      <trkpt lat="45.48351" lon="5.78694">
        <ele>1113</ele>
        <time>2011-02-19T13:35:39Z</time>
      </trkpt>
      <trkpt lat="45.48298" lon="5.78683">
        <ele>1109</ele>
        <time>2011-02-19T13:35:44Z</time>
      </trkpt>
      <trkpt lat="45.48255" lon="5.78684">
        <ele>1105</ele>
        <time>2011-02-19T13:35:48Z</time>
      </trkpt>
      <trkpt lat="45.48236" lon="5.78691">
        <ele>1103</ele>
        <time>2011-02-19T13:35:50Z</time>
      </trkpt>
      <trkpt lat="45.48196" lon="5.78711">
        <ele>1099</ele>
        <time>2011-02-19T13:35:55Z</time>
      </trkpt>
      <trkpt lat="45.48188" lon="5.78715">
        <ele>1097</ele>
        <time>2011-02-19T13:35:56Z</time>
      </trkpt>
      <trkpt lat="45.48164" lon="5.78718">
        <ele>1094</ele>
        <time>2011-02-19T13:35:59Z</time>
      </trkpt>
      <trkpt lat="45.48133" lon="5.78709">
        <ele>1089</ele>
        <time>2011-02-19T13:36:03Z</time>
      </trkpt>
      <trkpt lat="45.48108" lon="5.78701">
        <ele>1085</ele>
        <time>2011-02-19T13:36:06Z</time>
      </trkpt>
      <trkpt lat="45.48091" lon="5.78695">
        <ele>1084</ele>
        <time>2011-02-19T13:36:08Z</time>
      </trkpt>
      <trkpt lat="45.48052" lon="5.78651">
        <ele>1077</ele>
        <time>2011-02-19T13:36:13Z</time>
      </trkpt>
      <trkpt lat="45.48035" lon="5.78632">
        <ele>1074</ele>
        <time>2011-02-19T13:36:15Z</time>
      </trkpt>
      <trkpt lat="45.4801" lon="5.78604">
        <ele>1070</ele>
        <time>2011-02-19T13:36:18Z</time>
      </trkpt>
      <trkpt lat="45.47986" lon="5.7858">
        <ele>1066</ele>
        <time>2011-02-19T13:36:21Z</time>
      </trkpt>
      <trkpt lat="45.47957" lon="5.78533">
        <ele>1061</ele>
        <time>2011-02-19T13:36:25Z</time>
      </trkpt>
      <trkpt lat="45.47942" lon="5.78501">
        <ele>1059</ele>
        <time>2011-02-19T13:36:28Z</time>
      </trkpt>
      <trkpt lat="45.47918" lon="5.78477">
        <ele>1055</ele>
        <time>2011-02-19T13:36:31Z</time>
      </trkpt>
      <trkpt lat="45.47911" lon="5.78471">
        <ele>1053</ele>
        <time>2011-02-19T13:36:32Z</time>
      </trkpt>
      <trkpt lat="45.47881" lon="5.78455">
        <ele>1047</ele>
        <time>2011-02-19T13:36:35Z</time>
      </trkpt>
      <trkpt lat="45.47856" lon="5.78438">
        <ele>1043</ele>
        <time>2011-02-19T13:36:37Z</time>
      </trkpt>
      <trkpt lat="45.47833" lon="5.78425">
        <ele>1039</ele>
        <time>2011-02-19T13:36:39Z</time>
      </trkpt>
      <trkpt lat="45.47807" lon="5.78415">
        <ele>1035</ele>
        <time>2011-02-19T13:36:41Z</time>
      </trkpt>
      <trkpt lat="45.47783" lon="5.78405">
        <ele>1031</ele>
        <time>2011-02-19T13:36:43Z</time>
      </trkpt>
      <trkpt lat="45.47749" lon="5.78387">
        <ele>1028</ele>
        <time>2011-02-19T13:36:46Z</time>
      </trkpt>
      <trkpt lat="45.47696" lon="5.78375">
        <ele>1023</ele>
        <time>2011-02-19T13:36:51Z</time>
      </trkpt>
      <trkpt lat="45.47675" lon="5.78376">
        <ele>1020</ele>
        <time>2011-02-19T13:36:54Z</time>
      </trkpt>
      <trkpt lat="45.47673" lon="5.78386">
        <ele>1022</ele>
        <time>2011-02-19T13:36:57Z</time>
      </trkpt>
      <trkpt lat="45.47677" lon="5.78392">
        <ele>1022</ele>
        <time>2011-02-19T13:37:12Z</time>
      </trkpt>
      <trkpt lat="45.47677" lon="5.78392">
        <ele>1022</ele>
        <time>2011-02-19T13:37:23Z</time>
      </trkpt>
      <trkpt lat="45.47662" lon="5.78366">
        <ele>1024</ele>
        <time>2011-02-19T13:37:37Z</time>
      </trkpt>
      <trkpt lat="45.47632" lon="5.78332">
        <ele>1023</ele>
        <time>2011-02-19T13:37:54Z</time>
      </trkpt>
      <trkpt lat="45.47631" lon="5.78327">
        <ele>1023</ele>
        <time>2011-02-19T13:38:05Z</time>
      </trkpt>
      <trkpt lat="45.47638" lon="5.78336">
        <ele>1025</ele>
        <time>2011-02-19T13:39:12Z</time>
      </trkpt>
      <trkpt lat="45.47637" lon="5.78336">
        <ele>1025</ele>
        <time>2011-02-19T13:39:46Z</time>
      </trkpt>
      <trkpt lat="45.4763" lon="5.78323">
        <ele>1022</ele>
        <time>2011-02-19T13:39:51Z</time>
      </trkpt>
      <trkpt lat="45.47601" lon="5.78286">
        <ele>1019</ele>
        <time>2011-02-19T13:39:58Z</time>
      </trkpt>
      <trkpt lat="45.47597" lon="5.7828">
        <ele>1018</ele>
        <time>2011-02-19T13:39:59Z</time>
      </trkpt>
      <trkpt lat="45.47584" lon="5.78268">
        <ele>1016</ele>
        <time>2011-02-19T13:40:01Z</time>
      </trkpt>
      <trkpt lat="45.4756" lon="5.7825">
        <ele>1011</ele>
        <time>2011-02-19T13:40:05Z</time>
      </trkpt>
      <trkpt lat="45.47547" lon="5.78243">
        <ele>1010</ele>
        <time>2011-02-19T13:40:06Z</time>
      </trkpt>
      <trkpt lat="45.47525" lon="5.78204">
        <ele>1006</ele>
        <time>2011-02-19T13:40:10Z</time>
      </trkpt>
      <trkpt lat="45.47515" lon="5.78153">
        <ele>999</ele>
        <time>2011-02-19T13:40:14Z</time>
      </trkpt>
      <trkpt lat="45.4749" lon="5.78129">
        <ele>998</ele>
        <time>2011-02-19T13:40:18Z</time>
      </trkpt>
      <trkpt lat="45.47477" lon="5.78124">
        <ele>995</ele>
        <time>2011-02-19T13:40:20Z</time>
      </trkpt>
      <trkpt lat="45.47461" lon="5.78098">
        <ele>988</ele>
        <time>2011-02-19T13:40:24Z</time>
      </trkpt>
      <trkpt lat="45.47446" lon="5.78067">
        <ele>985</ele>
        <time>2011-02-19T13:40:27Z</time>
      </trkpt>
      <trkpt lat="45.4743" lon="5.78041">
        <ele>983</ele>
        <time>2011-02-19T13:40:30Z</time>
      </trkpt>
      <trkpt lat="45.47418" lon="5.78001">
        <ele>976</ele>
        <time>2011-02-19T13:40:34Z</time>
      </trkpt>
      <trkpt lat="45.47411" lon="5.77964">
        <ele>974</ele>
        <time>2011-02-19T13:40:37Z</time>
      </trkpt>
      <trkpt lat="45.47409" lon="5.77941">
        <ele>971</ele>
        <time>2011-02-19T13:40:39Z</time>
      </trkpt>
      <trkpt lat="45.47411" lon="5.77904">
        <ele>967</ele>
        <time>2011-02-19T13:40:42Z</time>
      </trkpt>
      <trkpt lat="45.47402" lon="5.77858">
        <ele>961</ele>
        <time>2011-02-19T13:40:46Z</time>
      </trkpt>
      <trkpt lat="45.47395" lon="5.77843">
        <ele>960</ele>
        <time>2011-02-19T13:40:48Z</time>
      </trkpt>
      <trkpt lat="45.4739" lon="5.77815">
        <ele>956</ele>
        <time>2011-02-19T13:40:51Z</time>
      </trkpt>
      <trkpt lat="45.47387" lon="5.77793">
        <ele>955</ele>
        <time>2011-02-19T13:40:53Z</time>
      </trkpt>
      <trkpt lat="45.4737" lon="5.7777">
        <ele>951</ele>
        <time>2011-02-19T13:40:56Z</time>
      </trkpt>
      <trkpt lat="45.4735" lon="5.77756">
        <ele>948</ele>
        <time>2011-02-19T13:40:59Z</time>
      </trkpt>
      <trkpt lat="45.47339" lon="5.77751">
        <ele>946</ele>
        <time>2011-02-19T13:41:01Z</time>
      </trkpt>
      <trkpt lat="45.47311" lon="5.77753">
        <ele>947</ele>
        <time>2011-02-19T13:41:07Z</time>
      </trkpt>
      <trkpt lat="45.47311" lon="5.77753">
        <ele>948</ele>
        <time>2011-02-19T13:42:10Z</time>
      </trkpt>
      <trkpt lat="45.47313" lon="5.77751">
        <ele>950</ele>
        <time>2011-02-19T13:44:18Z</time>
      </trkpt>
      <trkpt lat="45.47314" lon="5.77752">
        <ele>951</ele>
        <time>2011-02-19T13:45:28Z</time>
      </trkpt>
      <trkpt lat="45.47316" lon="5.77736">
        <ele>949</ele>
        <time>2011-02-19T13:45:32Z</time>
      </trkpt>
      <trkpt lat="45.47326" lon="5.77702">
        <ele>945</ele>
        <time>2011-02-19T13:45:36Z</time>
      </trkpt>
      <trkpt lat="45.47333" lon="5.7768">
        <ele>942</ele>
        <time>2011-02-19T13:45:38Z</time>
      </trkpt>
      <trkpt lat="45.47336" lon="5.77669">
        <ele>940</ele>
        <time>2011-02-19T13:45:39Z</time>
      </trkpt>
      <trkpt lat="45.47357" lon="5.77639">
        <ele>937</ele>
        <time>2011-02-19T13:45:43Z</time>
      </trkpt>
      <trkpt lat="45.47361" lon="5.7762">
        <ele>933</ele>
        <time>2011-02-19T13:45:47Z</time>
      </trkpt>
      <trkpt lat="45.47356" lon="5.77616">
        <ele>931</ele>
        <time>2011-02-19T13:45:48Z</time>
      </trkpt>
      <trkpt lat="45.47337" lon="5.77606">
        <ele>925</ele>
        <time>2011-02-19T13:45:51Z</time>
      </trkpt>
      <trkpt lat="45.47306" lon="5.77597">
        <ele>919</ele>
        <time>2011-02-19T13:45:54Z</time>
      </trkpt>
      <trkpt lat="45.47281" lon="5.77591">
        <ele>915</ele>
        <time>2011-02-19T13:45:56Z</time>
      </trkpt>
      <trkpt lat="45.4723" lon="5.77617">
        <ele>908</ele>
        <time>2011-02-19T13:46:00Z</time>
      </trkpt>
      <trkpt lat="45.472" lon="5.77645">
        <ele>905</ele>
        <time>2011-02-19T13:46:03Z</time>
      </trkpt>
      <trkpt lat="45.47177" lon="5.77668">
        <ele>902</ele>
        <time>2011-02-19T13:46:06Z</time>
      </trkpt>
      <trkpt lat="45.47159" lon="5.77682">
        <ele>904</ele>
        <time>2011-02-19T13:46:13Z</time>
      </trkpt>
      <trkpt lat="45.47159" lon="5.77682">
        <ele>903</ele>
        <time>2011-02-19T13:46:24Z</time>
      </trkpt>
      <trkpt lat="45.47154" lon="5.77679">
        <ele>903</ele>
        <time>2011-02-19T13:46:39Z</time>
      </trkpt>
      <trkpt lat="45.47143" lon="5.77675">
        <ele>900</ele>
        <time>2011-02-19T13:46:44Z</time>
      </trkpt>
      <trkpt lat="45.4714" lon="5.77669">
        <ele>901</ele>
        <time>2011-02-19T13:46:54Z</time>
      </trkpt>
      <trkpt lat="45.47141" lon="5.77668">
        <ele>900</ele>
        <time>2011-02-19T13:47:07Z</time>
      </trkpt>
      <trkpt lat="45.47127" lon="5.77655">
        <ele>899</ele>
        <time>2011-02-19T13:47:18Z</time>
      </trkpt>
      <trkpt lat="45.47127" lon="5.77655">
        <ele>898</ele>
        <time>2011-02-19T13:48:18Z</time>
      </trkpt>
      <trkpt lat="45.47128" lon="5.77656">
        <ele>898</ele>
        <time>2011-02-19T13:52:30Z</time>
      </trkpt>
      <trkpt lat="45.47128" lon="5.77655">
        <ele>898</ele>
        <time>2011-02-19T13:53:08Z</time>
      </trkpt>
      <trkpt lat="45.47126" lon="5.77643">
        <ele>897</ele>
        <time>2011-02-19T13:53:12Z</time>
      </trkpt>
      <trkpt lat="45.47138" lon="5.77619">
        <ele>893</ele>
        <time>2011-02-19T13:53:16Z</time>
      </trkpt>
      <trkpt lat="45.47154" lon="5.7757">
        <ele>886</ele>
        <time>2011-02-19T13:53:21Z</time>
      </trkpt>
      <trkpt lat="45.47159" lon="5.77529">
        <ele>882</ele>
        <time>2011-02-19T13:53:24Z</time>
      </trkpt>
      <trkpt lat="45.47163" lon="5.77497">
        <ele>877</ele>
        <time>2011-02-19T13:53:26Z</time>
      </trkpt>
      <trkpt lat="45.47169" lon="5.77446">
        <ele>872</ele>
        <time>2011-02-19T13:53:29Z</time>
      </trkpt>
      <trkpt lat="45.47174" lon="5.77382">
        <ele>869</ele>
        <time>2011-02-19T13:53:33Z</time>
      </trkpt>
      <trkpt lat="45.47187" lon="5.77341">
        <ele>868</ele>
        <time>2011-02-19T13:53:37Z</time>
      </trkpt>
      <trkpt lat="45.47183" lon="5.77315">
        <ele>862</ele>
        <time>2011-02-19T13:53:40Z</time>
      </trkpt>
      <trkpt lat="45.47178" lon="5.77307">
        <ele>861</ele>
        <time>2011-02-19T13:53:41Z</time>
      </trkpt>
      <trkpt lat="45.47167" lon="5.77277">
        <ele>856</ele>
        <time>2011-02-19T13:53:44Z</time>
      </trkpt>
      <trkpt lat="45.47164" lon="5.77225">
        <ele>850</ele>
        <time>2011-02-19T13:53:48Z</time>
      </trkpt>
      <trkpt lat="45.47128" lon="5.77181">
        <ele>848</ele>
        <time>2011-02-19T13:53:53Z</time>
      </trkpt>
      <trkpt lat="45.47119" lon="5.77177">
        <ele>847</ele>
        <time>2011-02-19T13:53:54Z</time>
      </trkpt>
      <trkpt lat="45.4706" lon="5.77161">
        <ele>843</ele>
        <time>2011-02-19T13:54:00Z</time>
      </trkpt>
      <trkpt lat="45.47041" lon="5.77156">
        <ele>842</ele>
        <time>2011-02-19T13:54:02Z</time>
      </trkpt>
      <trkpt lat="45.47" lon="5.77147">
        <ele>837</ele>
        <time>2011-02-19T13:54:06Z</time>
      </trkpt>
      <trkpt lat="45.46967" lon="5.77133">
        <ele>832</ele>
        <time>2011-02-19T13:54:09Z</time>
      </trkpt>
      <trkpt lat="45.46944" lon="5.77122">
        <ele>829</ele>
        <time>2011-02-19T13:54:11Z</time>
      </trkpt>
      <trkpt lat="45.46921" lon="5.7711">
        <ele>825</ele>
        <time>2011-02-19T13:54:13Z</time>
      </trkpt>
      <trkpt lat="45.46884" lon="5.77067">
        <ele>818</ele>
        <time>2011-02-19T13:54:17Z</time>
      </trkpt>
      <trkpt lat="45.46858" lon="5.77038">
        <ele>811</ele>
        <time>2011-02-19T13:54:20Z</time>
      </trkpt>
      <trkpt lat="45.46815" lon="5.76986">
        <ele>807</ele>
        <time>2011-02-19T13:54:25Z</time>
      </trkpt>
      <trkpt lat="45.46783" lon="5.76947">
        <ele>808</ele>
        <time>2011-02-19T13:54:31Z</time>
      </trkpt>
      <trkpt lat="45.46761" lon="5.76933">
        <ele>804</ele>
        <time>2011-02-19T13:54:52Z</time>
      </trkpt>
      <trkpt lat="45.46749" lon="5.76923">
        <ele>801</ele>
        <time>2011-02-19T13:54:54Z</time>
      </trkpt>
      <trkpt lat="45.46716" lon="5.76906">
        <ele>797</ele>
        <time>2011-02-19T13:54:58Z</time>
      </trkpt>
      <trkpt lat="45.46665" lon="5.76905">
        <ele>789</ele>
        <time>2011-02-19T13:55:03Z</time>
      </trkpt>
      <trkpt lat="45.46624" lon="5.76884">
        <ele>784</ele>
        <time>2011-02-19T13:55:07Z</time>
      </trkpt>
      <trkpt lat="45.46579" lon="5.76861">
        <ele>778</ele>
        <time>2011-02-19T13:55:11Z</time>
      </trkpt>
      <trkpt lat="45.46556" lon="5.7685">
        <ele>775</ele>
        <time>2011-02-19T13:55:13Z</time>
      </trkpt>
      <trkpt lat="45.4652" lon="5.76831">
        <ele>771</ele>
        <time>2011-02-19T13:55:16Z</time>
      </trkpt>
      <trkpt lat="45.46497" lon="5.76824">
        <ele>771</ele>
        <time>2011-02-19T13:55:18Z</time>
      </trkpt>
      <trkpt lat="45.46463" lon="5.76829">
        <ele>768</ele>
        <time>2011-02-19T13:55:22Z</time>
      </trkpt>
      <trkpt lat="45.46445" lon="5.7686">
        <ele>763</ele>
        <time>2011-02-19T13:55:25Z</time>
      </trkpt>
      <trkpt lat="45.46451" lon="5.76905">
        <ele>760</ele>
        <time>2011-02-19T13:55:28Z</time>
      </trkpt>
      <trkpt lat="45.46456" lon="5.76919">
        <ele>760</ele>
        <time>2011-02-19T13:55:29Z</time>
      </trkpt>
      <trkpt lat="45.46462" lon="5.76931">
        <ele>759</ele>
        <time>2011-02-19T13:55:30Z</time>
      </trkpt>
      <trkpt lat="45.46495" lon="5.76992">
        <ele>755</ele>
        <time>2011-02-19T13:55:35Z</time>
      </trkpt>
      <trkpt lat="45.46507" lon="5.77008">
        <ele>756</ele>
        <time>2011-02-19T13:55:37Z</time>
      </trkpt>
      <trkpt lat="45.46505" lon="5.77039">
        <ele>751</ele>
        <time>2011-02-19T13:55:42Z</time>
      </trkpt>
      <trkpt lat="45.46486" lon="5.77024">
        <ele>749</ele>
        <time>2011-02-19T13:55:45Z</time>
      </trkpt>
      <trkpt lat="45.46468" lon="5.76998">
        <ele>746</ele>
        <time>2011-02-19T13:55:48Z</time>
      </trkpt>
      <trkpt lat="45.46444" lon="5.76978">
        <ele>742</ele>
        <time>2011-02-19T13:55:51Z</time>
      </trkpt>
      <trkpt lat="45.46434" lon="5.76973">
        <ele>741</ele>
        <time>2011-02-19T13:55:52Z</time>
      </trkpt>
      <trkpt lat="45.46392" lon="5.76954">
        <ele>736</ele>
        <time>2011-02-19T13:55:56Z</time>
      </trkpt>
      <trkpt lat="45.4637" lon="5.76943">
        <ele>732</ele>
        <time>2011-02-19T13:55:58Z</time>
      </trkpt>
      <trkpt lat="45.46359" lon="5.76936">
        <ele>731</ele>
        <time>2011-02-19T13:55:59Z</time>
      </trkpt>
      <trkpt lat="45.46319" lon="5.76896">
        <ele>726</ele>
        <time>2011-02-19T13:56:03Z</time>
      </trkpt>
      <trkpt lat="45.46285" lon="5.76888">
        <ele>722</ele>
        <time>2011-02-19T13:56:06Z</time>
      </trkpt>
      <trkpt lat="45.4626" lon="5.7689">
        <ele>719</ele>
        <time>2011-02-19T13:56:08Z</time>
      </trkpt>
      <trkpt lat="45.46218" lon="5.76866">
        <ele>715</ele>
        <time>2011-02-19T13:56:12Z</time>
      </trkpt>
      <trkpt lat="45.46215" lon="5.7681">
        <ele>712</ele>
        <time>2011-02-19T13:56:16Z</time>
      </trkpt>
      <trkpt lat="45.46218" lon="5.76799">
        <ele>712</ele>
        <time>2011-02-19T13:56:17Z</time>
      </trkpt>
      <trkpt lat="45.46223" lon="5.76783">
        <ele>713</ele>
        <time>2011-02-19T13:56:19Z</time>
      </trkpt>
      <trkpt lat="45.462" lon="5.76787">
        <ele>710</ele>
        <time>2011-02-19T13:56:27Z</time>
      </trkpt>
      <trkpt lat="45.46184" lon="5.76792">
        <ele>707</ele>
        <time>2011-02-19T13:56:31Z</time>
      </trkpt>
      <trkpt lat="45.4618" lon="5.76794">
        <ele>706</ele>
        <time>2011-02-19T13:56:32Z</time>
      </trkpt>
      <trkpt lat="45.46143" lon="5.7681">
        <ele>703</ele>
        <time>2011-02-19T13:56:41Z</time>
      </trkpt>
      <trkpt lat="45.46121" lon="5.76823">
        <ele>700</ele>
        <time>2011-02-19T13:56:45Z</time>
      </trkpt>
      <trkpt lat="45.46111" lon="5.7683">
        <ele>699</ele>
        <time>2011-02-19T13:56:47Z</time>
      </trkpt>
      <trkpt lat="45.46091" lon="5.76833">
        <ele>697</ele>
        <time>2011-02-19T13:56:52Z</time>
      </trkpt>
      <trkpt lat="45.46068" lon="5.76826">
        <ele>692</ele>
        <time>2011-02-19T13:56:58Z</time>
      </trkpt>
      <trkpt lat="45.4605" lon="5.76816">
        <ele>688</ele>
        <time>2011-02-19T13:57:02Z</time>
      </trkpt>
      <trkpt lat="45.46034" lon="5.7681">
        <ele>685</ele>
        <time>2011-02-19T13:57:05Z</time>
      </trkpt>
      <trkpt lat="45.46017" lon="5.7681">
        <ele>681</ele>
        <time>2011-02-19T13:57:08Z</time>
      </trkpt>
      <trkpt lat="45.46" lon="5.76816">
        <ele>679</ele>
        <time>2011-02-19T13:57:17Z</time>
      </trkpt>
      <trkpt lat="45.46" lon="5.76816">
        <ele>679</ele>
        <time>2011-02-19T13:58:08Z</time>
      </trkpt>
      <trkpt lat="45.45998" lon="5.76816">
        <ele>678</ele>
        <time>2011-02-19T13:58:31Z</time>
      </trkpt>
      <trkpt lat="45.45998" lon="5.76817">
        <ele>679</ele>
        <time>2011-02-19T13:59:37Z</time>
      </trkpt>
      <trkpt lat="45.46" lon="5.76809">
        <ele>680</ele>
        <time>2011-02-19T14:00:03Z</time>
      </trkpt>
      <trkpt lat="45.46004" lon="5.76797">
        <ele>681</ele>
        <time>2011-02-19T14:00:17Z</time>
      </trkpt>
      <trkpt lat="45.46001" lon="5.76763">
        <ele>681</ele>
        <time>2011-02-19T14:00:28Z</time>
      </trkpt>
      <trkpt lat="45.46" lon="5.76756">
        <ele>680</ele>
        <time>2011-02-19T14:00:30Z</time>
      </trkpt>
      <trkpt lat="45.46008" lon="5.76733">
        <ele>678</ele>
        <time>2011-02-19T14:00:35Z</time>
      </trkpt>
      <trkpt lat="45.46004" lon="5.76711">
        <ele>674</ele>
        <time>2011-02-19T14:00:40Z</time>
      </trkpt>
      <trkpt lat="45.45997" lon="5.76685">
        <ele>670</ele>
        <time>2011-02-19T14:00:46Z</time>
      </trkpt>
      <trkpt lat="45.45996" lon="5.76667">
        <ele>666</ele>
        <time>2011-02-19T14:00:49Z</time>
      </trkpt>
      <trkpt lat="45.45997" lon="5.76659">
        <ele>666</ele>
        <time>2011-02-19T14:00:50Z</time>
      </trkpt>
      <trkpt lat="45.45994" lon="5.76635">
        <ele>661</ele>
        <time>2011-02-19T14:00:54Z</time>
      </trkpt>
      <trkpt lat="45.4599" lon="5.76628">
        <ele>660</ele>
        <time>2011-02-19T14:00:57Z</time>
      </trkpt>
      <trkpt lat="45.45987" lon="5.76605">
        <ele>655</ele>
        <time>2011-02-19T14:01:03Z</time>
      </trkpt>
      <trkpt lat="45.45987" lon="5.76602">
        <ele>655</ele>
        <time>2011-02-19T14:01:04Z</time>
      </trkpt>
      <trkpt lat="45.45984" lon="5.76589">
        <ele>653</ele>
        <time>2011-02-19T14:01:08Z</time>
      </trkpt>
      <trkpt lat="45.45985" lon="5.76587">
        <ele>653</ele>
        <time>2011-02-19T14:01:22Z</time>
      </trkpt>
      <trkpt lat="45.45985" lon="5.76587">
        <ele>653</ele>
        <time>2011-02-19T14:02:03Z</time>
      </trkpt>
      <trkpt lat="45.45979" lon="5.76572">
        <ele>649</ele>
        <time>2011-02-19T14:02:08Z</time>
      </trkpt>
      <trkpt lat="45.45978" lon="5.76566">
        <ele>648</ele>
        <time>2011-02-19T14:02:09Z</time>
      </trkpt>
      <trkpt lat="45.45976" lon="5.76544">
        <ele>645</ele>
        <time>2011-02-19T14:02:13Z</time>
      </trkpt>
      <trkpt lat="45.45968" lon="5.76524">
        <ele>641</ele>
        <time>2011-02-19T14:02:19Z</time>
      </trkpt>
      <trkpt lat="45.45963" lon="5.76518">
        <ele>640</ele>
        <time>2011-02-19T14:02:21Z</time>
      </trkpt>
      <trkpt lat="45.45943" lon="5.76514">
        <ele>636</ele>
        <time>2011-02-19T14:02:25Z</time>
      </trkpt>
      <trkpt lat="45.45922" lon="5.76515">
        <ele>634</ele>
        <time>2011-02-19T14:02:28Z</time>
      </trkpt>
      <trkpt lat="45.45904" lon="5.76514">
        <ele>631</ele>
        <time>2011-02-19T14:02:31Z</time>
      </trkpt>
      <trkpt lat="45.45875" lon="5.765">
        <ele>627</ele>
        <time>2011-02-19T14:02:36Z</time>
      </trkpt>
      <trkpt lat="45.45871" lon="5.76496">
        <ele>627</ele>
        <time>2011-02-19T14:02:37Z</time>
      </trkpt>
      <trkpt lat="45.45866" lon="5.76493">
        <ele>626</ele>
        <time>2011-02-19T14:02:38Z</time>
      </trkpt>
      <trkpt lat="45.45835" lon="5.76493">
        <ele>625</ele>
        <time>2011-02-19T14:02:43Z</time>
      </trkpt>
      <trkpt lat="45.45819" lon="5.76493">
        <ele>623</ele>
        <time>2011-02-19T14:02:46Z</time>
      </trkpt>
      <trkpt lat="45.45784" lon="5.76509">
        <ele>621</ele>
        <time>2011-02-19T14:02:53Z</time>
      </trkpt>
      <trkpt lat="45.45774" lon="5.76536">
        <ele>619</ele>
        <time>2011-02-19T14:02:58Z</time>
      </trkpt>
      <trkpt lat="45.45756" lon="5.76554">
        <ele>615</ele>
        <time>2011-02-19T14:03:03Z</time>
      </trkpt>
      <trkpt lat="45.45746" lon="5.76563">
        <ele>613</ele>
        <time>2011-02-19T14:03:06Z</time>
      </trkpt>
      <trkpt lat="45.45726" lon="5.76593">
        <ele>610</ele>
        <time>2011-02-19T14:03:11Z</time>
      </trkpt>
      <trkpt lat="45.45718" lon="5.76627">
        <ele>606</ele>
        <time>2011-02-19T14:03:17Z</time>
      </trkpt>
      <trkpt lat="45.45709" lon="5.76637">
        <ele>605</ele>
        <time>2011-02-19T14:03:27Z</time>
      </trkpt>
      <trkpt lat="45.45705" lon="5.76641">
        <ele>604</ele>
        <time>2011-02-19T14:03:29Z</time>
      </trkpt>
      <trkpt lat="45.45703" lon="5.76642">
        <ele>604</ele>
        <time>2011-02-19T14:03:46Z</time>
      </trkpt>
      <trkpt lat="45.457" lon="5.76646">
        <ele>603</ele>
        <time>2011-02-19T14:04:04Z</time>
      </trkpt>
      <trkpt lat="45.45685" lon="5.76645">
        <ele>598</ele>
        <time>2011-02-19T14:04:08Z</time>
      </trkpt>
      <trkpt lat="45.45673" lon="5.76643">
        <ele>595</ele>
        <time>2011-02-19T14:04:11Z</time>
      </trkpt>
      <trkpt lat="45.45658" lon="5.76644">
        <ele>590</ele>
        <time>2011-02-19T14:04:14Z</time>
      </trkpt>
      <trkpt lat="45.45651" lon="5.76644">
        <ele>588</ele>
        <time>2011-02-19T14:04:15Z</time>
      </trkpt>
      <trkpt lat="45.45637" lon="5.76641">
        <ele>585</ele>
        <time>2011-02-19T14:04:18Z</time>
      </trkpt>
      <trkpt lat="45.45615" lon="5.7663">
        <ele>581</ele>
        <time>2011-02-19T14:04:23Z</time>
      </trkpt>
      <trkpt lat="45.45601" lon="5.7662">
        <ele>578</ele>
        <time>2011-02-19T14:04:26Z</time>
      </trkpt>
      <trkpt lat="45.45592" lon="5.76608">
        <ele>577</ele>
        <time>2011-02-19T14:04:28Z</time>
      </trkpt>
      <trkpt lat="45.45584" lon="5.76596">
        <ele>577</ele>
        <time>2011-02-19T14:04:30Z</time>
      </trkpt>
      <trkpt lat="45.45572" lon="5.76559">
        <ele>576</ele>
        <time>2011-02-19T14:04:35Z</time>
      </trkpt>
      <trkpt lat="45.45567" lon="5.76548">
        <ele>576</ele>
        <time>2011-02-19T14:04:37Z</time>
      </trkpt>
      <trkpt lat="45.45553" lon="5.76521">
        <ele>575</ele>
        <time>2011-02-19T14:04:44Z</time>
      </trkpt>
      <trkpt lat="45.45537" lon="5.76517">
        <ele>572</ele>
        <time>2011-02-19T14:04:48Z</time>
      </trkpt>
      <trkpt lat="45.45519" lon="5.76502">
        <ele>570</ele>
        <time>2011-02-19T14:04:53Z</time>
      </trkpt>
      <trkpt lat="45.45512" lon="5.76489">
        <ele>569</ele>
        <time>2011-02-19T14:04:56Z</time>
      </trkpt>
      <trkpt lat="45.45513" lon="5.76464">
        <ele>568</ele>
        <time>2011-02-19T14:05:00Z</time>
      </trkpt>
      <trkpt lat="45.45513" lon="5.76457">
        <ele>568</ele>
        <time>2011-02-19T14:05:02Z</time>
      </trkpt>
      <trkpt lat="45.4551" lon="5.7645">
        <ele>568</ele>
        <time>2011-02-19T14:05:15Z</time>
      </trkpt>
      <trkpt lat="45.4551" lon="5.7645">
        <ele>568</ele>
        <time>2011-02-19T14:05:23Z</time>
      </trkpt>
      <trkpt lat="45.45513" lon="5.76442">
        <ele>568</ele>
        <time>2011-02-19T14:05:27Z</time>
      </trkpt>
      <trkpt lat="45.45527" lon="5.76414">
        <ele>564</ele>
        <time>2011-02-19T14:05:34Z</time>
      </trkpt>
      <trkpt lat="45.45531" lon="5.76404">
        <ele>563</ele>
        <time>2011-02-19T14:05:37Z</time>
      </trkpt>
      <trkpt lat="45.45536" lon="5.76391">
        <ele>559</ele>
        <time>2011-02-19T14:05:40Z</time>
      </trkpt>
      <trkpt lat="45.45542" lon="5.76374">
        <ele>556</ele>
        <time>2011-02-19T14:05:44Z</time>
      </trkpt>
      <trkpt lat="45.45545" lon="5.76367">
        <ele>555</ele>
        <time>2011-02-19T14:05:46Z</time>
      </trkpt>
      <trkpt lat="45.45543" lon="5.76362">
        <ele>555</ele>
        <time>2011-02-19T14:05:54Z</time>
      </trkpt>
      <trkpt lat="45.45532" lon="5.76361">
        <ele>557</ele>
        <time>2011-02-19T14:06:08Z</time>
      </trkpt>
      <trkpt lat="45.4553" lon="5.7636">
        <ele>558</ele>
        <time>2011-02-19T14:06:27Z</time>
      </trkpt>
      <trkpt lat="45.45523" lon="5.7636">
        <ele>559</ele>
        <time>2011-02-19T14:06:32Z</time>
      </trkpt>
      <trkpt lat="45.45501" lon="5.76357">
        <ele>562</ele>
        <time>2011-02-19T14:06:45Z</time>
      </trkpt>
      <trkpt lat="45.45474" lon="5.76349">
        <ele>561</ele>
        <time>2011-02-19T14:06:55Z</time>
      </trkpt>
      <trkpt lat="45.45468" lon="5.76349">
        <ele>563</ele>
        <time>2011-02-19T14:06:59Z</time>
      </trkpt>
      <trkpt lat="45.45455" lon="5.76351">
        <ele>566</ele>
        <time>2011-02-19T14:07:07Z</time>
      </trkpt>
      <trkpt lat="45.45445" lon="5.7635">
        <ele>568</ele>
        <time>2011-02-19T14:07:14Z</time>
      </trkpt>
      <trkpt lat="45.45438" lon="5.76351">
        <ele>570</ele>
        <time>2011-02-19T14:07:26Z</time>
      </trkpt>
      <trkpt lat="45.45423" lon="5.76347">
        <ele>568</ele>
        <time>2011-02-19T14:07:47Z</time>
      </trkpt>
      <trkpt lat="45.4541" lon="5.76347">
        <ele>571</ele>
        <time>2011-02-19T14:07:54Z</time>
      </trkpt>
      <trkpt lat="45.45401" lon="5.76346">
        <ele>571</ele>
        <time>2011-02-19T14:08:12Z</time>
      </trkpt>
      <trkpt lat="45.45401" lon="5.76346">
        <ele>571</ele>
        <time>2011-02-19T14:08:37Z</time>
      </trkpt>
      <trkpt lat="45.45401" lon="5.76347">
        <ele>571</ele>
        <time>2011-02-19T14:08:58Z</time>
      </trkpt>
      <trkpt lat="45.4539" lon="5.76338">
        <ele>569</ele>
        <time>2011-02-19T14:09:14Z</time>
      </trkpt>
      <trkpt lat="45.45385" lon="5.76332">
        <ele>569</ele>
        <time>2011-02-19T14:09:16Z</time>
      </trkpt>
      <trkpt lat="45.45374" lon="5.76326">
        <ele>568</ele>
        <time>2011-02-19T14:09:21Z</time>
      </trkpt>
      <trkpt lat="45.45358" lon="5.76315">
        <ele>564</ele>
        <time>2011-02-19T14:09:28Z</time>
      </trkpt>
      <trkpt lat="45.45346" lon="5.76305">
        <ele>562</ele>
        <time>2011-02-19T14:09:31Z</time>
      </trkpt>
      <trkpt lat="45.45337" lon="5.763">
        <ele>561</ele>
        <time>2011-02-19T14:09:33Z</time>
      </trkpt>
      <trkpt lat="45.45322" lon="5.76298">
        <ele>561</ele>
        <time>2011-02-19T14:09:39Z</time>
      </trkpt>
      <trkpt lat="45.45315" lon="5.76297">
        <ele>561</ele>
        <time>2011-02-19T14:09:41Z</time>
      </trkpt>
      <trkpt lat="45.45303" lon="5.76296">
        <ele>560</ele>
        <time>2011-02-19T14:09:45Z</time>
      </trkpt>
      <trkpt lat="45.4528" lon="5.76302">
        <ele>560</ele>
        <time>2011-02-19T14:09:53Z</time>
      </trkpt>
      <trkpt lat="45.45264" lon="5.76295">
        <ele>558</ele>
        <time>2011-02-19T14:09:58Z</time>
      </trkpt>
      <trkpt lat="45.4525" lon="5.76278">
        <ele>553</ele>
        <time>2011-02-19T14:10:02Z</time>
      </trkpt>
      <trkpt lat="45.45245" lon="5.76274">
        <ele>552</ele>
        <time>2011-02-19T14:10:03Z</time>
      </trkpt>
      <trkpt lat="45.45228" lon="5.76245">
        <ele>550</ele>
        <time>2011-02-19T14:10:10Z</time>
      </trkpt>
      <trkpt lat="45.45218" lon="5.76243">
        <ele>547</ele>
        <time>2011-02-19T14:10:21Z</time>
      </trkpt>
      <trkpt lat="45.45214" lon="5.76244">
        <ele>546</ele>
        <time>2011-02-19T14:10:31Z</time>
      </trkpt>
      <trkpt lat="45.45213" lon="5.76242">
        <ele>545</ele>
        <time>2011-02-19T14:10:33Z</time>
      </trkpt>
      <trkpt lat="45.45208" lon="5.76232">
        <ele>542</ele>
        <time>2011-02-19T14:10:43Z</time>
      </trkpt>
      <trkpt lat="45.45205" lon="5.76225">
        <ele>540</ele>
        <time>2011-02-19T14:10:45Z</time>
      </trkpt>
      <trkpt lat="45.45186" lon="5.7621">
        <ele>538</ele>
        <time>2011-02-19T14:10:50Z</time>
      </trkpt>
      <trkpt lat="45.45175" lon="5.76211">
        <ele>538</ele>
        <time>2011-02-19T14:10:55Z</time>
      </trkpt>
      <trkpt lat="45.45165" lon="5.7622">
        <ele>538</ele>
        <time>2011-02-19T14:11:04Z</time>
      </trkpt>
      <trkpt lat="45.45156" lon="5.76215">
        <ele>537</ele>
        <time>2011-02-19T14:11:07Z</time>
      </trkpt>
      <trkpt lat="45.45133" lon="5.76204">
        <ele>532</ele>
        <time>2011-02-19T14:11:12Z</time>
      </trkpt>
      <trkpt lat="45.45123" lon="5.76179">
        <ele>526</ele>
        <time>2011-02-19T14:11:15Z</time>
      </trkpt>
      <trkpt lat="45.45118" lon="5.7616">
        <ele>525</ele>
        <time>2011-02-19T14:11:17Z</time>
      </trkpt>
      <trkpt lat="45.45124" lon="5.76127">
        <ele>520</ele>
        <time>2011-02-19T14:11:22Z</time>
      </trkpt>
      <trkpt lat="45.4512" lon="5.76123">
        <ele>520</ele>
        <time>2011-02-19T14:11:23Z</time>
      </trkpt>
      <trkpt lat="45.45112" lon="5.76109">
        <ele>518</ele>
        <time>2011-02-19T14:11:33Z</time>
      </trkpt>
      <trkpt lat="45.45106" lon="5.76118">
        <ele>521</ele>
        <time>2011-02-19T14:11:43Z</time>
      </trkpt>
      <trkpt lat="45.45105" lon="5.76117">
        <ele>522</ele>
        <time>2011-02-19T14:11:57Z</time>
      </trkpt>
      <trkpt lat="45.45101" lon="5.7612">
        <ele>524</ele>
        <time>2011-02-19T14:12:17Z</time>
      </trkpt>
      <trkpt lat="45.45092" lon="5.7613">
        <ele>527</ele>
        <time>2011-02-19T14:12:33Z</time>
      </trkpt>
      <trkpt lat="45.45075" lon="5.76139">
        <ele>529</ele>
        <time>2011-02-19T14:12:46Z</time>
      </trkpt>
      <trkpt lat="45.45055" lon="5.76151">
        <ele>532</ele>
        <time>2011-02-19T14:12:59Z</time>
      </trkpt>
      <trkpt lat="45.45053" lon="5.76153">
        <ele>532</ele>
        <time>2011-02-19T14:13:01Z</time>
      </trkpt>
      <trkpt lat="45.4505" lon="5.76157">
        <ele>533</ele>
        <time>2011-02-19T14:13:04Z</time>
      </trkpt>
      <trkpt lat="45.45035" lon="5.76164">
        <ele>535</ele>
        <time>2011-02-19T14:13:14Z</time>
      </trkpt>
      <trkpt lat="45.4503" lon="5.76169">
        <ele>534</ele>
        <time>2011-02-19T14:13:16Z</time>
      </trkpt>
      <trkpt lat="45.45029" lon="5.76174">
        <ele>535</ele>
        <time>2011-02-19T14:13:19Z</time>
      </trkpt>
      <trkpt lat="45.45019" lon="5.76182">
        <ele>535</ele>
        <time>2011-02-19T14:13:29Z</time>
      </trkpt>
      <trkpt lat="45.45008" lon="5.76183">
        <ele>535</ele>
        <time>2011-02-19T14:14:08Z</time>
      </trkpt>
      <trkpt lat="45.45005" lon="5.76184">
        <ele>535</ele>
        <time>2011-02-19T14:14:39Z</time>
      </trkpt>
      <trkpt lat="45.44988" lon="5.76189">
        <ele>537</ele>
        <time>2011-02-19T14:14:49Z</time>
      </trkpt>
      <trkpt lat="45.44967" lon="5.76205">
        <ele>539</ele>
        <time>2011-02-19T14:15:01Z</time>
      </trkpt>
      <trkpt lat="45.44961" lon="5.76206">
        <ele>539</ele>
        <time>2011-02-19T14:15:05Z</time>
      </trkpt>
      <trkpt lat="45.44958" lon="5.76214">
        <ele>540</ele>
        <time>2011-02-19T14:15:09Z</time>
      </trkpt>
      <trkpt lat="45.44952" lon="5.76224">
        <ele>539</ele>
        <time>2011-02-19T14:15:13Z</time>
      </trkpt>
      <trkpt lat="45.44942" lon="5.76222">
        <ele>538</ele>
        <time>2011-02-19T14:15:19Z</time>
      </trkpt>
      <trkpt lat="45.44938" lon="5.76223">
        <ele>538</ele>
        <time>2011-02-19T14:15:33Z</time>
      </trkpt>
      <trkpt lat="45.44937" lon="5.76223">
        <ele>538</ele>
        <time>2011-02-19T14:17:00Z</time>
      </trkpt>
      <trkpt lat="45.44937" lon="5.76223">
        <ele>538</ele>
        <time>2011-02-19T14:17:41Z</time>
      </trkpt>
      <trkpt lat="45.44928" lon="5.76221">
        <ele>536</ele>
        <time>2011-02-19T14:17:46Z</time>
      </trkpt>
      <trkpt lat="45.44924" lon="5.76216">
        <ele>535</ele>
        <time>2011-02-19T14:17:48Z</time>
      </trkpt>
      <trkpt lat="45.44921" lon="5.76215">
        <ele>535</ele>
        <time>2011-02-19T14:17:56Z</time>
      </trkpt>
      <trkpt lat="45.44909" lon="5.76209">
        <ele>537</ele>
        <time>2011-02-19T14:18:09Z</time>
      </trkpt>
      <trkpt lat="45.449" lon="5.76202">
        <ele>538</ele>
        <time>2011-02-19T14:18:22Z</time>
      </trkpt>
      <trkpt lat="45.44897" lon="5.76197">
        <ele>538</ele>
        <time>2011-02-19T14:18:25Z</time>
      </trkpt>
      <trkpt lat="45.44893" lon="5.76194">
        <ele>538</ele>
        <time>2011-02-19T14:18:28Z</time>
      </trkpt>
      <trkpt lat="45.44884" lon="5.76189">
        <ele>537</ele>
        <time>2011-02-19T14:18:33Z</time>
      </trkpt>
      <trkpt lat="45.44881" lon="5.7618">
        <ele>536</ele>
        <time>2011-02-19T14:18:40Z</time>
      </trkpt>
      <trkpt lat="45.44883" lon="5.76172">
        <ele>535</ele>
        <time>2011-02-19T14:18:44Z</time>
      </trkpt>
      <trkpt lat="45.4489" lon="5.76156">
        <ele>534</ele>
        <time>2011-02-19T14:18:50Z</time>
      </trkpt>
      <trkpt lat="45.44889" lon="5.76144">
        <ele>534</ele>
        <time>2011-02-19T14:18:57Z</time>
      </trkpt>
      <trkpt lat="45.44885" lon="5.76137">
        <ele>535</ele>
        <time>2011-02-19T14:19:03Z</time>
      </trkpt>
      <trkpt lat="45.44879" lon="5.76128">
        <ele>537</ele>
        <time>2011-02-19T14:19:14Z</time>
      </trkpt>
      <trkpt lat="45.44879" lon="5.76124">
        <ele>537</ele>
        <time>2011-02-19T14:19:17Z</time>
      </trkpt>
      <trkpt lat="45.44875" lon="5.76123">
        <ele>537</ele>
        <time>2011-02-19T14:19:21Z</time>
      </trkpt>
      <trkpt lat="45.44871" lon="5.76121">
        <ele>536</ele>
        <time>2011-02-19T14:19:23Z</time>
      </trkpt>
      <trkpt lat="45.44862" lon="5.76123">
        <ele>536</ele>
        <time>2011-02-19T14:19:28Z</time>
      </trkpt>
      <trkpt lat="45.44852" lon="5.76144">
        <ele>539</ele>
        <time>2011-02-19T14:19:39Z</time>
      </trkpt>
      <trkpt lat="45.4485" lon="5.76147">
        <ele>540</ele>
        <time>2011-02-19T14:19:41Z</time>
      </trkpt>
      <trkpt lat="45.44851" lon="5.76158">
        <ele>541</ele>
        <time>2011-02-19T14:19:46Z</time>
      </trkpt>
      <trkpt lat="45.44855" lon="5.76158">
        <ele>541</ele>
        <time>2011-02-19T14:20:02Z</time>
      </trkpt>
      <trkpt lat="45.44854" lon="5.76158">
        <ele>540</ele>
        <time>2011-02-19T14:27:11Z</time>
      </trkpt>
      <trkpt lat="45.44851" lon="5.76155">
        <ele>539</ele>
        <time>2011-02-19T14:27:13Z</time>
      </trkpt>
      <trkpt lat="45.44853" lon="5.7614">
        <ele>537</ele>
        <time>2011-02-19T14:27:17Z</time>
      </trkpt>
      <trkpt lat="45.44859" lon="5.7613">
        <ele>535</ele>
        <time>2011-02-19T14:27:19Z</time>
      </trkpt>
      <trkpt lat="45.44857" lon="5.7611">
        <ele>531</ele>
        <time>2011-02-19T14:27:23Z</time>
      </trkpt>
      <trkpt lat="45.44854" lon="5.76105">
        <ele>531</ele>
        <time>2011-02-19T14:27:24Z</time>
      </trkpt>
      <trkpt lat="45.44838" lon="5.76101">
        <ele>529</ele>
        <time>2011-02-19T14:27:28Z</time>
      </trkpt>
      <trkpt lat="45.44823" lon="5.7611">
        <ele>526</ele>
        <time>2011-02-19T14:27:32Z</time>
      </trkpt>
      <trkpt lat="45.44816" lon="5.76112">
        <ele>525</ele>
        <time>2011-02-19T14:27:34Z</time>
      </trkpt>
      <trkpt lat="45.44801" lon="5.7611">
        <ele>523</ele>
        <time>2011-02-19T14:27:44Z</time>
      </trkpt>
      <trkpt lat="45.448" lon="5.76109">
        <ele>523</ele>
        <time>2011-02-19T14:28:00Z</time>
      </trkpt>
      <trkpt lat="45.44792" lon="5.76101">
        <ele>522</ele>
        <time>2011-02-19T14:28:05Z</time>
      </trkpt>
      <trkpt lat="45.44789" lon="5.76096">
        <ele>521</ele>
        <time>2011-02-19T14:28:07Z</time>
      </trkpt>
      <trkpt lat="45.44786" lon="5.7609">
        <ele>519</ele>
        <time>2011-02-19T14:28:19Z</time>
      </trkpt>
      <trkpt lat="45.44786" lon="5.76092">
        <ele>519</ele>
        <time>2011-02-19T14:28:25Z</time>
      </trkpt>
      <trkpt lat="45.44784" lon="5.761">
        <ele>516</ele>
        <time>2011-02-19T14:28:37Z</time>
      </trkpt>
      <trkpt lat="45.44781" lon="5.76103">
        <ele>514</ele>
        <time>2011-02-19T14:28:52Z</time>
      </trkpt>
      <trkpt lat="45.44778" lon="5.76103">
        <ele>512</ele>
        <time>2011-02-19T14:29:11Z</time>
      </trkpt>
      <trkpt lat="45.44775" lon="5.761">
        <ele>512</ele>
        <time>2011-02-19T14:29:44Z</time>
      </trkpt>
      <trkpt lat="45.44768" lon="5.76102">
        <ele>510</ele>
        <time>2011-02-19T14:29:48Z</time>
      </trkpt>
      <trkpt lat="45.44765" lon="5.76103">
        <ele>510</ele>
        <time>2011-02-19T14:29:50Z</time>
      </trkpt>
      <trkpt lat="45.44763" lon="5.76102">
        <ele>509</ele>
        <time>2011-02-19T14:29:52Z</time>
      </trkpt>
      <trkpt lat="45.44763" lon="5.76098">
        <ele>508</ele>
        <time>2011-02-19T14:29:54Z</time>
      </trkpt>
      <trkpt lat="45.44763" lon="5.7609">
        <ele>507</ele>
        <time>2011-02-19T14:29:58Z</time>
      </trkpt>
      <trkpt lat="45.44764" lon="5.76085">
        <ele>506</ele>
        <time>2011-02-19T14:30:00Z</time>
      </trkpt>
      <trkpt lat="45.44765" lon="5.76082">
        <ele>506</ele>
        <time>2011-02-19T14:30:01Z</time>
      </trkpt>
      <trkpt lat="45.44756" lon="5.76065">
        <ele>502</ele>
        <time>2011-02-19T14:30:06Z</time>
      </trkpt>
      <trkpt lat="45.44752" lon="5.76054">
        <ele>500</ele>
        <time>2011-02-19T14:30:08Z</time>
      </trkpt>
      <trkpt lat="45.44746" lon="5.76037">
        <ele>497</ele>
        <time>2011-02-19T14:30:11Z</time>
      </trkpt>
      <trkpt lat="45.44738" lon="5.76009">
        <ele>492</ele>
        <time>2011-02-19T14:30:15Z</time>
      </trkpt>
      <trkpt lat="45.44735" lon="5.75997">
        <ele>491</ele>
        <time>2011-02-19T14:30:17Z</time>
      </trkpt>
      <trkpt lat="45.44734" lon="5.75978">
        <ele>488</ele>
        <time>2011-02-19T14:30:27Z</time>
      </trkpt>
      <trkpt lat="45.44734" lon="5.75977">
        <ele>488</ele>
        <time>2011-02-19T14:31:07Z</time>
      </trkpt>
      <trkpt lat="45.44728" lon="5.75974">
        <ele>486</ele>
        <time>2011-02-19T14:31:19Z</time>
      </trkpt>
      <trkpt lat="45.44728" lon="5.75975">
        <ele>486</ele>
        <time>2011-02-19T14:31:35Z</time>
      </trkpt>
      <trkpt lat="45.4472" lon="5.75985">
        <ele>482</ele>
        <time>2011-02-19T14:31:41Z</time>
      </trkpt>
      <trkpt lat="45.44715" lon="5.75987">
        <ele>481</ele>
        <time>2011-02-19T14:31:44Z</time>
      </trkpt>
      <trkpt lat="45.44712" lon="5.75992">
        <ele>480</ele>
        <time>2011-02-19T14:31:46Z</time>
      </trkpt>
      <trkpt lat="45.44702" lon="5.76014">
        <ele>477</ele>
        <time>2011-02-19T14:31:52Z</time>
      </trkpt>
      <trkpt lat="45.4469" lon="5.76043">
        <ele>474</ele>
        <time>2011-02-19T14:31:57Z</time>
      </trkpt>
      <trkpt lat="45.4468" lon="5.76067">
        <ele>471</ele>
        <time>2011-02-19T14:32:01Z</time>
      </trkpt>
      <trkpt lat="45.44678" lon="5.76069">
        <ele>471</ele>
        <time>2011-02-19T14:32:02Z</time>
      </trkpt>
      <trkpt lat="45.4467" lon="5.76079">
        <ele>471</ele>
        <time>2011-02-19T14:32:07Z</time>
      </trkpt>
      <trkpt lat="45.44661" lon="5.76085">
        <ele>473</ele>
        <time>2011-02-19T14:32:19Z</time>
      </trkpt>
      <trkpt lat="45.44654" lon="5.76084">
        <ele>476</ele>
        <time>2011-02-19T14:32:30Z</time>
      </trkpt>
      <trkpt lat="45.44649" lon="5.76083">
        <ele>479</ele>
        <time>2011-02-19T14:32:41Z</time>
      </trkpt>
      <trkpt lat="45.44638" lon="5.76077">
        <ele>482</ele>
        <time>2011-02-19T14:32:53Z</time>
      </trkpt>
      <trkpt lat="45.44634" lon="5.76076">
        <ele>483</ele>
        <time>2011-02-19T14:33:03Z</time>
      </trkpt>
      <trkpt lat="45.44623" lon="5.76072">
        <ele>484</ele>
        <time>2011-02-19T14:33:11Z</time>
      </trkpt>
      <trkpt lat="45.44605" lon="5.7606">
        <ele>486</ele>
        <time>2011-02-19T14:33:28Z</time>
      </trkpt>
      <trkpt lat="45.44592" lon="5.76051">
        <ele>487</ele>
        <time>2011-02-19T14:33:39Z</time>
      </trkpt>
      <trkpt lat="45.44578" lon="5.76039">
        <ele>488</ele>
        <time>2011-02-19T14:33:50Z</time>
      </trkpt>
      <trkpt lat="45.4456" lon="5.7602">
        <ele>492</ele>
        <time>2011-02-19T14:34:06Z</time>
      </trkpt>
      <trkpt lat="45.44552" lon="5.7601">
        <ele>494</ele>
        <time>2011-02-19T14:34:12Z</time>
      </trkpt>
      <trkpt lat="45.44548" lon="5.76006">
        <ele>494</ele>
        <time>2011-02-19T14:34:15Z</time>
      </trkpt>
      <trkpt lat="45.44554" lon="5.76001">
        <ele>494</ele>
        <time>2011-02-19T14:34:34Z</time>
      </trkpt>
      <trkpt lat="45.44552" lon="5.76">
        <ele>495</ele>
        <time>2011-02-19T14:35:11Z</time>
      </trkpt>
      <trkpt lat="45.44547" lon="5.75993">
        <ele>495</ele>
        <time>2011-02-19T14:35:15Z</time>
      </trkpt>
      <trkpt lat="45.44534" lon="5.75956">
        <ele>493</ele>
        <time>2011-02-19T14:35:27Z</time>
      </trkpt>
      <trkpt lat="45.44517" lon="5.75938">
        <ele>493</ele>
        <time>2011-02-19T14:35:34Z</time>
      </trkpt>
      <trkpt lat="45.44493" lon="5.75926">
        <ele>494</ele>
        <time>2011-02-19T14:35:46Z</time>
      </trkpt>
      <trkpt lat="45.44482" lon="5.75916">
        <ele>492</ele>
        <time>2011-02-19T14:35:51Z</time>
      </trkpt>
      <trkpt lat="45.44453" lon="5.75912">
        <ele>488</ele>
        <time>2011-02-19T14:35:57Z</time>
      </trkpt>
      <trkpt lat="45.44443" lon="5.75913">
        <ele>488</ele>
        <time>2011-02-19T14:35:59Z</time>
      </trkpt>
      <trkpt lat="45.44421" lon="5.75919">
        <ele>485</ele>
        <time>2011-02-19T14:36:04Z</time>
      </trkpt>
      <trkpt lat="45.44416" lon="5.75919">
        <ele>485</ele>
        <time>2011-02-19T14:36:05Z</time>
      </trkpt>
      <trkpt lat="45.44387" lon="5.75913">
        <ele>485</ele>
        <time>2011-02-19T14:36:14Z</time>
      </trkpt>
      <trkpt lat="45.44365" lon="5.75881">
        <ele>482</ele>
        <time>2011-02-19T14:36:24Z</time>
      </trkpt>
      <trkpt lat="45.44361" lon="5.75866">
        <ele>478</ele>
        <time>2011-02-19T14:36:26Z</time>
      </trkpt>
      <trkpt lat="45.44345" lon="5.75845">
        <ele>477</ele>
        <time>2011-02-19T14:36:31Z</time>
      </trkpt>
      <trkpt lat="45.44333" lon="5.75846">
        <ele>476</ele>
        <time>2011-02-19T14:36:34Z</time>
      </trkpt>
      <trkpt lat="45.44312" lon="5.75844">
        <ele>472</ele>
        <time>2011-02-19T14:36:38Z</time>
      </trkpt>
      <trkpt lat="45.44283" lon="5.75829">
        <ele>467</ele>
        <time>2011-02-19T14:36:45Z</time>
      </trkpt>
      <trkpt lat="45.44274" lon="5.7582">
        <ele>466</ele>
        <time>2011-02-19T14:36:47Z</time>
      </trkpt>
      <trkpt lat="45.44271" lon="5.75811">
        <ele>467</ele>
        <time>2011-02-19T14:36:54Z</time>
      </trkpt>
      <trkpt lat="45.44264" lon="5.75783">
        <ele>464</ele>
        <time>2011-02-19T14:37:03Z</time>
      </trkpt>
      <trkpt lat="45.44263" lon="5.75777">
        <ele>463</ele>
        <time>2011-02-19T14:37:04Z</time>
      </trkpt>
      <trkpt lat="45.4426" lon="5.75732">
        <ele>461</ele>
        <time>2011-02-19T14:37:10Z</time>
      </trkpt>
      <trkpt lat="45.44248" lon="5.75704">
        <ele>456</ele>
        <time>2011-02-19T14:37:15Z</time>
      </trkpt>
      <trkpt lat="45.44244" lon="5.75693">
        <ele>456</ele>
        <time>2011-02-19T14:37:17Z</time>
      </trkpt>
      <trkpt lat="45.44235" lon="5.75676">
        <ele>453</ele>
        <time>2011-02-19T14:37:20Z</time>
      </trkpt>
      <trkpt lat="45.44226" lon="5.75645">
        <ele>448</ele>
        <time>2011-02-19T14:37:26Z</time>
      </trkpt>
      <trkpt lat="45.44221" lon="5.75643">
        <ele>448</ele>
        <time>2011-02-19T14:37:27Z</time>
      </trkpt>
      <trkpt lat="45.44213" lon="5.75631">
        <ele>446</ele>
        <time>2011-02-19T14:37:32Z</time>
      </trkpt>
      <trkpt lat="45.44207" lon="5.75615">
        <ele>445</ele>
        <time>2011-02-19T14:37:35Z</time>
      </trkpt>
      <trkpt lat="45.44196" lon="5.75575">
        <ele>445</ele>
        <time>2011-02-19T14:37:46Z</time>
      </trkpt>
      <trkpt lat="45.44189" lon="5.75571">
        <ele>446</ele>
        <time>2011-02-19T14:37:57Z</time>
      </trkpt>
      <trkpt lat="45.44189" lon="5.75572">
        <ele>446</ele>
        <time>2011-02-19T14:38:12Z</time>
      </trkpt>
      <trkpt lat="45.44165" lon="5.75566">
        <ele>445</ele>
        <time>2011-02-19T14:38:23Z</time>
      </trkpt>
      <trkpt lat="45.44158" lon="5.75567">
        <ele>444</ele>
        <time>2011-02-19T14:38:25Z</time>
      </trkpt>
      <trkpt lat="45.44138" lon="5.75569">
        <ele>441</ele>
        <time>2011-02-19T14:38:29Z</time>
      </trkpt>
      <trkpt lat="45.44122" lon="5.75559">
        <ele>439</ele>
        <time>2011-02-19T14:38:32Z</time>
      </trkpt>
      <trkpt lat="45.44094" lon="5.75555">
        <ele>439</ele>
        <time>2011-02-19T14:38:37Z</time>
      </trkpt>
      <trkpt lat="45.44057" lon="5.7557">
        <ele>438</ele>
        <time>2011-02-19T14:38:47Z</time>
      </trkpt>
      <trkpt lat="45.44057" lon="5.75571">
        <ele>438</ele>
        <time>2011-02-19T14:39:19Z</time>
      </trkpt>
      <trkpt lat="45.44044" lon="5.75575">
        <ele>437</ele>
        <time>2011-02-19T14:39:24Z</time>
      </trkpt>
      <trkpt lat="45.43998" lon="5.75602">
        <ele>436</ele>
        <time>2011-02-19T14:39:37Z</time>
      </trkpt>
      <trkpt lat="45.43971" lon="5.756">
        <ele>432</ele>
        <time>2011-02-19T14:39:42Z</time>
      </trkpt>
      <trkpt lat="45.43965" lon="5.75599">
        <ele>432</ele>
        <time>2011-02-19T14:39:43Z</time>
      </trkpt>
      <trkpt lat="45.43938" lon="5.75606">
        <ele>429</ele>
        <time>2011-02-19T14:39:47Z</time>
      </trkpt>
      <trkpt lat="45.43927" lon="5.7561">
        <ele>429</ele>
        <time>2011-02-19T14:39:49Z</time>
      </trkpt>
      <trkpt lat="45.4392" lon="5.7561">
        <ele>429</ele>
        <time>2011-02-19T14:39:51Z</time>
      </trkpt>
      <trkpt lat="45.43917" lon="5.75611">
        <ele>429</ele>
        <time>2011-02-19T14:40:04Z</time>
      </trkpt>
      <trkpt lat="45.43917" lon="5.75611">
        <ele>429</ele>
        <time>2011-02-19T14:40:12Z</time>
      </trkpt>
      <trkpt lat="45.43915" lon="5.75629">
        <ele>426</ele>
        <time>2011-02-19T14:40:17Z</time>
      </trkpt>
      <trkpt lat="45.43911" lon="5.75634">
        <ele>425</ele>
        <time>2011-02-19T14:40:18Z</time>
      </trkpt>
      <trkpt lat="45.43901" lon="5.75646">
        <ele>421</ele>
        <time>2011-02-19T14:40:20Z</time>
      </trkpt>
      <trkpt lat="45.4389" lon="5.75677">
        <ele>416</ele>
        <time>2011-02-19T14:40:25Z</time>
      </trkpt>
      <trkpt lat="45.43895" lon="5.75698">
        <ele>414</ele>
        <time>2011-02-19T14:40:28Z</time>
      </trkpt>
      <trkpt lat="45.4391" lon="5.7572">
        <ele>410</ele>
        <time>2011-02-19T14:40:32Z</time>
      </trkpt>
      <trkpt lat="45.43921" lon="5.75733">
        <ele>406</ele>
        <time>2011-02-19T14:40:34Z</time>
      </trkpt>
      <trkpt lat="45.43941" lon="5.75757">
        <ele>404</ele>
        <time>2011-02-19T14:40:38Z</time>
      </trkpt>
      <trkpt lat="45.43948" lon="5.75768">
        <ele>405</ele>
        <time>2011-02-19T14:40:41Z</time>
      </trkpt>
      <trkpt lat="45.43957" lon="5.75782">
        <ele>402</ele>
        <time>2011-02-19T14:40:45Z</time>
      </trkpt>
      <trkpt lat="45.43956" lon="5.75791">
        <ele>402</ele>
        <time>2011-02-19T14:40:50Z</time>
      </trkpt>
      <trkpt lat="45.43901" lon="5.75738">
        <ele>401</ele>
        <time>2011-02-19T14:41:09Z</time>
      </trkpt>
      <trkpt lat="45.43898" lon="5.75736">
        <ele>401</ele>
        <time>2011-02-19T14:41:10Z</time>
      </trkpt>
      <trkpt lat="45.43876" lon="5.75726">
        <ele>401</ele>
        <time>2011-02-19T14:41:16Z</time>
      </trkpt>
      <trkpt lat="45.43863" lon="5.75733">
        <ele>400</ele>
        <time>2011-02-19T14:41:20Z</time>
      </trkpt>
      <trkpt lat="45.43857" lon="5.75761">
        <ele>398</ele>
        <time>2011-02-19T14:41:24Z</time>
      </trkpt>
      <trkpt lat="45.43857" lon="5.75791">
        <ele>398</ele>
        <time>2011-02-19T14:41:28Z</time>
      </trkpt>
      <trkpt lat="45.43869" lon="5.75834">
        <ele>400</ele>
        <time>2011-02-19T14:41:37Z</time>
      </trkpt>
      <trkpt lat="45.4387" lon="5.75841">
        <ele>400</ele>
        <time>2011-02-19T14:41:39Z</time>
      </trkpt>
      <trkpt lat="45.43869" lon="5.75832">
        <ele>400</ele>
        <time>2011-02-19T14:41:46Z</time>
      </trkpt>
      <trkpt lat="45.43865" lon="5.75826">
        <ele>400</ele>
        <time>2011-02-19T14:41:53Z</time>
      </trkpt>
      <trkpt lat="45.43878" lon="5.75867">
        <ele>400</ele>
        <time>2011-02-19T14:42:04Z</time>
      </trkpt>
      <trkpt lat="45.43905" lon="5.75952">
        <ele>400</ele>
        <time>2011-02-19T14:42:18Z</time>
      </trkpt>
      <trkpt lat="45.43914" lon="5.75979">
        <ele>400</ele>
        <time>2011-02-19T14:42:22Z</time>
      </trkpt>
      <trkpt lat="45.43942" lon="5.76029">
        <ele>400</ele>
        <time>2011-02-19T14:42:32Z</time>
      </trkpt>
      <trkpt lat="45.4397" lon="5.76069">
        <ele>400</ele>
        <time>2011-02-19T14:42:41Z</time>
      </trkpt>
      <trkpt lat="45.43981" lon="5.76083">
        <ele>400</ele>
        <time>2011-02-19T14:42:44Z</time>
      </trkpt>
      <trkpt lat="45.44058" lon="5.762">
        <ele>401</ele>
        <time>2011-02-19T14:43:06Z</time>
      </trkpt>
      <trkpt lat="45.44134" lon="5.76315">
        <ele>403</ele>
        <time>2011-02-19T14:43:29Z</time>
      </trkpt>
      <trkpt lat="45.44176" lon="5.76376">
        <ele>405</ele>
        <time>2011-02-19T14:43:42Z</time>
      </trkpt>
      <trkpt lat="45.44199" lon="5.76421">
        <ele>401</ele>
        <time>2011-02-19T14:43:50Z</time>
      </trkpt>
      <trkpt lat="45.44216" lon="5.76443">
        <ele>399</ele>
        <time>2011-02-19T14:43:53Z</time>
      </trkpt>
      <trkpt lat="45.44243" lon="5.76475">
        <ele>402</ele>
        <time>2011-02-19T14:43:59Z</time>
      </trkpt>
      <trkpt lat="45.44246" lon="5.76479">
        <ele>402</ele>
        <time>2011-02-19T14:44:00Z</time>
      </trkpt>
      <trkpt lat="45.4427" lon="5.76502">
        <ele>406</ele>
        <time>2011-02-19T14:44:11Z</time>
      </trkpt>
      <trkpt lat="45.44279" lon="5.76508">
        <ele>407</ele>
        <time>2011-02-19T14:44:16Z</time>
      </trkpt>
      <trkpt lat="45.4428" lon="5.76512">
        <ele>407</ele>
        <time>2011-02-19T14:44:32Z</time>
      </trkpt>
      <trkpt lat="45.4428" lon="5.76512">
        <ele>407</ele>
        <time>2011-02-19T14:44:33Z</time>
      </trkpt>
      <trkpt lat="45.4431" lon="5.76547">
        <ele>407</ele>
        <time>2011-02-19T14:44:48Z</time>
      </trkpt>
      <trkpt lat="45.44359" lon="5.76598">
        <ele>407</ele>
        <time>2011-02-19T14:45:07Z</time>
      </trkpt>
      <trkpt lat="45.44372" lon="5.7661">
        <ele>408</ele>
        <time>2011-02-19T14:45:13Z</time>
      </trkpt>
      <trkpt lat="45.44372" lon="5.76616">
        <ele>407</ele>
        <time>2011-02-19T14:45:19Z</time>
      </trkpt>
      <trkpt lat="45.4438" lon="5.76621">
        <ele>408</ele>
        <time>2011-02-19T14:45:24Z</time>
      </trkpt>
      <trkpt lat="45.444" lon="5.76684">
        <ele>411</ele>
        <time>2011-02-19T14:45:40Z</time>
      </trkpt>
      <trkpt lat="45.44422" lon="5.76747">
        <ele>412</ele>
        <time>2011-02-19T14:45:56Z</time>
      </trkpt>
      <trkpt lat="45.44454" lon="5.76788">
        <ele>411</ele>
        <time>2011-02-19T14:46:08Z</time>
      </trkpt>
      <trkpt lat="45.44487" lon="5.76871">
        <ele>410</ele>
        <time>2011-02-19T14:46:23Z</time>
      </trkpt>
      <trkpt lat="45.44517" lon="5.76949">
        <ele>410</ele>
        <time>2011-02-19T14:46:40Z</time>
      </trkpt>
      <trkpt lat="45.44547" lon="5.77035">
        <ele>411</ele>
        <time>2011-02-19T14:46:58Z</time>
      </trkpt>
      <trkpt lat="45.44551" lon="5.77104">
        <ele>411</ele>
        <time>2011-02-19T14:47:12Z</time>
      </trkpt>
      <trkpt lat="45.44545" lon="5.7713">
        <ele>411</ele>
        <time>2011-02-19T14:47:17Z</time>
      </trkpt>
      <trkpt lat="45.44517" lon="5.77229">
        <ele>412</ele>
        <time>2011-02-19T14:47:36Z</time>
      </trkpt>
      <trkpt lat="45.44533" lon="5.7732">
        <ele>413</ele>
        <time>2011-02-19T14:47:55Z</time>
      </trkpt>
      <trkpt lat="45.44528" lon="5.77375">
        <ele>414</ele>
        <time>2011-02-19T14:48:08Z</time>
      </trkpt>
      <trkpt lat="45.44511" lon="5.77483">
        <ele>413</ele>
        <time>2011-02-19T14:48:25Z</time>
      </trkpt>
      <trkpt lat="45.44491" lon="5.7765">
        <ele>414</ele>
        <time>2011-02-19T14:48:41Z</time>
      </trkpt>
      <trkpt lat="45.44468" lon="5.77813">
        <ele>417</ele>
        <time>2011-02-19T14:48:58Z</time>
      </trkpt>
      <trkpt lat="45.44447" lon="5.7794">
        <ele>421</ele>
        <time>2011-02-19T14:49:18Z</time>
      </trkpt>
      <trkpt lat="45.44438" lon="5.77968">
        <ele>422</ele>
        <time>2011-02-19T14:49:29Z</time>
      </trkpt>
      <trkpt lat="45.44437" lon="5.77971">
        <ele>423</ele>
        <time>2011-02-19T14:49:59Z</time>
      </trkpt>
      <trkpt lat="45.44437" lon="5.77971">
        <ele>422</ele>
        <time>2011-02-19T14:51:33Z</time>
      </trkpt>
      <trkpt lat="45.44437" lon="5.77972">
        <ele>422</ele>
        <time>2011-02-19T14:51:42Z</time>
      </trkpt>
      <trkpt lat="45.44436" lon="5.77972">
        <ele>422</ele>
        <time>2011-02-19T14:51:56Z</time>
      </trkpt>
      <trkpt lat="45.44437" lon="5.77969">
        <ele>421</ele>
        <time>2011-02-19T14:54:45Z</time>
      </trkpt>
      <trkpt lat="45.44439" lon="5.77969">
        <ele>421</ele>
        <time>2011-02-19T14:54:58Z</time>
      </trkpt>
      <trkpt lat="45.44439" lon="5.7797">
        <ele>420</ele>
        <time>2011-02-19T14:55:23Z</time>
      </trkpt>
      <trkpt lat="45.44438" lon="5.77972">
        <ele>421</ele>
        <time>2011-02-19T14:55:35Z</time>
      </trkpt>
      <trkpt lat="45.44441" lon="5.77975">
        <ele>421</ele>
        <time>2011-02-19T14:55:42Z</time>
      </trkpt>
      <trkpt lat="45.44442" lon="5.77983">
        <ele>421</ele>
        <time>2011-02-19T14:55:46Z</time>
      </trkpt>
      <trkpt lat="45.44436" lon="5.78033">
        <ele>421</ele>
        <time>2011-02-19T14:55:58Z</time>
      </trkpt>
      <trkpt lat="45.44427" lon="5.78113">
        <ele>422</ele>
        <time>2011-02-19T14:56:15Z</time>
      </trkpt>
      <trkpt lat="45.44417" lon="5.78207">
        <ele>423</ele>
        <time>2011-02-19T14:56:37Z</time>
      </trkpt>
      <trkpt lat="45.44425" lon="5.7825">
        <ele>424</ele>
        <time>2011-02-19T14:56:51Z</time>
      </trkpt>
      <trkpt lat="45.44419" lon="5.78258">
        <ele>424</ele>
        <time>2011-02-19T14:56:56Z</time>
      </trkpt>
      <trkpt lat="45.44415" lon="5.7826">
        <ele>424</ele>
        <time>2011-02-19T14:56:58Z</time>
      </trkpt>
      <trkpt lat="45.44373" lon="5.78245">
        <ele>424</ele>
        <time>2011-02-19T14:57:15Z</time>
      </trkpt>
    </trkseg>
  </trk>
</gpx>